Provisional Data: South Branch Codorus Creek near Leader Heights, PA


Please select a monitoring station.
Please select start date.
Please select start date.

Toggle Unit: C/F Toggle Unit: C/F
Sample Time Temperature (C) Temperature (F) Specific Conductivity (mS/cm) pH   Turbidity (NTU+) DO (mg/L)
1/12/2021 12:00:00 AM 2.61 36.698 0.218 7.7 6.68 13.45
1/12/2021 12:15:00 AM 2.59 36.662 0.218 7.72 6.15 13.47
1/12/2021 12:30:00 AM 2.57 36.626 0.219 7.74 6.24 13.47
1/12/2021 12:45:00 AM 2.55 36.59 0.219 7.75 5.95 13.47
1/12/2021 1:00:00 AM 2.53 36.554 0.22 7.76 6.1 13.49
1/12/2021 1:15:00 AM 2.5 36.5 0.22 7.78 7.73 13.49
1/12/2021 1:30:00 AM 2.49 36.482 0.22 7.79 6.53 13.5
1/12/2021 1:45:00 AM 2.46 36.428 0.221 7.79 6.25 13.49
1/12/2021 2:00:00 AM 2.45 36.41 0.221 7.81 6.22 13.51
1/12/2021 2:15:00 AM 2.43 36.374 0.221 7.8 6.36 13.49
1/12/2021 2:30:00 AM 2.38 36.284 0.221 7.81 6.44 13.51
1/12/2021 2:45:00 AM 2.38 36.284 0.22 7.82 5.85 13.51
1/12/2021 3:00:00 AM 2.38 36.284 0.22 7.81 6.88 13.52
1/12/2021 3:15:00 AM 2.37 36.266 0.22 7.83 6.16 13.5
1/12/2021 3:30:00 AM 2.32 36.176 0.221 7.83 6.47 13.5
1/12/2021 3:45:00 AM 2.3 36.14 0.221 7.83 6.45 13.53
1/12/2021 4:00:00 AM 2.31 36.158 0.22 7.83 6.35 13.52
1/12/2021 4:15:00 AM 2.25 36.05 0.222 7.83 6.13 13.54
1/12/2021 4:30:00 AM 2.25 36.05 0.221 7.83 7.28 13.53
1/12/2021 4:45:00 AM 2.24 36.032 0.22 7.83 5.91 13.55
1/12/2021 5:00:00 AM 2.21 35.978 0.221 7.84 5.99 13.54
1/12/2021 5:15:00 AM 2.2 35.96 0.221 7.88 6.1 13.56
1/12/2021 5:30:00 AM 2.18 35.924 0.221 7.9 6.3 13.56
1/12/2021 5:45:00 AM 2.16 35.888 0.221 7.92 6.26 13.57
1/12/2021 6:00:00 AM 2.11 35.798 0.222 7.95 6.05 13.57
1/12/2021 6:15:00 AM 2.1 35.78 0.222 7.91 6 13.57
1/12/2021 6:30:00 AM 2.06 35.708 0.22 7.91 6.63 13.6
1/12/2021 6:45:00 AM 2.06 35.708 0.221 7.91 5.94 13.6
1/12/2021 7:00:00 AM 2.04 35.672 0.221 7.92 6.58 13.61
1/12/2021 7:15:00 AM 2.04 35.672 0.221 7.9 6.16 13.61
1/12/2021 7:30:00 AM 2 35.6 0.221 7.91 6.66 13.62
1/12/2021 7:45:00 AM 1.99 35.582 0.216 7.91 6.2 13.65
1/12/2021 8:00:00 AM 1.98 35.564 0.216 7.89 7.02 13.68
1/12/2021 8:15:00 AM 1.98 35.564 0.216 7.89 7.05 13.71
1/12/2021 8:30:00 AM 2.01 35.618 0.215 7.87 8.07 13.77
1/12/2021 8:45:00 AM 1.98 35.564 0.215 7.89 8.31 13.83
1/12/2021 9:00:00 AM 2.03 35.654 0.215 7.9 8.05 13.88
1/12/2021 9:15:00 AM 2.01 35.618 0.215 7.9 7.78 13.95
1/12/2021 9:30:00 AM 2.09 35.762 0.214 7.9 7.38 14
1/12/2021 9:45:00 AM 2.12 35.816 0.214 7.9 7.4 14.05
1/12/2021 10:00:00 AM 2.19 35.942 0.215 7.92 7.32 14.07
1/12/2021 10:15:00 AM 2.22 35.996 0.215 7.94 7.24 14.12
1/12/2021 10:30:00 AM 2.28 36.104 0.215 7.93 7.67 14.15
1/12/2021 10:45:00 AM 2.4 36.32 0.214 7.93 7.24 14.15
1/12/2021 11:00:00 AM 2.48 36.464 0.214 7.94 6.84 14.17
1/12/2021 11:15:00 AM 2.56 36.608 0.213 7.96 6.55 14.17
1/12/2021 11:30:00 AM 2.63 36.734 0.214 7.96 6.47 14.15
1/12/2021 11:45:00 AM 2.73 36.914 0.214 7.96 7.33 14.14
1/12/2021 12:00:00 PM 2.83 37.094 0.214 7.96 7.59 14.13
1/12/2021 12:15:00 PM 2.93 37.274 0.214 7.95 7.33 14.14
1/12/2021 12:30:00 PM 2.94 37.292 0.214 7.97 7.08 14.15
1/12/2021 12:45:00 PM 3.04 37.472 0.218 7.97 7.95 14.14
1/12/2021 1:00:00 PM 3.09 37.562 0.218 7.96 7.9 14.13
1/12/2021 1:15:00 PM 3.13 37.634 0.218 7.96 7.41 14.11
1/12/2021 1:30:00 PM 3.18 37.724 0.218 7.96 7.33 14.09
1/12/2021 1:45:00 PM 3.24 37.832 0.218 7.97 6.99 14.07
1/12/2021 2:00:00 PM 3.24 37.832 0.217 7.97 9.36 14.06
1/12/2021 2:15:00 PM 3.25 37.85 0.217 7.97 7.9 14.04
1/12/2021 2:30:00 PM 3.3 37.94 0.217 7.97 6.96 14.01
1/12/2021 2:45:00 PM 3.29 37.922 0.218 7.98 7.45 13.99
1/12/2021 3:00:00 PM 3.31 37.958 0.218 7.98 6.9 13.98
1/12/2021 3:15:00 PM 3.29 37.922 0.218 7.98 6.57 13.95
1/12/2021 3:30:00 PM 3.26 37.868 0.218 7.98 8.19 13.89
1/12/2021 3:45:00 PM 3.24 37.832 0.218 7.97 7.68 13.88
1/12/2021 4:00:00 PM 3.2 37.76 0.218 7.98 7.11 13.84
1/12/2021 4:15:00 PM 3.17 37.706 0.217 7.99 6.77 13.82
1/12/2021 4:30:00 PM 3.16 37.688 0.217 7.99 7.09 13.76
1/12/2021 4:45:00 PM 3.12 37.616 0.217 8 7.37 13.73
1/12/2021 5:00:00 PM 3.1 37.58 0.217 8.01 7.1 13.67
1/12/2021 5:15:00 PM 3.09 37.562 0.217 8 7.38 13.6
1/12/2021 5:30:00 PM 3.03 37.454 0.218 7.99 6.83 13.57
1/12/2021 5:45:00 PM 3.01 37.418 0.218 7.97 7.44 13.52
1/12/2021 6:00:00 PM 2.98 37.364 0.219 7.97 6.98 13.5
1/12/2021 6:15:00 PM 2.96 37.328 0.218 7.97 6.95 13.49
1/12/2021 6:30:00 PM 2.91 37.238 0.219 7.96 6.47 13.47
1/12/2021 6:45:00 PM 2.89 37.202 0.218 7.95 6.83 13.45
1/12/2021 7:00:00 PM 2.87 37.166 0.219 7.95 6.64 13.44
1/12/2021 7:15:00 PM 2.85 37.13 0.218 7.93 6.98 13.45
1/12/2021 7:30:00 PM 2.83 37.094 0.219 7.94 7.2 13.43
1/12/2021 7:45:00 PM 2.83 37.094 0.219 7.92 7.4 13.41
1/12/2021 8:00:00 PM 2.83 37.094 0.219 7.91 6.83 13.42
1/12/2021 8:15:00 PM 2.81 37.058 0.217 7.93 7.09 13.42
1/12/2021 8:30:00 PM 2.8 37.04 0.218 7.91 10.27 13.41
1/12/2021 8:45:00 PM 2.8 37.04 0.218 7.91 6.52 13.41
1/12/2021 9:00:00 PM 2.78 37.004 0.218 7.91 6.45 13.41
1/12/2021 9:15:00 PM 2.79 37.022 0.218 7.92 7.46 13.38
1/12/2021 9:30:00 PM 2.8 37.04 0.217 7.92 7.52 13.37
1/12/2021 9:45:00 PM 2.8 37.04 0.217 7.89 6.76 13.38
1/12/2021 10:00:00 PM 2.79 37.022 0.221 7.87 6.71 13.37
1/12/2021 10:15:00 PM 2.78 37.004 0.218 7.67 6.5 13.38
1/12/2021 10:30:00 PM 2.77 36.986 0.211 7.8 7.27 13.37
1/12/2021 10:45:00 PM 2.77 36.986 0.216 7.82 7.25 13.38
1/12/2021 11:00:00 PM 2.75 36.95 0.214 7.79 9.09 13.38
1/12/2021 11:15:00 PM 2.74 36.932 0.215 7.83 8 13.38
1/12/2021 11:30:00 PM 2.71 36.878 0.217 7.83 7.29 13.37
1/12/2021 11:45:00 PM 2.69 36.842 0.215 7.85 6.45 13.38
1/13/2021 12:00:00 AM 2.68 36.824 0.217 7.85 7.32 13.39
1/13/2021 12:15:00 AM 2.66 36.788 0.217 7.85 6.98 13.36
1/13/2021 12:30:00 AM 2.65 36.77 0.217 7.87 7.08 13.39
1/13/2021 12:45:00 AM 2.63 36.734 0.218 7.86 7.1 13.4
1/13/2021 1:00:00 AM 2.6 36.68 0.218 7.88 6.76 13.4
1/13/2021 1:15:00 AM 2.56 36.608 0.218 7.92 6.67 13.41
1/13/2021 1:30:00 AM 2.56 36.608 0.22 7.93 7.12 13.42
1/13/2021 1:45:00 AM 2.52 36.536 0.218 7.93 7.07 13.41
1/13/2021 2:00:00 AM 2.49 36.482 0.218 7.93 6.82 13.43
1/13/2021 2:15:00 AM 2.48 36.464 0.217 7.92 7.15 13.44
1/13/2021 2:30:00 AM 2.45 36.41 0.217 7.93 6.8 13.44
1/13/2021 2:45:00 AM 2.43 36.374 0.216 7.92 6.65 13.45
1/13/2021 3:00:00 AM 2.41 36.338 0.217 7.9 6.57 13.45
1/13/2021 3:15:00 AM 2.39 36.302 0.217 7.91 7.65 13.46
1/13/2021 3:30:00 AM 2.38 36.284 0.216 7.9 6.96 13.45
1/13/2021 3:45:00 AM 2.34 36.212 0.217 7.9 7.01 13.46
1/13/2021 4:00:00 AM 2.31 36.158 0.217 7.9 6.63 13.47
1/13/2021 4:15:00 AM 2.29 36.122 0.217 7.91 6.8 13.49
1/13/2021 4:30:00 AM 2.29 36.122 0.216 7.89 6.69 13.49
1/13/2021 4:45:00 AM 2.24 36.032 0.214 7.89 6.5 13.51
1/13/2021 5:00:00 AM 2.28 36.104 0.216 7.89 6.4 13.48
1/13/2021 5:15:00 AM 2.25 36.05 0.216 7.89 6.77 13.5
1/13/2021 5:30:00 AM 2.26 36.068 0.219 7.87 6.63 13.49
1/13/2021 5:45:00 AM 2.23 36.014 0.218 7.87 6.33 13.47
1/13/2021 6:00:00 AM 2.21 35.978 0.218 7.88 6.68 13.51
1/13/2021 6:15:00 AM 2.21 35.978 0.218 7.88 6.59 13.51
1/13/2021 6:30:00 AM 2.19 35.942 0.217 7.86 6.75 13.54
1/13/2021 6:45:00 AM 2.13 35.834 0.217 7.88 7.84 13.53
1/13/2021 7:00:00 AM 2.19 35.942 0.217 7.88 6.35 13.53
1/13/2021 7:15:00 AM 2.22 35.996 0.216 7.87 7.19 13.53
1/13/2021 7:30:00 AM 2.23 36.014 0.213 7.88 6.46 13.54
1/13/2021 7:45:00 AM 2.21 35.978 0.212 7.89 6.38 13.54
1/13/2021 8:00:00 AM 2.21 35.978 0.21 7.89 6.3 13.58
1/13/2021 8:15:00 AM 2.27 36.086 0.205 7.88 7.05 13.63
1/13/2021 8:30:00 AM 2.27 36.086 0.204 7.88 6.45 13.7
1/13/2021 8:45:00 AM 2.33 36.194 0.204 7.88 7.83 13.79
1/13/2021 9:00:00 AM 2.38 36.284 0.203 7.89 7.4 13.89
1/13/2021 9:15:00 AM 2.41 36.338 0.203 7.88 6.53 13.9
1/13/2021 9:30:00 AM 2.47 36.446 0.203 7.91 6.36 13.97
1/13/2021 9:45:00 AM 2.53 36.554 0.203 7.92 6.57 14.02
1/13/2021 10:00:00 AM 2.54 36.572 0.203 7.91 6.66 14.06
1/13/2021 10:15:00 AM 2.62 36.716 0.202 7.92 7.3 14.09
1/13/2021 10:30:00 AM 2.66 36.788 0.21 7.94 7.23 14.11
1/13/2021 10:45:00 AM 2.77 36.986 0.209 7.94 7.07 14.09
1/13/2021 11:00:00 AM 2.8 37.04 0.209 7.96 8.21 14.12
1/13/2021 11:15:00 AM 2.89 37.202 0.209 7.96 6.47 14.13
1/13/2021 11:30:00 AM 2.99 37.382 0.209 7.95 7.54 14.13
1/13/2021 11:45:00 AM 3.1 37.58 0.209 7.97 6.79 14.12
1/13/2021 12:00:00 PM 3.1 37.58 0.208 7.97 7.04 14.12
1/13/2021 12:15:00 PM 3.24 37.832 0.209 7.98 7.02 14.1
1/13/2021 12:30:00 PM 3.26 37.868 0.209 8 7.13 14.13
1/13/2021 12:45:00 PM 3.35 38.03 0.209 8.01 7.3 14.09
1/13/2021 1:00:00 PM 3.41 38.138 0.209 8.02 7.32 14.07
1/13/2021 1:15:00 PM 3.45 38.21 0.208 8.02 7.32 14.08
1/13/2021 1:30:00 PM 3.47 38.246 0.209 8.03 7.36 14.06
1/13/2021 1:45:00 PM 3.52 38.336 0.208 8.02 6.58 14.01
1/13/2021 2:00:00 PM 3.55 38.39 0.208 8.01 6.48 14.01
1/13/2021 2:15:00 PM 3.58 38.444 0.208 8 6.62 14.01
1/13/2021 2:30:00 PM 3.59 38.462 0.208 8 7.33 13.96
1/13/2021 2:45:00 PM 3.6 38.48 0.208 8 6.79 13.95
1/13/2021 3:00:00 PM 3.59 38.462 0.208 8 6.78 13.9
1/13/2021 3:15:00 PM 3.59 38.462 0.209 7.99 6.81 13.87
1/13/2021 3:30:00 PM 3.59 38.462 0.209 7.99 6.79 13.8
1/13/2021 3:45:00 PM 3.55 38.39 0.21 7.98 7.03 13.79
1/13/2021 4:00:00 PM 3.53 38.354 0.21 7.99 6.2 13.74
1/13/2021 4:15:00 PM 3.48 38.264 0.21 7.98 6.6 13.72
1/13/2021 4:30:00 PM 3.45 38.21 0.209 7.97 6.57 13.67
1/13/2021 4:45:00 PM 3.43 38.174 0.209 7.98 7.34 13.62
1/13/2021 5:00:00 PM 3.41 38.138 0.209 7.98 9.44 13.56
1/13/2021 5:15:00 PM 3.39 38.102 0.209 7.97 7.8 13.5
1/13/2021 5:30:00 PM 3.36 38.048 0.21 7.97 8.1 13.45
1/13/2021 5:45:00 PM 3.31 37.958 0.211 7.96 6.42 13.42
1/13/2021 6:00:00 PM 3.27 37.886 0.212 7.96 6.6 13.39
1/13/2021 6:15:00 PM 3.23 37.814 0.213 7.99 5.99 13.36
1/13/2021 6:30:00 PM 3.19 37.742 0.214 7.99 6.59 13.34
1/13/2021 6:45:00 PM 3.15 37.67 0.213 7.99 6.29 13.33
1/13/2021 7:00:00 PM 3.12 37.616 0.213 7.98 6.1 13.32
1/13/2021 7:15:00 PM 3.09 37.562 0.212 7.97 6.21 13.31
1/13/2021 7:30:00 PM 3.08 37.544 0.216 7.99 6.16 13.3
1/13/2021 7:45:00 PM 3.06 37.508 0.216 7.98 6.99 13.28
1/13/2021 8:00:00 PM 3.06 37.508 0.217 7.97 6.43 13.28
1/13/2021 8:15:00 PM 3.05 37.49 0.217 7.98 6.49 13.27
1/13/2021 8:30:00 PM 3.04 37.472 0.217 7.97 6.5 13.27
1/13/2021 8:45:00 PM 3.04 37.472 0.216 7.96 6.22 13.26
1/13/2021 9:00:00 PM 3.03 37.454 0.214 7.96 6.42 13.25
1/13/2021 9:15:00 PM 3.04 37.472 0.214 7.94 6.08 13.23
1/13/2021 9:30:00 PM 3.03 37.454 0.214 7.93 5.94 13.24
1/13/2021 9:45:00 PM 3.04 37.472 0.214 7.92 6.62 13.23
1/13/2021 10:00:00 PM 3.04 37.472 0.215 7.91 6.04 13.21
1/13/2021 10:15:00 PM 3.04 37.472 0.215 7.91 6.26 13.21
1/13/2021 10:30:00 PM 3.04 37.472 0.216 7.9 6.41 13.21
1/13/2021 10:45:00 PM 3.06 37.508 0.215 7.9 6.29 13.19
1/13/2021 11:00:00 PM 3.05 37.49 0.216 7.89 6.72 13.19
1/13/2021 11:15:00 PM 3.02 37.436 0.216 7.89 6.07 13.2
1/13/2021 11:30:00 PM 3.02 37.436 0.216 7.89 6.48 13.2
1/13/2021 11:45:00 PM 3.02 37.436 0.216 7.89 6.75 13.2
1/14/2021 12:00:00 AM 3.01 37.418 0.215 7.9 6.5 13.18
1/14/2021 12:15:00 AM 2.98 37.364 0.216 7.89 6.31 13.18
1/14/2021 12:30:00 AM 2.97 37.346 0.216 7.89 6.53 13.19
1/14/2021 12:45:00 AM 2.95 37.31 0.216 7.9 6.44 13.18
1/14/2021 1:00:00 AM 2.92 37.256 0.216 7.89 6.4 13.18
1/14/2021 1:15:00 AM 2.92 37.256 0.217 7.89 7.3 13.19
1/14/2021 1:30:00 AM 2.89 37.202 0.215 7.89 5.99 13.21
1/14/2021 1:45:00 AM 2.87 37.166 0.217 7.87 6.72 13.2
1/14/2021 2:00:00 AM 2.85 37.13 0.222 7.87 6.25 13.21
1/14/2021 2:15:00 AM 2.87 37.166 0.22 7.88 7.13 13.19
1/14/2021 2:30:00 AM 2.83 37.094 0.214 7.89 6.54 13.2
1/14/2021 2:45:00 AM 2.84 37.112 0.222 7.87 6.9 13.19
1/14/2021 3:00:00 AM 2.83 37.094 0.222 7.86 6.86 13.21
1/14/2021 3:15:00 AM 2.83 37.094 0.222 7.84 6.99 13.2
1/14/2021 3:30:00 AM 2.81 37.058 0.218 7.85 6.97 13.21
1/14/2021 3:45:00 AM 2.8 37.04 0.217 7.84 7.16 13.22
1/14/2021 4:00:00 AM 2.77 36.986 0.218 7.84 7.29 13.21
1/14/2021 4:15:00 AM 2.78 37.004 0.222 7.84 7.62 13.21
1/14/2021 4:30:00 AM 2.75 36.95 0.213 7.85 7.01 13.22
1/14/2021 4:45:00 AM 2.75 36.95 0.213 7.85 6.89 13.2
1/14/2021 5:00:00 AM 2.76 36.968 0.212 7.86 6.65 13.22
1/14/2021 5:15:00 AM 2.75 36.95 0.213 7.84 6.99 13.23
1/14/2021 5:30:00 AM 2.77 36.986 0.212 7.84 6.34 13.23
1/14/2021 5:45:00 AM 2.75 36.95 0.21 7.83 6.73 13.21
1/14/2021 6:00:00 AM 2.77 36.986 0.212 7.83 6.39 13.22
1/14/2021 6:15:00 AM 2.75 36.95 0.21 7.85 6.23 13.22
1/14/2021 6:30:00 AM 2.72 36.896 0.215 7.85 6.34 13.22
1/14/2021 6:45:00 AM 2.71 36.878 0.215 7.84 6.16 13.22
1/14/2021 7:00:00 AM 2.68 36.824 0.215 7.84 6.09 13.24
1/14/2021 7:15:00 AM 2.67 36.806 0.214 7.87 6.21 13.25
1/14/2021 7:30:00 AM 2.69 36.842 0.214 7.86 6.13 13.24
1/14/2021 7:45:00 AM 2.71 36.878 0.213 7.85 6.93 13.27
1/14/2021 8:00:00 AM 2.71 36.878 0.213 7.83 6.63 13.29
1/14/2021 8:15:00 AM 2.74 36.932 0.212 7.85 6.35 13.34
1/14/2021 8:30:00 AM 2.78 37.004 0.211 7.84 6.63 13.41
1/14/2021 8:45:00 AM 2.81 37.058 0.21 7.84 7.28 13.5
1/14/2021 9:00:00 AM 2.89 37.202 0.21 7.84 6.94 13.59
1/14/2021 9:15:00 AM 2.89 37.202 0.21 7.85 6.87 13.67
1/14/2021 9:30:00 AM 2.96 37.328 0.21 7.85 6.81 13.71
1/14/2021 9:45:00 AM 3.01 37.418 0.209 7.86 7.55 13.75
1/14/2021 10:00:00 AM 3.03 37.454 0.209 7.87 6.31 13.77
1/14/2021 10:15:00 AM 3.08 37.544 0.21 7.87 5.96 13.79
1/14/2021 10:30:00 AM 3.14 37.652 0.209 7.87 5.94 13.85
1/14/2021 10:45:00 AM 3.19 37.742 0.209 7.88 6.27 13.86
1/14/2021 11:00:00 AM 3.25 37.85 0.209 7.88 6.36 13.88
1/14/2021 11:15:00 AM 3.28 37.904 0.209 7.88 6.44 13.88
1/14/2021 11:30:00 AM 3.36 38.048 0.209 7.88 6.45 13.88
1/14/2021 11:45:00 AM 3.42 38.156 0.208 7.89 6.06 13.91
1/14/2021 12:00:00 PM 3.55 38.39 0.208 7.89 6.44 13.88
1/14/2021 12:15:00 PM 3.63 38.534 0.208 7.88 6.87 13.9
1/14/2021 12:30:00 PM 3.71 38.678 0.209 7.89 6.18 13.93
1/14/2021 12:45:00 PM 3.82 38.876 0.21 7.89 6.68 13.92
1/14/2021 1:00:00 PM 3.88 38.984 0.21 7.96 7.17 13.9
1/14/2021 1:15:00 PM 3.88 38.984 0.21 7.97 7.35 13.88
1/14/2021 1:30:00 PM 3.9 39.02 0.21 7.97 6.78 13.84
1/14/2021 1:45:00 PM 3.89 39.002 0.21 7.96 7.11 13.82
1/14/2021 2:00:00 PM 3.93 39.074 0.209 7.96 6.21 13.81
1/14/2021 2:15:00 PM 3.98 39.164 0.209 7.98 6.61 13.81
1/14/2021 2:30:00 PM 4 39.2 0.209 7.97 6.99 13.8
1/14/2021 2:45:00 PM 4.03 39.254 0.21 7.96 6.26 13.78
1/14/2021 3:00:00 PM 4.04 39.272 0.209 7.96 6.31 13.75
1/14/2021 3:15:00 PM 4.05 39.29 0.211 7.89 6.55 13.71
1/14/2021 3:30:00 PM 4.06 39.308 0.211 7.86 6.24 13.7
1/14/2021 3:45:00 PM 4.06 39.308 0.211 7.91 6.45 13.67
1/14/2021 4:00:00 PM 4.04 39.272 0.212 7.91 6.31 13.63
1/14/2021 4:15:00 PM 4.02 39.236 0.211 7.92 6.3 13.58
1/14/2021 4:30:00 PM 4.01 39.218 0.211 7.91 6.2 13.51
1/14/2021 4:45:00 PM 3.98 39.164 0.211 7.91 6.27 13.42
1/14/2021 5:00:00 PM 3.96 39.128 0.212 7.9 9.14 13.33
1/14/2021 5:15:00 PM 3.94 39.092 0.213 7.89 6.25 13.26
1/14/2021 5:30:00 PM 3.9 39.02 0.212 7.89 6.05 13.19
1/14/2021 5:45:00 PM 3.86 38.948 0.212 7.88 6.08 13.14
1/14/2021 6:00:00 PM 3.82 38.876 0.22 7.88 6.33 13.12
1/14/2021 6:15:00 PM 3.78 38.804 0.219 7.87 6.14 13.09
1/14/2021 6:30:00 PM 3.73 38.714 0.218 7.87 6.66 13.06
1/14/2021 6:45:00 PM 3.68 38.624 0.219 7.87 6.53 13.05
1/14/2021 7:00:00 PM 3.66 38.588 0.218 7.86 6.45 13.05
1/14/2021 7:15:00 PM 3.63 38.534 0.216 7.84 6.51 13.03
1/14/2021 7:30:00 PM 3.62 38.516 0.215 7.86 6.62 13.03
1/14/2021 7:45:00 PM 3.61 38.498 0.216 7.85 5.95 13.01
1/14/2021 8:00:00 PM 3.6 38.48 0.216 7.84 6.21 13.01
1/14/2021 8:15:00 PM 3.58 38.444 0.215 7.84 6.34 13.01
1/14/2021 8:30:00 PM 3.57 38.426 0.215 7.83 5.91 13
1/14/2021 8:45:00 PM 3.55 38.39 0.216 7.83 7.11 13
1/14/2021 9:00:00 PM 3.54 38.372 0.216 7.83 6.29 12.99
1/14/2021 9:15:00 PM 3.53 38.354 0.216 7.84 6.21 12.98
1/14/2021 9:30:00 PM 3.53 38.354 0.216 7.84 6.28 12.98
1/14/2021 9:45:00 PM 3.53 38.354 0.215 7.83 6.23 12.96
1/14/2021 10:00:00 PM 3.54 38.372 0.216 7.82 5.91 12.97
1/14/2021 10:15:00 PM 3.54 38.372 0.216 7.82 5.83 12.96
1/14/2021 10:30:00 PM 3.54 38.372 0.217 7.83 6.06 12.95
1/14/2021 10:45:00 PM 3.54 38.372 0.217 7.83 6.78 12.94
1/14/2021 11:00:00 PM 3.53 38.354 0.216 7.84 6.39 12.95
1/14/2021 11:15:00 PM 3.52 38.336 0.217 7.83 6.88 12.95
1/14/2021 11:30:00 PM 3.51 38.318 0.216 7.84 6.2 12.94
1/14/2021 11:45:00 PM 3.51 38.318 0.219 7.86 6.6 12.94
1/15/2021 12:00:00 AM 3.5 38.3 0.219 7.86 5.82 12.95
1/15/2021 12:15:00 AM 3.5 38.3 0.22 7.88 6.09 12.95
1/15/2021 12:30:00 AM 3.49 38.282 0.218 7.88 6.21 12.93
1/15/2021 12:45:00 AM 3.47 38.246 0.221 7.88 6.34 12.93
1/15/2021 1:00:00 AM 3.45 38.21 0.22 7.87 6.09 12.94
1/15/2021 1:15:00 AM 3.43 38.174 0.22 7.87 6.23 12.93
1/15/2021 1:30:00 AM 3.41 38.138 0.219 7.88 6.1 12.94
1/15/2021 1:45:00 AM 3.38 38.084 0.22 7.87 5.67 12.95
1/15/2021 2:00:00 AM 3.36 38.048 0.219 7.87 5.82 12.93
1/15/2021 2:15:00 AM 3.35 38.03 0.218 7.87 6.57 12.94
1/15/2021 2:30:00 AM 3.34 38.012 0.218 7.86 6.29 12.95
1/15/2021 2:45:00 AM 3.34 38.012 0.219 7.87 6 12.95
1/15/2021 3:00:00 AM 3.34 38.012 0.22 7.88 5.89 12.94
1/15/2021 3:15:00 AM 3.33 37.994 0.22 7.89 6.6 12.96
1/15/2021 3:30:00 AM 3.32 37.976 0.221 7.89 6.12 12.97
1/15/2021 3:45:00 AM 3.32 37.976 0.221 7.9 6.24 12.95
1/15/2021 4:00:00 AM 3.3 37.94 0.221 7.89 6.69 12.94
1/15/2021 4:15:00 AM 3.29 37.922 0.22 7.9 6.34 12.97
1/15/2021 4:30:00 AM 3.28 37.904 0.22 7.9 6.49 12.96
1/15/2021 4:45:00 AM 3.26 37.868 0.221 7.89 6.19 12.98
1/15/2021 5:00:00 AM 3.27 37.886 0.22 7.9 6.35 12.97
1/15/2021 5:15:00 AM 3.27 37.886 0.221 7.9 7.74 12.96
1/15/2021 5:30:00 AM 3.26 37.868 0.221 7.9 7.13 12.97
1/15/2021 5:45:00 AM 3.26 37.868 0.22 7.89 7.14 12.98
1/15/2021 6:00:00 AM 3.26 37.868 0.221 7.89 6.6 12.97
1/15/2021 6:15:00 AM 3.26 37.868 0.221 7.9 6.6 12.98
1/15/2021 6:30:00 AM 3.24 37.832 0.22 7.9 6.81 12.98
1/15/2021 6:45:00 AM 3.25 37.85 0.22 7.9 6.28 12.97
1/15/2021 7:00:00 AM 3.25 37.85 0.22 7.9 6.43 12.98
1/15/2021 7:15:00 AM 3.25 37.85 0.22 7.9 6.05 12.97
1/15/2021 7:30:00 AM 3.27 37.886 0.22 7.9 6.47 12.98
1/15/2021 7:45:00 AM 3.27 37.886 0.221 7.89 6.18 13
1/15/2021 8:00:00 AM 3.29 37.922 0.221 7.88 6.78 13.02
1/15/2021 8:15:00 AM 3.29 37.922 0.22 7.88 6.28 13.07
1/15/2021 8:30:00 AM 3.3 37.94 0.22 7.89 6.57 13.12
1/15/2021 8:45:00 AM 3.32 37.976 0.219 7.87 6.47 13.19
1/15/2021 9:00:00 AM 3.35 38.03 0.218 7.88 6.83 13.28
1/15/2021 9:15:00 AM 3.38 38.084 0.218 7.88 6.1 13.37
1/15/2021 9:30:00 AM 3.43 38.174 0.218 7.87 6.28 13.45
1/15/2021 9:45:00 AM 3.47 38.246 0.218 7.89 6.34 13.52
1/15/2021 10:00:00 AM 3.52 38.336 0.219 7.9 6.21 13.57
1/15/2021 10:15:00 AM 3.57 38.426 0.219 7.89 6.82 13.61
1/15/2021 10:30:00 AM 3.63 38.534 0.219 7.91 6.81 13.65
1/15/2021 10:45:00 AM 3.65 38.57 0.218 7.9 6.37 13.62
1/15/2021 11:00:00 AM 3.69 38.642 0.218 7.9 7.07 13.59
1/15/2021 11:15:00 AM 3.72 38.696 0.218 7.9 6.37 13.59
1/15/2021 11:30:00 AM 3.77 38.786 0.218 7.92 6.55 13.63
1/15/2021 11:45:00 AM 3.83 38.894 0.218 7.93 6.17 13.64
1/15/2021 12:00:00 PM 3.88 38.984 0.217 7.93 6.67 13.63
1/15/2021 12:15:00 PM 3.97 39.146 0.218 7.94 6.19 13.7
1/15/2021 12:30:00 PM 4.08 39.344 0.219 7.96 6.78 13.73
1/15/2021 12:45:00 PM 4.16 39.488 0.219 7.96 6.39 13.72
1/15/2021 1:00:00 PM 4.26 39.668 0.219 7.96 6.76 13.77
1/15/2021 1:15:00 PM 4.34 39.812 0.219 7.97 6.3 13.76
1/15/2021 1:30:00 PM 4.39 39.902 0.219 7.99 6.3 13.77
1/15/2021 1:45:00 PM 4.43 39.974 0.219 8 6.61 13.73
1/15/2021 2:00:00 PM 4.43 39.974 0.218 8 6.53 13.71
1/15/2021 2:15:00 PM 4.41 39.938 0.219 8 6.22 13.63
1/15/2021 2:30:00 PM 4.39 39.902 0.219 7.95 6.48 13.51
1/15/2021 2:45:00 PM 4.38 39.884 0.219 7.99 6.07 13.44
1/15/2021 3:00:00 PM 4.37 39.866 0.22 7.96 6.55 13.39
1/15/2021 3:15:00 PM 4.36 39.848 0.22 7.96 6.14 13.36
1/15/2021 3:30:00 PM 4.34 39.812 0.22 7.95 6.74 13.31
1/15/2021 3:45:00 PM 4.32 39.776 0.221 7.96 6.37 13.24
1/15/2021 4:00:00 PM 4.3 39.74 0.221 7.96 5.8 13.17
1/15/2021 4:15:00 PM 4.28 39.704 0.22 7.96 6.48 13.12
1/15/2021 4:30:00 PM 4.27 39.686 0.22 7.96 6.19 13.08
1/15/2021 4:45:00 PM 4.25 39.65 0.22 7.96 6.66 13.04
1/15/2021 5:00:00 PM 4.25 39.65 0.219 7.95 6.03 12.98
1/15/2021 5:15:00 PM 4.25 39.65 0.22 7.94 6.12 12.93
1/15/2021 5:30:00 PM 4.25 39.65 0.221 7.95 6.13 12.89
1/15/2021 5:45:00 PM 4.26 39.668 0.221 7.94 5.75 12.85
1/15/2021 6:00:00 PM 4.26 39.668 0.221 7.93 5.99 12.83
1/15/2021 6:15:00 PM 4.26 39.668 0.223 7.92 5.95 12.8
1/15/2021 6:30:00 PM 4.26 39.668 0.217 7.92 6.35 12.78
1/15/2021 6:45:00 PM 4.26 39.668 0.214 7.92 6.03 12.76
1/15/2021 7:00:00 PM 4.26 39.668 0.217 7.91 6.04 12.76
1/15/2021 7:15:00 PM 4.27 39.686 0.217 7.9 6.16 12.74
1/15/2021 7:30:00 PM 4.29 39.722 0.217 7.89 7.27 12.73
1/15/2021 7:45:00 PM 4.32 39.776 0.216 7.9 6.39 12.7
1/15/2021 8:00:00 PM 4.33 39.794 0.215 7.88 6.75 12.68
1/15/2021 8:15:00 PM 4.35 39.83 0.219 7.88 6.02 12.68
1/15/2021 8:30:00 PM 4.37 39.866 0.217 7.86 6.01 12.66
1/15/2021 8:45:00 PM 4.38 39.884 0.217 7.88 6.57 12.65
1/15/2021 9:00:00 PM 4.38 39.884 0.219 7.88 6.01 12.65
1/15/2021 9:15:00 PM 4.39 39.902 0.22 7.88 6.19 12.63
1/15/2021 9:30:00 PM 4.39 39.902 0.22 7.88 6.41 12.64
1/15/2021 9:45:00 PM 4.39 39.902 0.22 7.88 6.06 12.63
1/15/2021 10:00:00 PM 4.4 39.92 0.221 7.89 6.18 12.61
1/15/2021 10:15:00 PM 4.4 39.92 0.22 7.87 6.89 12.6
1/15/2021 10:30:00 PM 4.42 39.956 0.221 7.89 6.39 12.59
1/15/2021 10:45:00 PM 4.43 39.974 0.218 7.87 6.93 12.58
1/15/2021 11:00:00 PM 4.43 39.974 0.217 7.87 7.39 12.58
1/15/2021 11:15:00 PM 4.42 39.956 0.213 7.87 6.22 12.58
1/15/2021 11:30:00 PM 4.41 39.938 0.214 7.86 6.66 12.56
1/15/2021 11:45:00 PM 4.43 39.974 0.213 7.86 5.99 12.56
1/16/2021 12:00:00 AM 4.42 39.956 0.214 7.86 6.24 12.55
1/16/2021 12:15:00 AM 4.45 40.01 0.215 7.86 5.78 12.54
1/16/2021 12:30:00 AM 4.46 40.028 0.213 7.87 6.44 12.53
1/16/2021 12:45:00 AM 4.46 40.028 0.213 7.85 7.44 12.53
1/16/2021 1:00:00 AM 4.45 40.01 0.214 7.85 6.79 12.52
1/16/2021 1:15:00 AM 4.47 40.046 0.211 7.86 6.38 12.5
1/16/2021 1:30:00 AM 4.46 40.028 0.213 7.85 6.36 12.51
1/16/2021 1:45:00 AM 4.47 40.046 0.221 7.85 6.33 12.5
1/16/2021 2:00:00 AM 4.48 40.064 0.218 7.85 6.91 12.49
1/16/2021 2:15:00 AM 4.46 40.028 0.218 7.85 6.64 12.49
1/16/2021 2:30:00 AM 4.46 40.028 0.218 7.84 7.24 12.48
1/16/2021 2:45:00 AM 4.48 40.064 0.218 7.85 6.76 12.47
1/16/2021 3:00:00 AM 4.48 40.064 0.217 7.86 7.59 12.47
1/16/2021 3:15:00 AM 4.49 40.082 0.217 7.85 6.77 12.47
1/16/2021 3:30:00 AM 4.49 40.082 0.217 7.8 7.12 12.47
1/16/2021 3:45:00 AM 4.48 40.064 0.216 7.83 7.44 12.47
1/16/2021 4:00:00 AM 4.47 40.046 0.215 7.83 7.61 12.45
1/16/2021 4:15:00 AM 4.46 40.028 0.214 7.83 7.15 12.46
1/16/2021 4:30:00 AM 4.41 39.938 0.215 7.84 7.23 12.46
1/16/2021 4:45:00 AM 4.38 39.884 0.215 7.83 7.63 12.47
1/16/2021 5:00:00 AM 4.32 39.776 0.217 7.83 7.74 12.46
1/16/2021 5:15:00 AM 4.33 39.794 0.219 7.83 7.12 12.46
1/16/2021 5:30:00 AM 4.31 39.758 0.218 7.83 7.2 12.46
1/16/2021 5:45:00 AM 4.29 39.722 0.218 7.84 8.05 12.46
1/16/2021 6:00:00 AM 4.25 39.65 0.218 7.85 7.21 12.48
1/16/2021 6:15:00 AM 4.21 39.578 0.218 7.85 7.33 12.48
1/16/2021 6:30:00 AM 4.2 39.56 0.217 7.84 7.33 12.48
1/16/2021 6:45:00 AM 4.15 39.47 0.216 7.83 7.87 12.49
1/16/2021 7:00:00 AM 4.15 39.47 0.214 7.83 7.4 12.5
1/16/2021 7:15:00 AM 4.12 39.416 0.214 7.83 7.14 12.5
1/16/2021 7:30:00 AM 4.12 39.416 0.215 7.83 7.42 12.5
1/16/2021 7:45:00 AM 4.12 39.416 0.215 7.83 7.9 12.53
1/16/2021 8:00:00 AM 4.12 39.416 0.215 7.83 8.01 12.57
1/16/2021 8:15:00 AM 4.12 39.416 0.215 7.83 7.64 12.63
1/16/2021 8:30:00 AM 4.14 39.452 0.214 7.82 7.66 12.71
1/16/2021 8:45:00 AM 4.15 39.47 0.214 7.83 7.09 12.78
1/16/2021 9:00:00 AM 4.18 39.524 0.214 7.84 9.07 12.82
1/16/2021 9:15:00 AM 4.18 39.524 0.213 7.84 6.74 12.9
1/16/2021 9:30:00 AM 4.28 39.704 0.214 7.83 6.97 13
1/16/2021 9:45:00 AM 4.34 39.812 0.213 7.86 7.27 13.07
1/16/2021 10:00:00 AM 4.37 39.866 0.214 7.85 7.04 13.14
1/16/2021 10:15:00 AM 4.43 39.974 0.214 7.87 7.55 13.2
1/16/2021 10:30:00 AM 4.49 40.082 0.213 7.87 6.58 13.24
1/16/2021 10:45:00 AM 4.53 40.154 0.213 7.88 7.28 13.26
1/16/2021 11:00:00 AM 4.59 40.262 0.213 7.91 7.35 13.29
1/16/2021 11:15:00 AM 4.66 40.388 0.213 7.94 7.89 13.28
1/16/2021 11:30:00 AM 4.72 40.496 0.212 8.02 7.81 13.31
1/16/2021 11:45:00 AM 4.8 40.64 0.212 8.11 7.64 13.34
1/16/2021 12:00:00 PM 4.82 40.676 0.212 8.13 7.55 13.36
1/16/2021 12:15:00 PM 4.9 40.82 0.213 8.1 6.5 13.36
1/16/2021 12:30:00 PM 4.95 40.91 0.213 8.07 6.82 13.38
1/16/2021 12:45:00 PM 5.01 41.018 0.212 8.02 6.87 13.39
1/16/2021 1:00:00 PM 5.03 41.054 0.213 8.02 6.56 13.4
1/16/2021 1:15:00 PM 5.08 41.144 0.213 8.01 6.95 13.39
1/16/2021 1:30:00 PM 5.11 41.198 0.213 7.98 7.07 13.4
1/16/2021 1:45:00 PM 5.13 41.234 0.213 7.97 6.52 13.37
1/16/2021 2:00:00 PM 5.12 41.216 0.212 7.98 6.48 13.37
1/16/2021 2:15:00 PM 5.14 41.252 0.209 7.95 6.99 13.37
1/16/2021 2:30:00 PM 5.13 41.234 0.192 7.98 7.39 13.35
1/16/2021 2:45:00 PM 5.09 41.162 0.193 7.98 6.83 13.33
1/16/2021 3:00:00 PM 5.12 41.216 0.193 7.97 6.77 13.31
1/16/2021 3:15:00 PM 5.08 41.144 0.195 7.99 6.95 13.3
1/16/2021 3:30:00 PM 5.07 41.126 0.198 7.99 6.6 13.27
1/16/2021 3:45:00 PM 5.01 41.018 0.197 7.99 7.45 13.22
1/16/2021 4:00:00 PM 4.99 40.982 0.198 7.99 6.65 13.2
1/16/2021 4:15:00 PM 4.94 40.892 0.2 7.99 7.1 13.11
1/16/2021 4:30:00 PM 4.88 40.784 0.201 7.98 6.53 13.03
1/16/2021 4:45:00 PM 4.87 40.766 0.201 7.96 6.31 12.94
1/16/2021 5:00:00 PM 4.83 40.694 0.202 7.96 6.59 12.85
1/16/2021 5:15:00 PM 4.83 40.694 0.202 7.95 6.37 12.77
1/16/2021 5:30:00 PM 4.81 40.658 0.204 7.94 6.38 12.71
1/16/2021 5:45:00 PM 4.79 40.622 0.212 7.92 6.08 12.64
1/16/2021 6:00:00 PM 4.73 40.514 0.214 7.9 6.13 12.61
1/16/2021 6:15:00 PM 4.72 40.496 0.215 7.9 6.25 12.58
1/16/2021 6:30:00 PM 4.68 40.424 0.215 7.89 6.07 12.57
1/16/2021 6:45:00 PM 4.68 40.424 0.214 7.89 5.91 12.54
1/16/2021 7:00:00 PM 4.61 40.298 0.217 7.89 6.4 12.54
1/16/2021 7:15:00 PM 4.64 40.352 0.217 7.88 6.57 12.52
1/16/2021 7:30:00 PM 4.65 40.37 0.217 7.87 6.22 12.5
1/16/2021 7:45:00 PM 4.67 40.406 0.217 7.87 5.72 12.5
1/16/2021 8:00:00 PM 4.64 40.352 0.218 7.87 6.71 12.49
1/16/2021 8:15:00 PM 4.6 40.28 0.218 7.86 6.02 12.47
1/16/2021 8:30:00 PM 4.65 40.37 0.221 7.86 6.16 12.46
1/16/2021 8:45:00 PM 4.62 40.316 0.222 7.86 6.17 12.47
1/16/2021 9:00:00 PM 4.6 40.28 0.217 7.85 6.31 12.45
1/16/2021 9:15:00 PM 4.55 40.19 0.218 7.85 5.95 12.46
1/16/2021 9:30:00 PM 4.48 40.064 0.215 7.84 6.07 12.46
1/16/2021 9:45:00 PM 4.5 40.1 0.213 7.85 6 12.46
1/16/2021 10:00:00 PM 4.48 40.064 0.214 7.84 6.52 12.45
1/16/2021 10:15:00 PM 4.48 40.064 0.216 7.84 6.05 12.45
1/16/2021 10:30:00 PM 4.51 40.118 0.221 7.84 6.06 12.45
1/16/2021 10:45:00 PM 4.47 40.046 0.22 7.84 5.92 12.45
1/16/2021 11:00:00 PM 4.42 39.956 0.221 7.85 6.37 12.46
1/16/2021 11:15:00 PM 4.42 39.956 0.215 7.86 6 12.44
1/16/2021 11:30:00 PM 4.41 39.938 0.215 7.84 6.28 12.45
1/16/2021 11:45:00 PM 4.39 39.902 0.217 7.83 6.26 12.44
1/17/2021 12:00:00 AM 4.37 39.866 0.219 7.82 6.14 12.44
1/17/2021 12:15:00 AM 4.35 39.83 0.217 7.82 6.67 12.44
1/17/2021 12:30:00 AM 4.32 39.776 0.217 7.82 6.76 12.44
1/17/2021 12:45:00 AM 4.27 39.686 0.219 7.82 6.18 12.43
1/17/2021 1:00:00 AM 4.25 39.65 0.214 7.81 6.81 12.44
1/17/2021 1:15:00 AM 4.23 39.614 0.217 7.82 6.66 12.47
1/17/2021 1:30:00 AM 4.16 39.488 0.217 7.82 6.89 12.48
1/17/2021 1:45:00 AM 4.13 39.434 0.217 7.82 7.58 12.47
1/17/2021 2:00:00 AM 4.11 39.398 0.215 7.81 6.75 12.48
1/17/2021 2:15:00 AM 4.07 39.326 0.218 7.81 7.36 12.48
1/17/2021 2:30:00 AM 4.04 39.272 0.217 7.8 6.83 12.51
1/17/2021 2:45:00 AM 4.02 39.236 0.219 7.8 6.64 12.5
1/17/2021 3:00:00 AM 3.99 39.182 0.216 7.81 6.62 12.52
1/17/2021 3:15:00 AM 3.96 39.128 0.218 7.82 6.55 12.52
1/17/2021 3:30:00 AM 3.97 39.146 0.22 7.8 6.8 12.53
1/17/2021 3:45:00 AM 3.92 39.056 0.221 7.79 6.82 12.54
1/17/2021 4:00:00 AM 3.9 39.02 0.22 7.79 7.5 12.53
1/17/2021 4:15:00 AM 3.89 39.002 0.219 7.79 7.81 12.54
1/17/2021 4:30:00 AM 3.88 38.984 0.218 7.79 6.84 12.56
1/17/2021 4:45:00 AM 3.84 38.912 0.216 7.78 6.82 12.56
1/17/2021 5:00:00 AM 3.81 38.858 0.213 7.78 6.7 12.57
1/17/2021 5:15:00 AM 3.83 38.894 0.216 7.78 6.88 12.58
1/17/2021 5:30:00 AM 3.83 38.894 0.214 7.79 7.31 12.57
1/17/2021 5:45:00 AM 3.82 38.876 0.214 7.79 6.3 12.58
1/17/2021 6:00:00 AM 3.83 38.894 0.221 7.78 6.64 12.59
1/17/2021 6:15:00 AM 3.83 38.894 0.217 7.79 7.27 12.58
1/17/2021 6:30:00 AM 3.84 38.912 0.217 7.79 6.81 12.58
1/17/2021 6:45:00 AM 3.84 38.912 0.214 7.79 7.23 12.6
1/17/2021 7:00:00 AM 3.83 38.894 0.214 7.78 6.53 12.61
1/17/2021 7:15:00 AM 3.83 38.894 0.214 7.78 7.28 12.6
1/17/2021 7:30:00 AM 3.83 38.894 0.214 7.78 6.82 12.62
1/17/2021 7:45:00 AM 3.82 38.876 0.214 7.77 6.4 12.63
1/17/2021 8:00:00 AM 3.82 38.876 0.213 7.78 6.25 12.64
1/17/2021 8:15:00 AM 3.82 38.876 0.212 7.79 6.39 12.67
1/17/2021 8:30:00 AM 3.82 38.876 0.212 7.79 7.13 12.72
1/17/2021 8:45:00 AM 3.82 38.876 0.212 7.8 6 12.78
1/17/2021 9:00:00 AM 3.83 38.894 0.211 7.8 6.11 12.85
1/17/2021 9:15:00 AM 3.87 38.966 0.211 7.82 6.25 12.98
1/17/2021 9:30:00 AM 3.91 39.038 0.214 7.81 6.19 13.13
1/17/2021 9:45:00 AM 3.95 39.11 0.214 7.83 5.94 13.26
1/17/2021 10:00:00 AM 3.99 39.182 0.215 7.84 5.91 13.35
1/17/2021 10:15:00 AM 4.06 39.308 0.215 7.84 5.62 13.42
1/17/2021 10:30:00 AM 4.14 39.452 0.214 7.86 5.83 13.5
1/17/2021 10:45:00 AM 4.22 39.596 0.214 7.86 5.79 13.53
1/17/2021 11:00:00 AM 4.28 39.704 0.213 7.88 5.9 13.56
1/17/2021 11:15:00 AM 4.28 39.704 0.213 7.89 5.94 13.58
1/17/2021 11:30:00 AM 4.28 39.704 0.215 7.88 5.59 13.58
1/17/2021 11:45:00 AM 4.31 39.758 0.215 7.9 5.9 13.61
1/17/2021 12:00:00 PM 4.33 39.794 0.216 7.91 5.78 13.63
1/17/2021 12:15:00 PM 4.36 39.848 0.216 7.91 6.01 13.65
1/17/2021 12:30:00 PM 4.41 39.938 0.217 7.92 6.37 13.69
1/17/2021 12:45:00 PM 4.44 39.992 0.217 7.93 6.01 13.69
1/17/2021 1:00:00 PM 4.48 40.064 0.216 7.94 5.86 13.7
1/17/2021 1:15:00 PM 4.52 40.136 0.216 7.94 5.72 13.71
1/17/2021 1:30:00 PM 4.54 40.172 0.216 7.95 6.52 13.68
1/17/2021 1:45:00 PM 4.55 40.19 0.216 7.95 5.83 13.68
1/17/2021 2:00:00 PM 4.56 40.208 0.216 7.95 5.91 13.68
1/17/2021 2:15:00 PM 4.56 40.208 0.217 7.95 6.09 13.65
1/17/2021 2:30:00 PM 4.58 40.244 0.216 7.95 6.17 13.59
1/17/2021 2:45:00 PM 4.57 40.226 0.216 7.94 6.07 13.59
1/17/2021 3:00:00 PM 4.58 40.244 0.216 7.95 5.63 13.6
1/17/2021 3:15:00 PM 4.57 40.226 0.217 7.95 5.83 13.54
1/17/2021 3:30:00 PM 4.56 40.208 0.216 7.94 5.55 13.49
1/17/2021 3:45:00 PM 4.56 40.208 0.216 7.94 5.65 13.5
1/17/2021 4:00:00 PM 4.54 40.172 0.216 7.93 5.58 13.44
1/17/2021 4:15:00 PM 4.5 40.1 0.216 7.94 5.4 13.41
1/17/2021 4:30:00 PM 4.48 40.064 0.216 7.93 5.14 13.28
1/17/2021 4:45:00 PM 4.46 40.028 0.214 7.92 5.25 13.17
1/17/2021 5:00:00 PM 4.43 39.974 0.215 7.91 5.22 13.07
1/17/2021 5:15:00 PM 4.44 39.992 0.215 7.89 5.33 12.99
1/17/2021 5:30:00 PM 4.41 39.938 0.216 7.89 5.23 12.9
1/17/2021 5:45:00 PM 4.39 39.902 0.218 7.89 5.34 12.84
1/17/2021 6:00:00 PM 4.37 39.866 0.218 7.87 6 12.79
1/17/2021 6:15:00 PM 4.35 39.83 0.217 7.86 5.88 12.76
1/17/2021 6:30:00 PM 4.34 39.812 0.218 7.86 5.56 12.73
1/17/2021 6:45:00 PM 4.31 39.758 0.22 7.85 5.81 12.71
1/17/2021 7:00:00 PM 4.3 39.74 0.217 7.85 5.68 12.7
1/17/2021 7:15:00 PM 4.28 39.704 0.222 7.84 5.61 12.69
1/17/2021 7:30:00 PM 4.27 39.686 0.219 7.83 5.23 12.69
1/17/2021 7:45:00 PM 4.26 39.668 0.219 7.83 5.78 12.68
1/17/2021 8:00:00 PM 4.25 39.65 0.221 7.82 5.53 12.68
1/17/2021 8:15:00 PM 4.24 39.632 0.222 7.82 5.1 12.68
1/17/2021 8:30:00 PM 4.23 39.614 0.222 7.83 5.49 12.69
1/17/2021 8:45:00 PM 4.22 39.596 0.221 7.84 5.16 12.69
1/17/2021 9:00:00 PM 4.21 39.578 0.22 7.82 5.1 12.7
1/17/2021 9:15:00 PM 4.2 39.56 0.22 7.82 5.28 12.7
1/17/2021 9:30:00 PM 4.19 39.542 0.225 7.82 4.99 12.69
1/17/2021 9:45:00 PM 4.19 39.542 0.217 7.84 5.05 12.68
1/17/2021 10:00:00 PM 4.2 39.56 0.221 7.81 5.23 12.67
1/17/2021 10:15:00 PM 4.2 39.56 0.222 7.8 5.2 12.68
1/17/2021 10:30:00 PM 4.19 39.542 0.215 7.79 5.37 12.67
1/17/2021 10:45:00 PM 4.19 39.542 0.212 7.79 5.33 12.67
1/17/2021 11:00:00 PM 4.19 39.542 0.208 7.78 4.8 12.67
1/17/2021 11:15:00 PM 4.19 39.542 0.213 7.77 5.77 12.68
1/17/2021 11:30:00 PM 4.18 39.524 0.205 7.77 5.31 12.68
1/17/2021 11:45:00 PM 4.18 39.524 0.213 7.76 5.5 12.68
1/18/2021 12:00:00 AM 4.16 39.488 0.202 7.76 5.77 12.69
1/18/2021 12:15:00 AM 4.15 39.47 0.201 7.76 5.74 12.68
1/18/2021 12:30:00 AM 4.16 39.488 0.2 7.76 5.37 12.67
1/18/2021 12:45:00 AM 4.16 39.488 0.224 7.77 5.42 12.65
1/18/2021 1:00:00 AM 4.15 39.47 0.202 7.76 5.44 12.67
1/18/2021 1:15:00 AM 4.14 39.452 0.202 7.78 5.62 12.66
1/18/2021 1:30:00 AM 4.12 39.416 0.201 7.77 5.41 12.66
1/18/2021 1:45:00 AM 4.12 39.416 0.202 7.77 5.2 12.68
1/18/2021 2:00:00 AM 4.1 39.38 0.201 7.77 5.2 12.66
1/18/2021 2:15:00 AM 4.09 39.362 0.201 7.78 5.33 12.67
1/18/2021 2:30:00 AM 4.07 39.326 0.201 7.78 5.43 12.68
1/18/2021 2:45:00 AM 4.05 39.29 0.201 7.78 5.82 12.65
1/18/2021 3:00:00 AM 4.03 39.254 0.203 7.77 5.86 12.66
1/18/2021 3:15:00 AM 4 39.2 0.204 7.77 5.28 12.68
1/18/2021 3:30:00 AM 3.96 39.128 0.204 7.78 5.23 12.68
1/18/2021 3:45:00 AM 3.94 39.092 0.204 7.78 5.54 12.68
1/18/2021 4:00:00 AM 3.91 39.038 0.204 7.77 5.16 12.68
1/18/2021 4:15:00 AM 3.87 38.966 0.205 7.78 5.35 12.69
1/18/2021 4:30:00 AM 3.84 38.912 0.209 7.76 5.57 12.7
1/18/2021 4:45:00 AM 3.8 38.84 0.207 7.78 5.47 12.71
1/18/2021 5:00:00 AM 3.77 38.786 0.206 7.78 5.89 12.72
1/18/2021 5:15:00 AM 3.74 38.732 0.206 7.75 5.58 12.71
1/18/2021 5:30:00 AM 3.72 38.696 0.208 7.77 5.7 12.73
1/18/2021 5:45:00 AM 3.7 38.66 0.205 7.73 6.04 12.73
1/18/2021 6:00:00 AM 3.67 38.606 0.207 7.76 5.7 12.75
1/18/2021 6:15:00 AM 3.64 38.552 0.206 7.77 5.9 12.73
1/18/2021 6:30:00 AM 3.61 38.498 0.206 7.76 5.81 12.75
1/18/2021 6:45:00 AM 3.58 38.444 0.205 7.76 5.77 12.77
1/18/2021 7:00:00 AM 3.55 38.39 0.205 7.78 5.44 12.77
1/18/2021 7:15:00 AM 3.52 38.336 0.205 7.77 5.38 12.77
1/18/2021 7:30:00 AM 3.49 38.282 0.204 7.75 5.39 12.8
1/18/2021 7:45:00 AM 3.47 38.246 0.205 7.76 5.37 12.83
1/18/2021 8:00:00 AM 3.45 38.21 0.205 7.77 5.43 12.88
1/18/2021 8:15:00 AM 3.44 38.192 0.206 7.77 5.1 12.96
1/18/2021 8:30:00 AM 3.43 38.174 0.207 7.77 5.07 13.04
1/18/2021 8:45:00 AM 3.44 38.192 0.206 7.78 5.11 13.14
1/18/2021 9:00:00 AM 3.48 38.264 0.206 7.77 6.3 13.27
1/18/2021 9:15:00 AM 3.54 38.372 0.205 7.8 5.72 13.4
1/18/2021 9:30:00 AM 3.63 38.534 0.205 7.81 5.35 13.55
1/18/2021 9:45:00 AM 3.69 38.642 0.204 7.82 5.6 13.67
1/18/2021 10:00:00 AM 3.73 38.714 0.204 7.83 5.38 13.71
1/18/2021 10:15:00 AM 3.81 38.858 0.204 7.84 4.81 13.8
1/18/2021 10:30:00 AM 3.86 38.948 0.204 7.87 5.1 13.86
1/18/2021 10:45:00 AM 3.92 39.056 0.203 7.87 5.43 13.9
1/18/2021 11:00:00 AM 3.98 39.164 0.203 7.89 5.77 13.93
1/18/2021 11:15:00 AM 4.02 39.236 0.202 7.9 5.29 13.96
1/18/2021 11:30:00 AM 4.06 39.308 0.202 7.9 5.34 13.99
1/18/2021 11:45:00 AM 4.12 39.416 0.202 7.92 5.8 14
1/18/2021 12:00:00 PM 4.17 39.506 0.202 7.92 5.32 14.02
1/18/2021 12:15:00 PM 4.21 39.578 0.202 7.92 7.02 14.05
1/18/2021 12:30:00 PM 4.26 39.668 0.202 7.94 5.86 14.07
1/18/2021 12:45:00 PM 4.31 39.758 0.202 7.95 5.9 14.1
1/18/2021 1:00:00 PM 4.35 39.83 0.202 7.97 6.29 14.07
1/18/2021 1:15:00 PM 4.36 39.848 0.202 7.98 7.25 14.05
1/18/2021 1:30:00 PM 4.41 39.938 0.202 8 5.94 14.06
1/18/2021 1:45:00 PM 4.45 40.01 0.201 8 5.44 14.08
1/18/2021 2:00:00 PM 4.49 40.082 0.201 7.99 5.47 14.09
1/18/2021 2:15:00 PM 4.49 40.082 0.201 8 6.23 14.06
1/18/2021 2:30:00 PM 4.46 40.028 0.202 8 6.15 14.01
1/18/2021 2:45:00 PM 4.49 40.082 0.202 8 5.93 13.97
1/18/2021 3:00:00 PM 4.53 40.154 0.203 8 6.48 13.95
1/18/2021 3:15:00 PM 4.52 40.136 0.203 8 5.35 13.91
1/18/2021 3:30:00 PM 4.51 40.118 0.203 8 6.09 13.87
1/18/2021 3:45:00 PM 4.45 40.01 0.203 8 5.38 13.81
1/18/2021 4:00:00 PM 4.4 39.92 0.203 8 5.54 13.71
1/18/2021 4:15:00 PM 4.36 39.848 0.203 7.98 5.37 13.64
1/18/2021 4:30:00 PM 4.32 39.776 0.204 7.98 5.44 13.57
1/18/2021 4:45:00 PM 4.26 39.668 0.203 7.97 6.09 13.48
1/18/2021 5:00:00 PM 4.22 39.596 0.203 7.96 7 13.37
1/18/2021 5:15:00 PM 4.17 39.506 0.203 7.94 5.32 13.29
1/18/2021 5:30:00 PM 4.12 39.416 0.204 7.93 5.31 13.2
1/18/2021 5:45:00 PM 4.08 39.344 0.204 7.92 5.51 13.18
1/18/2021 6:00:00 PM 4.03 39.254 0.194 7.91 5.28 13.09
1/18/2021 6:15:00 PM 4 39.2 0.195 7.89 5.39 13.07
1/18/2021 6:30:00 PM 3.98 39.164 0.195 7.89 5.38 13.06
1/18/2021 6:45:00 PM 3.97 39.146 0.194 7.89 5.84 13.04
1/18/2021 7:00:00 PM 3.96 39.128 0.194 7.88 5.59 13.02
1/18/2021 7:15:00 PM 3.94 39.092 0.194 7.87 5.09 13.02
1/18/2021 7:30:00 PM 3.9 39.02 0.194 7.88 5.44 13.02
1/18/2021 7:45:00 PM 3.88 38.984 0.195 7.87 5.58 13.01
1/18/2021 8:00:00 PM 3.85 38.93 0.197 7.84 5.47 12.99
1/18/2021 8:15:00 PM 3.82 38.876 0.198 7.84 5.42 13
1/18/2021 8:30:00 PM 3.8 38.84 0.196 7.85 5.18 12.99
1/18/2021 8:45:00 PM 3.77 38.786 0.197 7.83 5.73 12.99
1/18/2021 9:00:00 PM 3.74 38.732 0.2 7.84 5.57 12.99
1/18/2021 9:15:00 PM 3.71 38.678 0.198 7.83 5.14 12.97
1/18/2021 9:30:00 PM 3.69 38.642 0.201 7.83 5.47 12.97
1/18/2021 9:45:00 PM 3.67 38.606 0.198 7.82 5.7 12.98
1/18/2021 10:00:00 PM 3.65 38.57 0.198 7.82 5.81 12.98
1/18/2021 10:15:00 PM 3.64 38.552 0.2 7.82 5.49 12.97
1/18/2021 10:30:00 PM 3.63 38.534 0.198 7.82 5.34 12.98
1/18/2021 10:45:00 PM 3.63 38.534 0.199 7.82 5.51 12.97
1/18/2021 11:00:00 PM 3.62 38.516 0.198 7.82 5.56 12.98
1/18/2021 11:15:00 PM 3.62 38.516 0.198 7.81 5.64 12.97
1/18/2021 11:30:00 PM 3.61 38.498 0.198 7.81 6.08 12.98
1/18/2021 11:45:00 PM 3.59 38.462 0.198 7.81 6 12.98
1/19/2021 12:00:00 AM 3.58 38.444 0.196 7.81 5.41 12.98
1/19/2021 12:15:00 AM 3.57 38.426 0.196 7.81 5.7 12.99
1/19/2021 12:30:00 AM 3.56 38.408 0.196 7.81 5.81 12.99
1/19/2021 12:45:00 AM 3.55 38.39 0.193 7.8 5.57 12.99
1/19/2021 1:00:00 AM 3.54 38.372 0.194 7.81 5.5 13
1/19/2021 1:15:00 AM 3.54 38.372 0.194 7.8 5.78 13
1/19/2021 1:30:00 AM 3.52 38.336 0.194 7.8 5.76 13
1/19/2021 1:45:00 AM 3.5 38.3 0.195 7.79 5.58 13.01
1/19/2021 2:00:00 AM 3.49 38.282 0.194 7.79 5.31 13
1/19/2021 2:15:00 AM 3.47 38.246 0.194 7.79 5.65 13.01
1/19/2021 2:30:00 AM 3.45 38.21 0.194 7.79 5.38 13.01
1/19/2021 2:45:00 AM 3.42 38.156 0.195 7.8 6.67 13.01
1/19/2021 3:00:00 AM 3.41 38.138 0.195 7.78 5.54 13.02
1/19/2021 3:15:00 AM 3.4 38.12 0.194 7.79 6.24 13.03
1/19/2021 3:30:00 AM 3.4 38.12 0.194 7.77 5.81 13.02
1/19/2021 3:45:00 AM 3.4 38.12 0.194 7.77 5.84 13.03
1/19/2021 4:00:00 AM 3.39 38.102 0.195 7.78 5.64 13.04
1/19/2021 4:15:00 AM 3.38 38.084 0.194 7.78 8.1 13.02
1/19/2021 4:30:00 AM 3.37 38.066 0.195 7.78 7.03 13.05
1/19/2021 4:45:00 AM 3.35 38.03 0.194 7.77 5.89 13.04
1/19/2021 5:00:00 AM 3.33 37.994 0.194 7.79 5.62 13.04
1/19/2021 5:15:00 AM 3.31 37.958 0.194 7.79 5.78 13.05
1/19/2021 5:30:00 AM 3.29 37.922 0.194 7.77 6.53 13.06
1/19/2021 5:45:00 AM 3.27 37.886 0.194 7.77 5.78 13.06
1/19/2021 6:00:00 AM 3.25 37.85 0.194 7.76 5.65 13.07
1/19/2021 6:15:00 AM 3.22 37.796 0.195 7.77 5.41 13.08
1/19/2021 6:30:00 AM 3.22 37.796 0.194 7.77 6.05 13.07
1/19/2021 6:45:00 AM 3.2 37.76 0.193 7.77 5.75 13.09
1/19/2021 7:00:00 AM 3.16 37.688 0.193 7.77 5.41 13.07
1/19/2021 7:15:00 AM 3.15 37.67 0.193 7.77 5.61 13.09
1/19/2021 7:30:00 AM 3.15 37.67 0.193 7.77 5.83 13.09
1/19/2021 7:45:00 AM 3.15 37.67 0.193 7.77 5.68 13.11
1/19/2021 8:00:00 AM 3.17 37.706 0.193 7.77 5.44 13.16
1/19/2021 8:15:00 AM 3.18 37.724 0.193 7.75 5.73 13.21
1/19/2021 8:30:00 AM 3.19 37.742 0.193 7.75 5.57 13.29
1/19/2021 8:45:00 AM 3.2 37.76 0.193 7.76 5.3 13.41
1/19/2021 9:00:00 AM 3.24 37.832 0.193 7.76 5.1 13.55
1/19/2021 9:15:00 AM 3.29 37.922 0.193 7.77 6.59 13.68
1/19/2021 9:30:00 AM 3.33 37.994 0.193 7.78 5.59 13.79
1/19/2021 9:45:00 AM 3.39 38.102 0.193 7.8 5.86 13.88
1/19/2021 10:00:00 AM 3.43 38.174 0.192 7.8 5.53 14
1/19/2021 10:15:00 AM 3.48 38.264 0.193 7.82 5.48 14.09
1/19/2021 10:30:00 AM 3.53 38.354 0.193 7.84 5.46 14.16
1/19/2021 10:45:00 AM 3.61 38.498 0.193 7.85 5.63 14.23
1/19/2021 11:00:00 AM 3.64 38.552 0.192 7.87 5.87 14.25
1/19/2021 11:15:00 AM 3.66 38.588 0.192 7.86 5.55 14.28
1/19/2021 11:30:00 AM 3.69 38.642 0.192 7.88 5.69 14.25
1/19/2021 11:45:00 AM 3.72 38.696 0.192 7.89 5.32 14.27
1/19/2021 12:00:00 PM 3.76 38.768 0.192 7.89 5.75 14.29
1/19/2021 12:15:00 PM 3.77 38.786 0.191 7.9 5.34 14.29
1/19/2021 12:30:00 PM 3.82 38.876 0.192 7.91 5.44 14.33
1/19/2021 12:45:00 PM 3.88 38.984 0.192 7.92 5.51 14.36
1/19/2021 1:00:00 PM 3.96 39.128 0.192 7.93 5.41 14.37
1/19/2021 1:15:00 PM 4.06 39.308 0.192 7.95 6.11 14.39
1/19/2021 1:30:00 PM 4.11 39.398 0.192 7.96 5.85 14.38
1/19/2021 1:45:00 PM 4.13 39.434 0.192 7.96 5.67 14.37
1/19/2021 2:00:00 PM 4.14 39.452 0.192 7.97 6.94 14.35
1/19/2021 2:15:00 PM 4.16 39.488 0.192 7.98 7.28 14.31
1/19/2021 2:30:00 PM 4.17 39.506 0.192 7.98 5.71 14.28
1/19/2021 2:45:00 PM 4.16 39.488 0.192 7.98 5.76 14.25
1/19/2021 3:00:00 PM 4.16 39.488 0.192 7.98 5.39 14.23
1/19/2021 3:15:00 PM 4.14 39.452 0.193 7.99 5.49 14.18
1/19/2021 3:30:00 PM 4.1 39.38 0.193 7.99 5.59 14.15
1/19/2021 3:45:00 PM 4.06 39.308 0.193 7.98 5.74 14.06
1/19/2021 4:00:00 PM 4 39.2 0.193 7.97 5.93 13.97
1/19/2021 4:15:00 PM 3.95 39.11 0.193 7.96 5.41 13.89
1/19/2021 4:30:00 PM 3.91 39.038 0.192 7.94 5.34 13.83
1/19/2021 4:45:00 PM 3.87 38.966 0.192 7.94 5.06 13.76
1/19/2021 5:00:00 PM 3.85 38.93 0.192 7.92 5.41 13.7
1/19/2021 5:15:00 PM 3.83 38.894 0.193 7.92 5.19 13.6
1/19/2021 5:30:00 PM 3.8 38.84 0.193 7.91 5.28 13.51
1/19/2021 5:45:00 PM 3.77 38.786 0.194 7.91 5.35 13.44
1/19/2021 6:00:00 PM 3.74 38.732 0.197 7.9 5.54 13.39
1/19/2021 6:15:00 PM 3.71 38.678 0.197 7.88 6.01 13.34
1/19/2021 6:30:00 PM 3.67 38.606 0.196 7.87 5.52 13.32
1/19/2021 6:45:00 PM 3.63 38.534 0.197 7.87 5.4 13.27
1/19/2021 7:00:00 PM 3.58 38.444 0.198 7.86 5.93 13.25
1/19/2021 7:15:00 PM 3.54 38.372 0.196 7.85 5.23 13.25
1/19/2021 7:30:00 PM 3.5 38.3 0.196 7.85 5.3 13.24
1/19/2021 7:45:00 PM 3.45 38.21 0.197 7.84 5.02 13.25
1/19/2021 8:00:00 PM 3.42 38.156 0.197 7.84 5.48 13.22
1/19/2021 8:15:00 PM 3.39 38.102 0.197 7.83 5.13 13.25
1/19/2021 8:30:00 PM 3.37 38.066 0.197 7.82 5.13 13.22
1/19/2021 8:45:00 PM 3.34 38.012 0.197 7.82 5.23 13.24
1/19/2021 9:00:00 PM 3.33 37.994 0.198 7.82 5.4 13.23
1/19/2021 9:15:00 PM 3.31 37.958 0.198 7.81 5.14 13.23
1/19/2021 9:30:00 PM 3.31 37.958 0.198 7.81 5.13 13.22
1/19/2021 9:45:00 PM 3.29 37.922 0.197 7.82 5.48 13.21
1/19/2021 10:00:00 PM 3.29 37.922 0.197 7.81 5.47 13.18
1/19/2021 10:15:00 PM 3.29 37.922 0.201 7.81 6.23 13.19
1/19/2021 10:30:00 PM 3.29 37.922 0.199 7.8 5.07 13.19
1/19/2021 10:45:00 PM 3.3 37.94 0.203 7.8 5.47 13.18
1/19/2021 11:00:00 PM 3.3 37.94 0.203 7.8 5.35 13.16
1/19/2021 11:15:00 PM 3.32 37.976 0.203 7.81 5.4 13.16
1/19/2021 11:30:00 PM 3.32 37.976 0.203 7.78 5.5 13.18
1/19/2021 11:45:00 PM 3.32 37.976 0.203 7.81 5.76 13.15
1/20/2021 12:00:00 AM 3.32 37.976 0.203 7.81 5.39 13.15
1/20/2021 12:15:00 AM 3.33 37.994 0.205 7.81 5.59 13.15
1/20/2021 12:30:00 AM 3.33 37.994 0.208 7.8 5.8 13.15
1/20/2021 12:45:00 AM 3.32 37.976 0.205 7.8 5.49 13.14
1/20/2021 1:00:00 AM 3.31 37.958 0.203 7.79 5.31 13.15
1/20/2021 1:15:00 AM 3.3 37.94 0.198 7.78 5.65 13.14
1/20/2021 1:30:00 AM 3.28 37.904 0.194 7.78 5.86 13.14
1/20/2021 1:45:00 AM 3.27 37.886 0.202 7.78 5.63 13.13
1/20/2021 2:00:00 AM 3.27 37.886 0.202 7.79 5.67 13.15
1/20/2021 2:15:00 AM 3.25 37.85 0.201 7.78 5.66 13.14
1/20/2021 2:30:00 AM 3.24 37.832 0.201 7.77 5.74 13.14
1/20/2021 2:45:00 AM 3.23 37.814 0.201 7.78 5.94 13.13
1/20/2021 3:00:00 AM 3.23 37.814 0.199 7.78 5.29 13.12
1/20/2021 3:15:00 AM 3.23 37.814 0.193 7.79 5.79 13.12
1/20/2021 3:30:00 AM 3.22 37.796 0.195 7.78 6.59 13.11
1/20/2021 3:45:00 AM 3.22 37.796 0.194 7.78 5.47 13.11
1/20/2021 4:00:00 AM 3.2 37.76 0.192 7.78 6.41 13.11
1/20/2021 4:15:00 AM 3.2 37.76 0.193 7.77 6.06 13.11
1/20/2021 4:30:00 AM 3.19 37.742 0.192 7.76 5.47 13.11
1/20/2021 4:45:00 AM 3.18 37.724 0.194 7.77 5.42 13.09
1/20/2021 5:00:00 AM 3.19 37.742 0.193 7.77 5.92 13.1
1/20/2021 5:15:00 AM 3.2 37.76 0.193 7.76 5.32 13.08
1/20/2021 5:30:00 AM 3.2 37.76 0.192 7.75 5.56 13.08
1/20/2021 5:45:00 AM 3.2 37.76 0.193 7.76 5.6 13.08
1/20/2021 6:00:00 AM 3.19 37.742 0.188 7.77 5.77 13.07
1/20/2021 6:15:00 AM 3.18 37.724 0.19 7.77 5.9 13.09
1/20/2021 6:30:00 AM 3.15 37.67 0.19 7.76 5.78 13.08
1/20/2021 6:45:00 AM 3.15 37.67 0.189 7.76 5.93 13.08
1/20/2021 7:00:00 AM 3.11 37.598 0.191 7.75 5.94 13.11
1/20/2021 7:15:00 AM 3.08 37.544 0.189 7.75 6.13 13.12
1/20/2021 7:30:00 AM 3.06 37.508 0.19 7.75 5.85 13.13
1/20/2021 7:45:00 AM 3.05 37.49 0.191 7.75 5.8 13.13
1/20/2021 8:00:00 AM 3.04 37.472 0.191 7.75 6.02 13.22
1/20/2021 8:15:00 AM 3.07 37.526 0.191 7.76 7.58 13.3
1/20/2021 8:30:00 AM 3.05 37.49 0.191 7.77 5.48 13.42
1/20/2021 8:45:00 AM 3.07 37.526 0.192 7.78 7.79 13.54
1/20/2021 9:00:00 AM 3.1 37.58 0.192 7.79 5.63 13.68
1/20/2021 9:15:00 AM 3.1 37.58 0.192 7.79 6.08 13.79
1/20/2021 9:30:00 AM 3.16 37.688 0.192 7.8 5.67 13.9
1/20/2021 9:45:00 AM 3.21 37.778 0.192 7.82 6.12 14
1/20/2021 10:00:00 AM 3.24 37.832 0.192 7.82 5.63 14.08
1/20/2021 10:15:00 AM 3.27 37.886 0.192 7.84 5.26 14.15
1/20/2021 10:30:00 AM 3.34 38.012 0.192 7.86 5.35 14.21
1/20/2021 10:45:00 AM 3.42 38.156 0.192 7.87 5.26 14.28
1/20/2021 11:00:00 AM 3.51 38.318 0.192 7.88 5.45 14.31
1/20/2021 11:15:00 AM 3.61 38.498 0.191 7.91 5.38 14.36
1/20/2021 11:30:00 AM 3.68 38.624 0.192 7.92 6.07 14.38
1/20/2021 11:45:00 AM 3.74 38.732 0.192 7.93 5.98 14.4
1/20/2021 12:00:00 PM 3.8 38.84 0.192 7.93 6.55 14.45
1/20/2021 12:15:00 PM 3.85 38.93 0.192 7.95 5.65 14.44
1/20/2021 12:30:00 PM 3.91 39.038 0.193 7.95 5.92 14.46
1/20/2021 12:45:00 PM 4 39.2 0.193 7.97 5.46 14.47
1/20/2021 1:00:00 PM 4.06 39.308 0.193 7.97 5.75 14.51
1/20/2021 1:15:00 PM 4.14 39.452 0.193 7.99 5.73 14.49
1/20/2021 1:30:00 PM 4.16 39.488 0.192 8 5.56 14.51
1/20/2021 1:45:00 PM 4.13 39.434 0.193 8 5.32 14.48
1/20/2021 2:00:00 PM 4.13 39.434 0.193 8 6.14 14.47
1/20/2021 2:15:00 PM 4.12 39.416 0.193 8 5.65 14.46
1/20/2021 2:30:00 PM 4.11 39.398 0.193 7.95 5.61 14.42
1/20/2021 2:45:00 PM 4.08 39.344 0.193 7.97 5.18 14.36
1/20/2021 3:00:00 PM 4.04 39.272 0.194 7.98 5.55 14.35
1/20/2021 3:15:00 PM 4 39.2 0.194 7.94 5.39 14.33
1/20/2021 3:30:00 PM 3.94 39.092 0.195 7.6 5.94 14.28
1/20/2021 3:45:00 PM 3.87 38.966 0.195 7.72 5.45 14.25
1/20/2021 4:00:00 PM 3.8 38.84 0.195 7.9 5.42 14.18
1/20/2021 4:15:00 PM 3.74 38.732 0.195 7.94 5.41 14.1
1/20/2021 4:30:00 PM 3.67 38.606 0.196 7.95 5.15 14.04
1/20/2021 4:45:00 PM 3.61 38.498 0.196 7.95 5.17 13.96
1/20/2021 5:00:00 PM 3.57 38.426 0.196 7.94 5.9 13.9
1/20/2021 5:15:00 PM 3.52 38.336 0.196 7.95 6.22 13.79
1/20/2021 5:30:00 PM 3.49 38.282 0.197 7.95 5.64 13.72
1/20/2021 5:45:00 PM 3.46 38.228 0.196 7.9 5.28 13.64
1/20/2021 6:00:00 PM 3.42 38.156 0.196 7.9 4.79 13.55
1/20/2021 6:15:00 PM 3.37 38.066 0.197 7.9 5.12 13.52
1/20/2021 6:30:00 PM 3.33 37.994 0.199 7.9 5.16 13.49
1/20/2021 6:45:00 PM 3.28 37.904 0.199 7.89 5.23 13.42
1/20/2021 7:00:00 PM 3.24 37.832 0.19 7.89 5.11 13.42
1/20/2021 7:15:00 PM 3.2 37.76 0.19 7.88 5.33 13.4
1/20/2021 7:30:00 PM 3.15 37.67 0.187 7.87 4.98 13.39
1/20/2021 7:45:00 PM 3.12 37.616 0.188 7.87 5.02 13.38
1/20/2021 8:00:00 PM 3.08 37.544 0.188 7.87 5.44 13.38
1/20/2021 8:15:00 PM 3.04 37.472 0.189 7.88 5.32 13.37
1/20/2021 8:30:00 PM 3.01 37.418 0.189 7.86 6.17 13.37
1/20/2021 8:45:00 PM 2.97 37.346 0.19 7.86 5.67 13.36
1/20/2021 9:00:00 PM 2.95 37.31 0.189 7.86 7.34 13.36
1/20/2021 9:15:00 PM 2.91 37.238 0.188 7.86 6.2 13.36
1/20/2021 9:30:00 PM 2.89 37.202 0.189 7.94 5.4 13.37
1/20/2021 9:45:00 PM 2.87 37.166 0.189 7.96 5.72 13.35
1/20/2021 10:00:00 PM 2.84 37.112 0.188 7.95 5.43 13.36
1/20/2021 10:15:00 PM 2.83 37.094 0.189 7.92 6.05 13.35
1/20/2021 10:30:00 PM 2.81 37.058 0.19 7.93 6.14 13.36
1/20/2021 10:45:00 PM 2.79 37.022 0.189 7.9 5.82 13.35
1/20/2021 11:00:00 PM 2.77 36.986 0.189 7.89 6.04 13.35
1/20/2021 11:15:00 PM 2.75 36.95 0.189 7.88 5.54 13.37
1/20/2021 11:30:00 PM 2.73 36.914 0.189 7.88 5.77 13.35
1/20/2021 11:45:00 PM 2.7 36.86 0.188 7.86 5.34 13.35
1/21/2021 12:00:00 AM 2.7 36.86 0.188 7.86 6.17 13.35
1/21/2021 12:15:00 AM 2.67 36.806 0.189 7.85 5.98 13.36
1/21/2021 12:30:00 AM 2.65 36.77 0.19 7.83 6.08 13.36
1/21/2021 12:45:00 AM 2.62 36.716 0.189 7.83 5.66 13.36
1/21/2021 1:00:00 AM 2.59 36.662 0.19 7.83 5.78 13.36
1/21/2021 1:15:00 AM 2.57 36.626 0.189 7.84 5.92 13.36
1/21/2021 1:30:00 AM 2.54 36.572 0.188 7.83 5.81 13.37
1/21/2021 1:45:00 AM 2.51 36.518 0.189 7.83 6.32 13.38
1/21/2021 2:00:00 AM 2.47 36.446 0.189 7.84 5.65 13.39
1/21/2021 2:15:00 AM 2.46 36.428 0.189 7.83 5.84 13.37
1/21/2021 2:30:00 AM 2.4 36.32 0.187 7.83 5.42 13.4
1/21/2021 2:45:00 AM 2.39 36.302 0.186 7.82 6.16 13.4
1/21/2021 3:00:00 AM 2.35 36.23 0.186 7.82 5.66 13.41
1/21/2021 3:15:00 AM 2.32 36.176 0.188 7.81 5.85 13.4
1/21/2021 3:30:00 AM 2.28 36.104 0.187 7.8 5.92 13.42
1/21/2021 3:45:00 AM 2.24 36.032 0.187 7.79 5.84 13.42
1/21/2021 4:00:00 AM 2.22 35.996 0.188 7.78 5.56 13.43
1/21/2021 4:15:00 AM 2.18 35.924 0.188 7.77 5.45 13.44
1/21/2021 4:30:00 AM 2.13 35.834 0.187 7.78 5.96 13.45
1/21/2021 4:45:00 AM 2.11 35.798 0.187 7.77 5.58 13.46
1/21/2021 5:00:00 AM 2.09 35.762 0.187 7.76 6.04 13.46
1/21/2021 5:15:00 AM 2.09 35.762 0.186 7.77 5.4 13.47
1/21/2021 5:30:00 AM 2.08 35.744 0.185 7.77 5.48 13.45
1/21/2021 5:45:00 AM 2.09 35.762 0.186 7.77 6.02 13.46
1/21/2021 6:00:00 AM 2.09 35.762 0.188 7.76 5.97 13.46
1/21/2021 6:15:00 AM 2.09 35.762 0.19 7.76 5.67 13.48
1/21/2021 6:30:00 AM 2.08 35.744 0.188 7.77 5.83 13.48
1/21/2021 6:45:00 AM 2.12 35.816 0.19 7.76 5.82 13.46
1/21/2021 7:00:00 AM 2.11 35.798 0.188 7.77 5.63 13.46
1/21/2021 7:15:00 AM 2.12 35.816 0.189 7.77 5.84 13.47
1/21/2021 7:30:00 AM 2.15 35.87 0.189 7.75 5.68 13.46
1/21/2021 7:45:00 AM 2.18 35.924 0.19 7.75 7.32 13.48
1/21/2021 8:00:00 AM 2.17 35.906 0.191 7.75 6.66 13.54
1/21/2021 8:15:00 AM 2.2 35.96 0.19 7.75 6.26 13.62
1/21/2021 8:30:00 AM 2.22 35.996 0.19 7.76 6.2 13.73
1/21/2021 8:45:00 AM 2.23 36.014 0.19 7.76 6.06 13.88
1/21/2021 9:00:00 AM 2.25 36.05 0.189 7.76 6.22 13.96
1/21/2021 9:15:00 AM 2.27 36.086 0.189 7.77 6.47 14.08
1/21/2021 9:30:00 AM 2.33 36.194 0.189 7.77 7.26 14.21
1/21/2021 9:45:00 AM 2.38 36.284 0.187 7.79 5.68 14.34
1/21/2021 10:00:00 AM 2.47 36.446 0.186 7.81 5.98 14.43
1/21/2021 10:15:00 AM 2.55 36.59 0.187 7.83 5.84 14.48
1/21/2021 10:30:00 AM 2.62 36.716 0.188 7.85 5.99 14.57
1/21/2021 10:45:00 AM 2.67 36.806 0.187 7.85 6.25 14.62
1/21/2021 11:00:00 AM 2.73 36.914 0.188 7.88 6.38 14.67
1/21/2021 11:15:00 AM 2.88 37.184 0.187 7.9 6.1 14.69
1/21/2021 11:30:00 AM 2.95 37.31 0.187 7.9 6.01 14.73
1/21/2021 11:45:00 AM 3.03 37.454 0.187 7.91 5.73 14.74
1/21/2021 12:00:00 PM 3.17 37.706 0.188 7.95 5.94 14.73
1/21/2021 12:15:00 PM 3.23 37.814 0.188 7.96 6.41 14.76
1/21/2021 12:30:00 PM 3.34 38.012 0.189 7.96 6.07 14.75
1/21/2021 12:45:00 PM 3.42 38.156 0.189 7.97 6.25 14.73
1/21/2021 1:00:00 PM 3.47 38.246 0.189 7.98 5.97 14.72
1/21/2021 1:15:00 PM 3.54 38.372 0.19 8 5.63 14.69
1/21/2021 1:30:00 PM 3.56 38.408 0.19 8 5.99 14.71
1/21/2021 1:45:00 PM 3.6 38.48 0.19 7.99 5.85 14.7
1/21/2021 2:00:00 PM 3.66 38.588 0.189 8 6.27 14.69
1/21/2021 2:15:00 PM 3.7 38.66 0.189 8 6.02 14.65
1/21/2021 2:30:00 PM 3.72 38.696 0.19 8.02 6.73 14.65
1/21/2021 2:45:00 PM 3.74 38.732 0.19 8.02 6.34 14.62
1/21/2021 3:00:00 PM 3.76 38.768 0.19 8.02 5.99 14.57
1/21/2021 3:15:00 PM 3.75 38.75 0.188 8.02 6.12 14.52
1/21/2021 3:30:00 PM 3.74 38.732 0.189 7.97 6.2 14.44
1/21/2021 3:45:00 PM 3.73 38.714 0.189 7.98 5.81 14.37
1/21/2021 4:00:00 PM 3.7 38.66 0.189 7.98 6.25 14.28
1/21/2021 4:15:00 PM 3.67 38.606 0.19 7.98 5.74 14.22
1/21/2021 4:30:00 PM 3.62 38.516 0.191 7.97 5.81 14.13
1/21/2021 4:45:00 PM 3.57 38.426 0.19 7.96 7.02 14.01
1/21/2021 5:00:00 PM 3.53 38.354 0.19 7.96 5.62 13.89
1/21/2021 5:15:00 PM 3.49 38.282 0.19 7.95 5.68 13.78
1/21/2021 5:30:00 PM 3.45 38.21 0.19 7.93 5.86 13.68
1/21/2021 5:45:00 PM 3.41 38.138 0.191 7.88 6.19 13.58
1/21/2021 6:00:00 PM 3.35 38.03 0.185 7.89 5.2 13.49
1/21/2021 6:15:00 PM 3.29 37.922 0.184 7.89 5.93 13.46
1/21/2021 6:30:00 PM 3.25 37.85 0.184 7.88 5.68 13.4
1/21/2021 6:45:00 PM 3.19 37.742 0.185 7.86 5.73 13.38
1/21/2021 7:00:00 PM 3.14 37.652 0.184 7.86 5.69 13.33
1/21/2021 7:15:00 PM 3.12 37.616 0.185 7.85 5.46 13.33
1/21/2021 7:30:00 PM 3.07 37.526 0.188 7.84 5.68 13.32
1/21/2021 7:45:00 PM 3.03 37.454 0.189 7.84 5.42 13.3
1/21/2021 8:00:00 PM 3.01 37.418 0.189 7.82 5.43 13.27
1/21/2021 8:15:00 PM 3 37.4 0.191 7.82 5.54 13.27
1/21/2021 8:30:00 PM 2.98 37.364 0.19 7.82 6.02 13.24
1/21/2021 8:45:00 PM 2.94 37.292 0.19 7.81 5.58 13.26
1/21/2021 9:00:00 PM 2.92 37.256 0.19 7.8 5.32 13.27
1/21/2021 9:15:00 PM 2.91 37.238 0.19 7.8 5.36 13.26
1/21/2021 9:30:00 PM 2.89 37.202 0.189 7.8 6.46 13.25
1/21/2021 9:45:00 PM 2.89 37.202 0.191 7.78 5.56 13.23
1/21/2021 10:00:00 PM 2.9 37.22 0.192 7.78 5.56 13.22
1/21/2021 10:15:00 PM 2.9 37.22 0.193 7.78 5.64 13.19
1/21/2021 10:30:00 PM 2.91 37.238 0.193 7.76 5.3 13.2
1/21/2021 10:45:00 PM 2.91 37.238 0.193 7.77 6.03 13.2
1/21/2021 11:00:00 PM 2.89 37.202 0.193 7.76 5.57 13.18
1/21/2021 11:15:00 PM 2.88 37.184 0.192 7.76 5.46 13.18
1/21/2021 11:30:00 PM 2.91 37.238 0.192 7.77 5.85 13.18
1/21/2021 11:45:00 PM 2.91 37.238 0.192 7.76 5.18 13.18
1/22/2021 12:00:00 AM 2.92 37.256 0.192 7.75 5.99 13.17
1/22/2021 12:15:00 AM 2.93 37.274 0.192 7.76 5.92 13.18
1/22/2021 12:30:00 AM 2.94 37.292 0.192 7.75 5.99 13.16
1/22/2021 12:45:00 AM 2.97 37.346 0.198 7.75 5.79 13.14
1/22/2021 1:00:00 AM 2.98 37.364 0.196 7.74 5.92 13.14
1/22/2021 1:15:00 AM 3 37.4 0.196 7.73 6.08 13.13
1/22/2021 1:30:00 AM 3.01 37.418 0.196 7.73 5.72 13.13
1/22/2021 1:45:00 AM 3.02 37.436 0.196 7.75 5.81 13.13
1/22/2021 2:00:00 AM 3.01 37.418 0.195 7.74 5.45 13.12
1/22/2021 2:15:00 AM 2.99 37.382 0.195 7.74 5.95 13.12
1/22/2021 2:30:00 AM 2.99 37.382 0.195 7.74 6.09 13.1
1/22/2021 2:45:00 AM 3 37.4 0.194 7.74 5.98 13.12
1/22/2021 3:00:00 AM 2.99 37.382 0.195 7.74 5.68 13.11
1/22/2021 3:15:00 AM 2.98 37.364 0.196 7.74 5.83 13.09
1/22/2021 3:30:00 AM 2.97 37.346 0.196 7.74 5.74 13.1
1/22/2021 3:45:00 AM 2.92 37.256 0.196 7.74 5.73 13.13
1/22/2021 4:00:00 AM 2.93 37.274 0.196 7.74 5.38 13.11
1/22/2021 4:15:00 AM 2.92 37.256 0.194 7.73 5.67 13.11
1/22/2021 4:30:00 AM 2.92 37.256 0.195 7.72 5.75 13.13
1/22/2021 4:45:00 AM 2.89 37.202 0.195 7.71 5.53 13.13
1/22/2021 5:00:00 AM 2.9 37.22 0.195 7.7 5.76 13.13
1/22/2021 5:15:00 AM 2.86 37.148 0.195 7.71 5.69 13.12
1/22/2021 5:30:00 AM 2.85 37.13 0.195 7.7 6.11 13.12
1/22/2021 5:45:00 AM 2.83 37.094 0.196 7.71 7.42 13.13
1/22/2021 6:00:00 AM 2.8 37.04 0.196 7.69 5.83 13.13
1/22/2021 6:15:00 AM 2.77 36.986 0.199 7.67 6 13.14
1/22/2021 6:30:00 AM 2.78 37.004 0.195 7.67 5.77 13.13
1/22/2021 6:45:00 AM 2.75 36.95 0.195 7.64 5.62 13.14
1/22/2021 7:00:00 AM 2.78 37.004 0.194 7.61 5.54 13.15
1/22/2021 7:15:00 AM 2.79 37.022 0.194 7.61 5.94 13.14
1/22/2021 7:30:00 AM 2.78 37.004 0.195 7.61 5.51 13.15
1/22/2021 7:45:00 AM 2.84 37.112 0.195 7.62 6.69 13.16
1/22/2021 8:00:00 AM 2.87 37.166 0.195 7.62 6.78 13.2
1/22/2021 8:15:00 AM 2.86 37.148 0.196 7.64 6.86 13.26
1/22/2021 8:30:00 AM 2.86 37.148 0.195 7.63 5.42 13.34
1/22/2021 8:45:00 AM 2.91 37.238 0.194 7.65 5.64 13.47
1/22/2021 9:00:00 AM 2.97 37.346 0.194 7.66 5.58 13.64
1/22/2021 9:15:00 AM 3.01 37.418 0.193 7.67 5.18 13.81
1/22/2021 9:30:00 AM 3.07 37.526 0.193 7.68 5.37 13.96
1/22/2021 9:45:00 AM 3.11 37.598 0.193 7.67 5.5 14.1
1/22/2021 10:00:00 AM 3.18 37.724 0.193 7.72 5.58 14.21
1/22/2021 10:15:00 AM 3.23 37.814 0.193 7.74 5.08 14.32
1/22/2021 10:30:00 AM 3.31 37.958 0.194 7.76 5.34 14.43
1/22/2021 10:45:00 AM 3.36 38.048 0.194 7.77 5.38 14.48
1/22/2021 11:00:00 AM 3.38 38.084 0.193 7.79 5.26 14.52
1/22/2021 11:15:00 AM 3.46 38.228 0.192 7.83 5.34 14.57
1/22/2021 11:30:00 AM 3.53 38.354 0.192 7.83 5.36 14.6
1/22/2021 11:45:00 AM 3.55 38.39 0.192 7.83 5.38 14.61
1/22/2021 12:00:00 PM 3.63 38.534 0.191 7.86 5.44 14.65
1/22/2021 12:15:00 PM 3.65 38.57 0.191 7.89 5.44 14.68
1/22/2021 12:30:00 PM 3.7 38.66 0.191 7.9 5.49 14.68
1/22/2021 12:45:00 PM 3.73 38.714 0.192 7.92 5.89 14.66
1/22/2021 1:00:00 PM 3.75 38.75 0.192 7.92 5.57 14.65
1/22/2021 1:15:00 PM 3.76 38.768 0.192 7.94 5.47 14.64
1/22/2021 1:30:00 PM 3.78 38.804 0.191 7.93 6.88 14.6
1/22/2021 1:45:00 PM 3.8 38.84 0.19 7.94 5.63 14.59
1/22/2021 2:00:00 PM 3.83 38.894 0.19 7.93 5.72 14.58
1/22/2021 2:15:00 PM 3.86 38.948 0.19 7.96 5.57 14.63
1/22/2021 2:30:00 PM 3.88 38.984 0.191 7.97 5.81 14.63
1/22/2021 2:45:00 PM 3.92 39.056 0.19 7.98 5.45 14.61
1/22/2021 3:00:00 PM 3.95 39.11 0.19 7.99 5.59 14.58
1/22/2021 3:15:00 PM 3.96 39.128 0.191 8 5.63 14.56
1/22/2021 3:30:00 PM 3.92 39.056 0.191 8.01 5.46 14.52
1/22/2021 3:45:00 PM 3.88 38.984 0.191 8.01 5.47 14.42
1/22/2021 4:00:00 PM 3.84 38.912 0.191 8.01 5.51 14.34
1/22/2021 4:15:00 PM 3.79 38.822 0.192 8 5.04 14.29
1/22/2021 4:30:00 PM 3.76 38.768 0.191 8 5.12 14.19
1/22/2021 4:45:00 PM 3.73 38.714 0.192 7.98 5.14 14.11
1/22/2021 5:00:00 PM 3.71 38.678 0.191 7.96 5.13 13.98
1/22/2021 5:15:00 PM 3.69 38.642 0.191 7.86 5.37 13.84
1/22/2021 5:30:00 PM 3.67 38.606 0.191 7.92 5.16 13.74
1/22/2021 5:45:00 PM 3.64 38.552 0.192 7.92 5.39 13.64
1/22/2021 6:00:00 PM 3.62 38.516 0.191 7.9 5.25 13.53
1/22/2021 6:15:00 PM 3.61 38.498 0.193 7.89 6.01 13.46
1/22/2021 6:30:00 PM 3.59 38.462 0.194 7.88 5.44 13.41
1/22/2021 6:45:00 PM 3.57 38.426 0.193 7.87 5.36 13.35
1/22/2021 7:00:00 PM 3.56 38.408 0.194 7.85 5.28 13.32
1/22/2021 7:15:00 PM 3.54 38.372 0.192 7.84 5.7 13.29
1/22/2021 7:30:00 PM 3.53 38.354 0.192 7.84 5.25 13.28
1/22/2021 7:45:00 PM 3.51 38.318 0.194 7.84 5.55 13.23
1/22/2021 8:00:00 PM 3.51 38.318 0.194 7.82 5.29 13.21
1/22/2021 8:15:00 PM 3.51 38.318 0.193 7.81 5.55 13.21
1/22/2021 8:30:00 PM 3.51 38.318 0.194 7.8 5.68 13.21
1/22/2021 8:45:00 PM 3.5 38.3 0.193 7.8 5.42 13.18
1/22/2021 9:00:00 PM 3.5 38.3 0.193 7.79 6.39 13.18
1/22/2021 9:15:00 PM 3.48 38.264 0.193 7.79 5.63 13.18
1/22/2021 9:30:00 PM 3.47 38.246 0.193 7.79 5.97 13.17
1/22/2021 9:45:00 PM 3.46 38.228 0.191 7.81 5.78 13.16
1/22/2021 10:00:00 PM 3.46 38.228 0.192 7.81 6 13.15
1/22/2021 10:15:00 PM 3.46 38.228 0.192 7.81 5.79 13.14
1/22/2021 10:30:00 PM 3.45 38.21 0.193 7.8 5.85 13.13
1/22/2021 10:45:00 PM 3.45 38.21 0.193 7.79 5.59 13.13
1/22/2021 11:00:00 PM 3.44 38.192 0.196 7.79 6.13 13.13
1/22/2021 11:15:00 PM 3.43 38.174 0.194 7.79 5.75 13.13
1/22/2021 11:30:00 PM 3.4 38.12 0.195 7.78 6.13 13.13
1/22/2021 11:45:00 PM 3.38 38.084 0.195 7.78 5.81 13.11
1/23/2021 12:00:00 AM 3.35 38.03 0.195 7.78 5.75 13.11
1/23/2021 12:15:00 AM 3.32 37.976 0.196 7.78 6.4 13.13
1/23/2021 12:30:00 AM 3.27 37.886 0.189 7.77 6.21 13.13
1/23/2021 12:45:00 AM 3.23 37.814 0.185 7.77 7.1 13.13
1/23/2021 1:00:00 AM 3.18 37.724 0.185 7.77 6.3 13.15
1/23/2021 1:15:00 AM 3.14 37.652 0.185 7.76 6.03 13.15
1/23/2021 1:30:00 AM 3.1 37.58 0.186 7.77 6.39 13.16
1/23/2021 1:45:00 AM 3.07 37.526 0.186 7.76 6.07 13.17
1/23/2021 2:00:00 AM 3.06 37.508 0.185 7.74 6.29 13.17
1/23/2021 2:15:00 AM 3.03 37.454 0.184 7.76 5.93 13.15
1/23/2021 2:30:00 AM 3 37.4 0.184 7.77 6.1 13.16
1/23/2021 2:45:00 AM 2.98 37.364 0.183 7.77 6.07 13.18
1/23/2021 3:00:00 AM 2.95 37.31 0.183 7.76 6.28 13.16
1/23/2021 3:15:00 AM 2.94 37.292 0.183 7.76 5.98 13.17
1/23/2021 3:30:00 AM 2.91 37.238 0.181 7.75 6.13 13.19
1/23/2021 3:45:00 AM 2.88 37.184 0.181 7.75 6.35 13.19
1/23/2021 4:00:00 AM 2.86 37.148 0.18 7.76 7.52 13.2
1/23/2021 4:15:00 AM 2.84 37.112 0.18 7.76 6.16 13.2
1/23/2021 4:30:00 AM 2.82 37.076 0.185 7.74 5.73 13.21
1/23/2021 4:45:00 AM 2.83 37.094 0.185 7.75 6.44 13.21
1/23/2021 5:00:00 AM 2.82 37.076 0.184 7.75 5.99 13.22
1/23/2021 5:15:00 AM 2.8 37.04 0.183 7.75 6.68 13.22
1/23/2021 5:30:00 AM 2.8 37.04 0.183 7.75 5.67 13.22
1/23/2021 5:45:00 AM 2.79 37.022 0.184 7.75 6.47 13.24
1/23/2021 6:00:00 AM 2.74 36.932 0.183 7.75 6.24 13.23
1/23/2021 6:15:00 AM 2.74 36.932 0.185 7.75 6.5 13.23
1/23/2021 6:30:00 AM 2.71 36.878 0.184 7.74 6.65 13.24
1/23/2021 6:45:00 AM 2.68 36.824 0.184 7.73 6.13 13.25
1/23/2021 7:00:00 AM 2.65 36.77 0.184 7.73 6.3 13.26
1/23/2021 7:15:00 AM 2.62 36.716 0.185 7.73 6.47 13.28
1/23/2021 7:30:00 AM 2.56 36.608 0.185 7.73 6.54 13.3
1/23/2021 7:45:00 AM 2.52 36.536 0.185 7.74 6.34 13.35
1/23/2021 8:00:00 AM 2.44 36.392 0.186 7.73 6.62 13.45
1/23/2021 8:15:00 AM 2.42 36.356 0.186 7.73 6.74 13.56
1/23/2021 8:30:00 AM 2.39 36.302 0.186 7.75 6.09 13.73
1/23/2021 8:45:00 AM 2.38 36.284 0.187 7.75 5.7 13.9
1/23/2021 9:00:00 AM 2.42 36.356 0.189 7.76 5.89 14.12
1/23/2021 9:15:00 AM 2.42 36.356 0.188 7.78 6.11 14.28
1/23/2021 9:30:00 AM 2.45 36.41 0.188 7.79 5.78 14.41
1/23/2021 9:45:00 AM 2.46 36.428 0.188 7.82 6.18 14.53
1/23/2021 10:00:00 AM 2.51 36.518 0.188 7.83 6.46 14.66
1/23/2021 10:15:00 AM 2.54 36.572 0.188 7.86 5.84 14.76
1/23/2021 10:30:00 AM 2.6 36.68 0.188 7.88 5.71 14.85
1/23/2021 10:45:00 AM 2.68 36.824 0.189 7.9 5.58 14.98
1/23/2021 11:00:00 AM 2.73 36.914 0.188 7.93 5.67 15.04
1/23/2021 11:15:00 AM 2.8 37.04 0.188 7.94 5.82 15.12
1/23/2021 11:30:00 AM 2.83 37.094 0.187 7.96 5.72 15.14
1/23/2021 11:45:00 AM 2.88 37.184 0.188 7.98 6 15.19
1/23/2021 12:00:00 PM 2.97 37.346 0.187 7.99 5.51 15.2
1/23/2021 12:15:00 PM 3.05 37.49 0.182 8.01 5.84 15.23
1/23/2021 12:30:00 PM 3.16 37.688 0.178 8.03 5.64 15.26
1/23/2021 12:45:00 PM 3.29 37.922 0.178 8.05 5.74 15.28
1/23/2021 1:00:00 PM 3.32 37.976 0.178 8.06 5.73 15.29
1/23/2021 1:15:00 PM 3.34 38.012 0.179 8.07 5.37 15.29
1/23/2021 1:30:00 PM 3.39 38.102 0.178 8.09 6.08 15.29
1/23/2021 1:45:00 PM 3.35 38.03 0.177 8.09 5.89 15.24
1/23/2021 2:00:00 PM 3.35 38.03 0.178 8.09 6.99 15.23
1/23/2021 2:15:00 PM 3.32 37.976 0.178 8.09 6.61 15.17
1/23/2021 2:30:00 PM 3.3 37.94 0.178 8.09 6.72 15.16
1/23/2021 2:45:00 PM 3.32 37.976 0.178 8.1 6.45 15.17
1/23/2021 3:00:00 PM 3.3 37.94 0.178 8.1 6.05 15.14
1/23/2021 3:15:00 PM 3.25 37.85 0.179 8.1 5.64 15.09
1/23/2021 3:30:00 PM 3.2 37.76 0.179 8.09 5.78 15.02
1/23/2021 3:45:00 PM 3.13 37.634 0.179 8.08 6.27 14.92
1/23/2021 4:00:00 PM 3.06 37.508 0.179 8.08 5.86 14.83
1/23/2021 4:15:00 PM 2.98 37.364 0.18 8.07 6.13 14.75
1/23/2021 4:30:00 PM 2.9 37.22 0.181 8.05 5.73 14.65
1/23/2021 4:45:00 PM 2.84 37.112 0.182 8.04 6.4 14.55
1/23/2021 5:00:00 PM 2.78 37.004 0.181 8.02 6.58 14.44
1/23/2021 5:15:00 PM 2.73 36.914 0.181 8.01 6.4 14.32
1/23/2021 5:30:00 PM 2.67 36.806 0.181 7.98 6.12 14.23
1/23/2021 5:45:00 PM 2.63 36.734 0.187 7.97 5.96 14.13
1/23/2021 6:00:00 PM 2.59 36.662 0.19 7.95 6.12 14.04
1/23/2021 6:15:00 PM 2.53 36.554 0.189 7.93 5.95 14.01
1/23/2021 6:30:00 PM 2.5 36.5 0.191 7.93 5.68 13.93
1/23/2021 6:45:00 PM 2.47 36.446 0.189 7.93 5.96 13.92
1/23/2021 7:00:00 PM 2.44 36.392 0.192 7.89 5.97 13.86
1/23/2021 7:15:00 PM 2.43 36.374 0.191 7.89 6.24 13.83
1/23/2021 7:30:00 PM 2.42 36.356 0.19 7.87 6.01 13.82
1/23/2021 7:45:00 PM 2.4 36.32 0.189 7.87 6.28 13.79
1/23/2021 8:00:00 PM 2.38 36.284 0.189 7.86 6.1 13.76
1/23/2021 8:15:00 PM 2.37 36.266 0.186 7.85 6 13.78
1/23/2021 8:30:00 PM 2.36 36.248 0.185 7.84 5.95 13.74
1/23/2021 8:45:00 PM 2.34 36.212 0.184 7.83 6.14 13.74
1/23/2021 9:00:00 PM 2.33 36.194 0.183 7.84 6.53 13.73
1/23/2021 9:15:00 PM 2.32 36.176 0.183 7.82 6.14 13.73
1/23/2021 9:30:00 PM 2.31 36.158 0.183 7.8 6.67 13.72
1/23/2021 9:45:00 PM 2.28 36.104 0.183 7.81 5.97 13.71
1/23/2021 10:00:00 PM 2.29 36.122 0.18 7.8 6.1 13.7
1/23/2021 10:15:00 PM 2.29 36.122 0.181 7.81 6.51 13.69
1/23/2021 10:30:00 PM 2.27 36.086 0.182 7.79 6.23 13.7
1/23/2021 10:45:00 PM 2.26 36.068 0.181 7.79 6.15 13.7
1/23/2021 11:00:00 PM 2.24 36.032 0.18 7.8 6.15 13.69
1/23/2021 11:15:00 PM 2.24 36.032 0.181 7.79 5.87 13.68
1/23/2021 11:30:00 PM 2.25 36.05 0.182 7.8 6.17 13.68
1/23/2021 11:45:00 PM 2.26 36.068 0.181 7.8 7.73 13.68
1/24/2021 12:00:00 AM 2.25 36.05 0.181 7.82 6.44 13.68
1/24/2021 12:15:00 AM 2.27 36.086 0.18 7.94 6.35 13.67
1/24/2021 12:30:00 AM 2.27 36.086 0.18 8.09 6.82 13.68
1/24/2021 12:45:00 AM 2.25 36.05 0.181 8.22 6.07 13.68
1/24/2021 1:00:00 AM 2.23 36.014 0.181 8.3 5.78 13.67
1/24/2021 1:15:00 AM 2.22 35.996 0.182 8.45 5.93 13.7
1/24/2021 1:30:00 AM 2.21 35.978 0.183 8.63 6.23 13.69
1/24/2021 1:45:00 AM 2.19 35.942 0.182 8.57 6.05 13.71
1/24/2021 2:00:00 AM 2.16 35.888 0.192 8.55 5.97 13.7
1/24/2021 2:15:00 AM 2.14 35.852 0.19 8.53 5.9 13.71
1/24/2021 2:30:00 AM 2.11 35.798 0.19 8.46 6.18 13.72
1/24/2021 2:45:00 AM 2.1 35.78 0.19 8.5 5.93 13.73
1/24/2021 3:00:00 AM 2.07 35.726 0.191 8.55 6.64 13.72
1/24/2021 3:15:00 AM 2.04 35.672 0.186 8.51 5.91 13.74
1/24/2021 3:30:00 AM 2 35.6 0.187 8.53 5.74 13.75
1/24/2021 3:45:00 AM 1.97 35.546 0.19 8.5 6.42 13.76
1/24/2021 4:00:00 AM 1.92 35.456 0.187 8.48 6.19 13.77
1/24/2021 4:15:00 AM 1.88 35.384 0.186 8.45 6.17 13.79
1/24/2021 4:30:00 AM 1.87 35.366 0.186 8.46 6.29 13.8
1/24/2021 4:45:00 AM 1.86 35.348 0.184 8.4 6.22 13.8
1/24/2021 5:00:00 AM 1.78 35.204 0.185 8.35 6.27 13.8
1/24/2021 5:15:00 AM 1.78 35.204 0.184 8.32 6.21 13.83
1/24/2021 5:30:00 AM 1.74 35.132 0.186 8.28 6.18 13.82
1/24/2021 5:45:00 AM 1.74 35.132 0.186 8.22 6.48 13.83
1/24/2021 6:00:00 AM 1.63 34.934 0.186 8.19 6.22 13.87
1/24/2021 6:15:00 AM 1.64 34.952 0.185 8.15 5.98 13.84
1/24/2021 6:30:00 AM 1.6 34.88 0.183 8.14 5.77 13.87
1/24/2021 6:45:00 AM 1.58 34.844 0.184 8.12 6.36 13.88
1/24/2021 7:00:00 AM 1.55 34.79 0.184 8.09 5.69 13.88
1/24/2021 7:15:00 AM 1.51 34.718 0.183 8.04 6.6 13.91
1/24/2021 7:30:00 AM 1.48 34.664 0.184 8.02 6.53 13.94
1/24/2021 7:45:00 AM 1.47 34.646 0.183 8 6.25 13.99
1/24/2021 8:00:00 AM 1.46 34.628 0.184 7.98 6.02 14.1
1/24/2021 8:15:00 AM 1.4 34.52 0.185 7.97 6.35 14.22
1/24/2021 8:30:00 AM 1.38 34.484 0.183 7.97 6.83 14.38
1/24/2021 8:45:00 AM 1.38 34.484 0.188 7.97 6.62 14.56
1/24/2021 9:00:00 AM 1.44 34.592 0.187 7.98 6.99 14.72
1/24/2021 9:15:00 AM 1.44 34.592 0.187 7.98 7.42 14.85
1/24/2021 9:30:00 AM 1.46 34.628 0.186 8.01 6.39 14.99
1/24/2021 9:45:00 AM 1.53 34.754 0.183 8.01 6.91 15.12
1/24/2021 10:00:00 AM 1.61 34.898 0.186 8.02 6.25 15.23
1/24/2021 10:15:00 AM 1.68 35.024 0.185 8.04 5.97 15.34
1/24/2021 10:30:00 AM 1.76 35.168 0.186 8.06 6.01 15.4
1/24/2021 10:45:00 AM 1.82 35.276 0.186 8.07 6.08 15.47
1/24/2021 11:00:00 AM 1.92 35.456 0.187 8.09 5.53 15.52
1/24/2021 11:15:00 AM 1.94 35.492 0.185 8.11 5.84 15.57
1/24/2021 11:30:00 AM 2.07 35.726 0.184 8.12 6.22 15.61
1/24/2021 11:45:00 AM 2.17 35.906 0.183 8.13 9.02 15.58
1/24/2021 12:00:00 PM 2.28 36.104 0.182 8.13 6.14 15.58
1/24/2021 12:15:00 PM 2.36 36.248 0.182 8.14 6.6 15.59
1/24/2021 12:30:00 PM 2.49 36.482 0.183 8.15 6.12 15.61
1/24/2021 12:45:00 PM 2.59 36.662 0.185 8.17 7.66 15.61
1/24/2021 1:00:00 PM 2.62 36.716 0.186 8.17 5.64 15.61
1/24/2021 1:15:00 PM 2.64 36.752 0.186 8.18 6.52 15.56
1/24/2021 1:30:00 PM 2.66 36.788 0.184 8.18 6.03 15.59
1/24/2021 1:45:00 PM 2.72 36.896 0.184 8.19 6.08 15.58
1/24/2021 2:00:00 PM 2.71 36.878 0.184 8.18 6.33 15.57
1/24/2021 2:15:00 PM 2.8 37.04 0.184 8.19 6.74 15.52
1/24/2021 2:30:00 PM 2.78 37.004 0.184 8.18 7.09 15.44
1/24/2021 2:45:00 PM 2.79 37.022 0.184 8.18 8.62 15.41
1/24/2021 3:00:00 PM 2.81 37.058 0.184 8.17 7.46 15.33
1/24/2021 3:15:00 PM 2.77 36.986 0.184 8.16 6.06 15.24
1/24/2021 3:30:00 PM 2.74 36.932 0.186 8.17 6.78 15.25
1/24/2021 3:45:00 PM 2.74 36.932 0.186 8.17 6.24 15.25
1/24/2021 4:00:00 PM 2.73 36.914 0.187 8.18 6.14 15.16
1/24/2021 4:15:00 PM 2.68 36.824 0.186 8.17 6.27 15.04
1/24/2021 4:30:00 PM 2.66 36.788 0.186 8.15 5.97 14.96
1/24/2021 4:45:00 PM 2.63 36.734 0.186 8.12 5.9 14.88
1/24/2021 5:00:00 PM 2.62 36.716 0.186 8.1 5.78 14.74
1/24/2021 5:15:00 PM 2.62 36.716 0.186 8.08 5.77 14.57
1/24/2021 5:30:00 PM 2.59 36.662 0.186 8.07 6.41 14.43
1/24/2021 5:45:00 PM 2.56 36.608 0.184 8.06 6.38 14.3
1/24/2021 6:00:00 PM 2.56 36.608 0.189 8.03 6.02 14.21
1/24/2021 6:15:00 PM 2.55 36.59 0.22 8.01 6.45 14.14
1/24/2021 6:30:00 PM 2.5 36.5 0.217 8 5.34 14.07
1/24/2021 6:45:00 PM 2.51 36.518 0.22 7.97 5.53 14.02
1/24/2021 7:00:00 PM 2.47 36.446 0.212 7.97 5.45 14
1/24/2021 7:15:00 PM 2.49 36.482 0.202 7.94 5.64 13.96
1/24/2021 7:30:00 PM 2.47 36.446 0.22 7.93 5.66 13.92
1/24/2021 7:45:00 PM 2.45 36.41 0.214 7.92 5.65 13.89
1/24/2021 8:00:00 PM 2.46 36.428 0.212 7.92 6.21 13.87
1/24/2021 8:15:00 PM 2.43 36.374 0.211 7.9 5.77 13.86
1/24/2021 8:30:00 PM 2.43 36.374 0.211 7.87 5.66 13.84
1/24/2021 8:45:00 PM 2.41 36.338 0.209 7.88 5.56 13.82
1/24/2021 9:00:00 PM 2.41 36.338 0.209 7.89 5.35 13.79
1/24/2021 9:15:00 PM 2.42 36.356 0.204 7.89 6.17 13.78
1/24/2021 9:30:00 PM 2.42 36.356 0.204 7.88 5.65 13.78
1/24/2021 9:45:00 PM 2.44 36.392 0.206 7.87 5.78 13.77
1/24/2021 10:00:00 PM 2.46 36.428 0.205 7.86 6.11 13.74
1/24/2021 10:15:00 PM 2.42 36.356 0.204 7.85 5.95 13.73
1/24/2021 10:30:00 PM 2.47 36.446 0.204 7.85 5.85 13.7
1/24/2021 10:45:00 PM 2.47 36.446 0.204 7.84 5.42 13.69
1/24/2021 11:00:00 PM 2.47 36.446 0.205 7.84 6.84 13.7
1/24/2021 11:15:00 PM 2.48 36.464 0.207 7.83 5.59 13.67
1/24/2021 11:30:00 PM 2.46 36.428 0.206 7.82 5.81 13.67
1/24/2021 11:45:00 PM 2.48 36.464 0.205 7.81 5.9 13.65
1/25/2021 12:00:00 AM 2.49 36.482 0.204 7.82 6.37 13.66
1/25/2021 12:15:00 AM 2.49 36.482 0.209 7.82 6.84 13.64
1/25/2021 12:30:00 AM 2.49 36.482 0.21 7.81 5.77 13.62
1/25/2021 12:45:00 AM 2.52 36.536 0.21 7.81 6.38 13.61
1/25/2021 1:00:00 AM 2.5 36.5 0.211 7.81 6.25 13.62
1/25/2021 1:15:00 AM 2.51 36.518 0.211 7.8 6.46 13.61
1/25/2021 1:30:00 AM 2.51 36.518 0.21 7.8 5.85 13.61
1/25/2021 1:45:00 AM 2.5 36.5 0.202 7.8 6.05 13.61
1/25/2021 2:00:00 AM 2.47 36.446 0.206 7.8 5.96 13.6
1/25/2021 2:15:00 AM 2.47 36.446 0.209 7.79 5.85 13.6
1/25/2021 2:30:00 AM 2.44 36.392 0.21 7.8 5.98 13.58
1/25/2021 2:45:00 AM 2.46 36.428 0.206 7.78 5.77 13.59
1/25/2021 3:00:00 AM 2.43 36.374 0.203 7.78 5.58 13.59
1/25/2021 3:15:00 AM 2.43 36.374 0.194 7.77 5.77 13.59
1/25/2021 3:30:00 AM 2.42 36.356 0.2 7.78 6.2 13.58
1/25/2021 3:45:00 AM 2.39 36.302 0.201 7.78 5.53 13.59
1/25/2021 4:00:00 AM 2.39 36.302 0.204 7.77 6.15 13.58
1/25/2021 4:15:00 AM 2.37 36.266 0.203 7.77 5.62 13.58
1/25/2021 4:30:00 AM 2.35 36.23 0.198 7.78 6.09 13.59
1/25/2021 4:45:00 AM 2.34 36.212 0.198 7.76 5.65 13.58
1/25/2021 5:00:00 AM 2.35 36.23 0.191 7.76 5.45 13.59
1/25/2021 5:15:00 AM 2.35 36.23 0.191 7.76 5.78 13.6
1/25/2021 5:30:00 AM 2.36 36.248 0.193 7.76 6.96 13.57
1/25/2021 5:45:00 AM 2.31 36.158 0.193 7.77 5.5 13.58
1/25/2021 6:00:00 AM 2.35 36.23 0.192 7.76 6.27 13.56
1/25/2021 6:15:00 AM 2.33 36.194 0.192 7.75 5.9 13.58
1/25/2021 6:30:00 AM 2.36 36.248 0.191 7.75 5.71 13.55
1/25/2021 6:45:00 AM 2.34 36.212 0.191 7.77 5.72 13.54
1/25/2021 7:00:00 AM 2.34 36.212 0.188 7.75 6.08 13.55
1/25/2021 7:15:00 AM 2.31 36.158 0.191 7.75 5.59 13.57
1/25/2021 7:30:00 AM 2.33 36.194 0.189 7.75 5.96 13.57
1/25/2021 7:45:00 AM 2.33 36.194 0.19 7.75 5.8 13.59
1/25/2021 8:00:00 AM 2.3 36.14 0.189 7.76 6.21 13.62
1/25/2021 8:15:00 AM 2.29 36.122 0.189 7.74 5.58 13.7
1/25/2021 8:30:00 AM 2.28 36.104 0.191 7.74 6.33 13.78
1/25/2021 8:45:00 AM 2.31 36.158 0.19 7.75 6.04 13.91
1/25/2021 9:00:00 AM 2.31 36.158 0.19 7.77 5.69 14.02
1/25/2021 9:15:00 AM 2.3 36.14 0.189 7.75 5.8 14.13
1/25/2021 9:30:00 AM 2.31 36.158 0.188 7.76 5.07 14.23
1/25/2021 9:45:00 AM 2.33 36.194 0.188 7.77 6.24 14.34
1/25/2021 10:00:00 AM 2.38 36.284 0.188 7.78 6.67 14.47
1/25/2021 10:15:00 AM 2.39 36.302 0.187 7.8 5.99 14.56
1/25/2021 10:30:00 AM 2.41 36.338 0.19 7.81 5.85 14.66
1/25/2021 10:45:00 AM 2.43 36.374 0.19 7.82 5.39 14.78
1/25/2021 11:00:00 AM 2.45 36.41 0.189 7.84 5.82 14.82
1/25/2021 11:15:00 AM 2.46 36.428 0.186 7.86 5.87 14.88
1/25/2021 11:30:00 AM 2.49 36.482 0.185 7.86 6.27 14.94
1/25/2021 11:45:00 AM 2.51 36.518 0.186 7.88 6.52 14.99
1/25/2021 12:00:00 PM 2.56 36.608 0.185 7.89 5.68 15.05
1/25/2021 12:15:00 PM 2.6 36.68 0.185 7.91 6 15.1
1/25/2021 12:30:00 PM 2.63 36.734 0.185 7.91 5.6 15.13
1/25/2021 12:45:00 PM 2.64 36.752 0.186 7.93 5.63 15.16
1/25/2021 1:00:00 PM 2.66 36.788 0.186 7.95 6.05 15.17
1/25/2021 1:15:00 PM 2.69 36.842 0.186 7.95 5.7 15.18
1/25/2021 1:30:00 PM 2.71 36.878 0.186 7.97 5.58 15.18
1/25/2021 1:45:00 PM 2.72 36.896 0.185 7.99 5.76 15.15
1/25/2021 2:00:00 PM 2.73 36.914 0.185 8 5.84 15.13
1/25/2021 2:15:00 PM 2.74 36.932 0.184 8 5.81 15.12
1/25/2021 2:30:00 PM 2.76 36.968 0.184 8 5.88 15.06
1/25/2021 2:45:00 PM 2.77 36.986 0.184 8.01 5.43 15.08
1/25/2021 3:00:00 PM 2.78 37.004 0.185 8.01 5.43 15.09
1/25/2021 3:15:00 PM 2.81 37.058 0.186 8.02 5.65 15.1
1/25/2021 3:30:00 PM 2.82 37.076 0.186 8.01 5.72 15.04
1/25/2021 3:45:00 PM 2.82 37.076 0.186 8.02 5.94 14.98
1/25/2021 4:00:00 PM 2.82 37.076 0.186 8.01 6.02 14.92
1/25/2021 4:15:00 PM 2.81 37.058 0.185 8.01 6.1 14.87
1/25/2021 4:30:00 PM 2.81 37.058 0.185 8.01 6.81 14.76
1/25/2021 4:45:00 PM 2.8 37.04 0.185 7.99 6.66 14.63
1/25/2021 5:00:00 PM 2.77 36.986 0.186 7.98 6.05 14.48
1/25/2021 5:15:00 PM 2.75 36.95 0.186 7.96 6.3 14.33
1/25/2021 5:30:00 PM 2.74 36.932 0.186 7.95 6.56 14.22
1/25/2021 5:45:00 PM 2.72 36.896 0.187 7.93 5.9 14.1
1/25/2021 6:00:00 PM 2.71 36.878 0.187 7.92 5.57 14.01
1/25/2021 6:15:00 PM 2.69 36.842 0.186 7.91 5.77 13.92
1/25/2021 6:30:00 PM 2.68 36.824 0.188 7.89 6.73 13.88
1/25/2021 6:45:00 PM 2.67 36.806 0.187 7.87 6.28 13.83
1/25/2021 7:00:00 PM 2.65 36.77 0.187 7.86 5.67 13.8
1/25/2021 7:15:00 PM 2.63 36.734 0.185 7.85 5.53 13.76
1/25/2021 7:30:00 PM 2.63 36.734 0.195 7.85 6.22 13.74
1/25/2021 7:45:00 PM 2.64 36.752 0.19 7.83 5.72 13.71
1/25/2021 8:00:00 PM 2.62 36.716 0.2 7.84 5.56 13.7
1/25/2021 8:15:00 PM 2.62 36.716 0.201 7.82 5.4 13.68
1/25/2021 8:30:00 PM 2.61 36.698 0.203 7.8 5.3 13.66
1/25/2021 8:45:00 PM 2.61 36.698 0.185 7.8 5.95 13.65
1/25/2021 9:00:00 PM 2.6 36.68 0.183 7.74 5.92 13.65
1/25/2021 9:15:00 PM 2.57 36.626 0.182 7.76 5.74 13.64
1/25/2021 9:30:00 PM 2.53 36.554 0.185 7.77 5.77 13.63
1/25/2021 9:45:00 PM 2.5 36.5 0.193 7.76 6.14 13.63
1/25/2021 10:00:00 PM 2.47 36.446 0.194 7.77 6.1 13.6
1/25/2021 10:15:00 PM 2.48 36.464 0.194 7.76 5.79 13.61
1/25/2021 10:30:00 PM 2.49 36.482 0.202 7.75 5.76 13.58
1/25/2021 10:45:00 PM 2.5 36.5 0.205 7.75 6.21 13.59
1/25/2021 11:00:00 PM 2.48 36.464 0.204 7.75 5.47 13.6
1/25/2021 11:15:00 PM 2.46 36.428 0.204 7.73 6.86 13.6
1/25/2021 11:30:00 PM 2.46 36.428 0.204 7.73 5.72 13.59
1/25/2021 11:45:00 PM 2.46 36.428 0.204 7.73 5.42 13.56
1/26/2021 12:00:00 AM 2.45 36.41 0.203 7.73 5.83 13.58
1/26/2021 12:15:00 AM 2.43 36.374 0.203 7.73 5.48 13.56
1/26/2021 12:30:00 AM 2.43 36.374 0.203 7.73 5.43 13.58
1/26/2021 12:45:00 AM 2.45 36.41 0.203 7.7 5.54 13.57
1/26/2021 1:00:00 AM 2.45 36.41 0.196 7.72 5.53 13.55
1/26/2021 1:15:00 AM 2.45 36.41 0.192 7.73 5.32 13.56
1/26/2021 1:30:00 AM 2.45 36.41 0.2 7.67 5.11 13.54
1/26/2021 1:45:00 AM 2.45 36.41 0.199 7.64 5.36 13.55
1/26/2021 2:00:00 AM 2.45 36.41 0.198 7.68 5.26 13.55
1/26/2021 2:15:00 AM 2.45 36.41 0.201 7.69 5.5 13.55
1/26/2021 2:30:00 AM 2.43 36.374 0.2 7.69 5.85 13.55
1/26/2021 2:45:00 AM 2.45 36.41 0.2 7.7 5.48 13.54
1/26/2021 3:00:00 AM 2.43 36.374 0.2 7.7 5.33 13.54
1/26/2021 3:15:00 AM 2.43 36.374 0.201 7.71 5.54 13.56
1/26/2021 3:30:00 AM 2.42 36.356 0.202 7.7 5.24 13.55
1/26/2021 3:45:00 AM 2.41 36.338 0.201 7.7 5.62 13.55
1/26/2021 4:00:00 AM 2.42 36.356 0.201 7.7 6.01 13.55
1/26/2021 4:15:00 AM 2.41 36.338 0.201 7.7 5.62 13.55
1/26/2021 4:30:00 AM 2.41 36.338 0.201 7.69 5.78 13.55
1/26/2021 4:45:00 AM 2.4 36.32 0.2 7.69 5.19 13.56
1/26/2021 5:00:00 AM 2.4 36.32 0.201 7.69 5.15 13.55
1/26/2021 5:15:00 AM 2.4 36.32 0.199 7.7 5.01 13.55
1/26/2021 5:30:00 AM 2.41 36.338 0.199 7.7 5.49 13.54
1/26/2021 5:45:00 AM 2.41 36.338 0.2 7.69 5.89 13.51
1/26/2021 6:00:00 AM 2.41 36.338 0.201 7.68 5.2 13.51
1/26/2021 6:15:00 AM 2.41 36.338 0.201 7.7 5.49 13.52
1/26/2021 6:30:00 AM 2.41 36.338 0.2 7.7 5.27 13.51
1/26/2021 6:45:00 AM 2.4 36.32 0.2 7.69 5.33 13.51
1/26/2021 7:00:00 AM 2.4 36.32 0.2 7.69 5.53 13.52
1/26/2021 7:15:00 AM 2.38 36.284 0.2 7.69 5.5 13.51
1/26/2021 7:30:00 AM 2.38 36.284 0.2 7.69 5.01 13.53
1/26/2021 7:45:00 AM 2.38 36.284 0.199 7.7 5.21 13.54
1/26/2021 8:00:00 AM 2.38 36.284 0.2 7.69 4.96 13.57
1/26/2021 8:15:00 AM 2.38 36.284 0.2 7.71 5.11 13.6
1/26/2021 8:30:00 AM 2.39 36.302 0.2 7.71 5.19 13.68
1/26/2021 8:45:00 AM 2.38 36.284 0.199 7.71 5.21 13.75
1/26/2021 9:00:00 AM 2.39 36.302 0.198 7.72 5.58 13.86
1/26/2021 9:15:00 AM 2.4 36.32 0.199 7.7 5.65 13.96
1/26/2021 9:30:00 AM 2.4 36.32 0.198 7.71 5.37 14.03
1/26/2021 9:45:00 AM 2.42 36.356 0.198 7.69 5.47 14.1
1/26/2021 10:00:00 AM 2.43 36.374 0.198 7.72 5.69 14.16
1/26/2021 10:15:00 AM 2.44 36.392 0.198 7.73 6.04 14.22
1/26/2021 10:30:00 AM 2.46 36.428 0.198 7.74 5.71 14.29
1/26/2021 10:45:00 AM 2.49 36.482 0.199 7.74 7.02 14.36
1/26/2021 11:00:00 AM 2.5 36.5 0.199 7.76 5.8 14.43
1/26/2021 11:15:00 AM 2.51 36.518 0.198 7.78 5.39 14.48
1/26/2021 11:30:00 AM 2.53 36.554 0.197 7.79 5.54 14.51
1/26/2021 11:45:00 AM 2.55 36.59 0.197 7.79 5.8 14.59
1/26/2021 12:00:00 PM 2.59 36.662 0.197 7.79 5.57 14.67
1/26/2021 12:15:00 PM 2.62 36.716 0.197 7.83 7.34 14.71
1/26/2021 12:30:00 PM 2.65 36.77 0.197 7.84 6.17 14.77
1/26/2021 12:45:00 PM 2.69 36.842 0.198 7.85 6.05 14.79
1/26/2021 1:00:00 PM 2.72 36.896 0.197 7.85 5.58 14.85
1/26/2021 1:15:00 PM 2.75 36.95 0.198 7.86 5.68 14.81
1/26/2021 1:30:00 PM 2.77 36.986 0.197 7.85 40.37 14.82
1/26/2021 1:45:00 PM 2.78 37.004 0.196 7.87 6.34 14.84
1/26/2021 2:00:00 PM 2.81 37.058 0.196 7.88 6.48 14.85
1/26/2021 2:15:00 PM 2.81 37.058 0.196 7.89 6.04 14.83
1/26/2021 2:30:00 PM 2.82 37.076 0.196 7.9 6.56 14.82
1/26/2021 2:45:00 PM 2.83 37.094 0.196 7.9 6.26 14.74
1/26/2021 3:00:00 PM 2.82 37.076 0.196 7.9 6.11 14.68
1/26/2021 3:15:00 PM 2.84 37.112 0.197 7.9 6.22 14.64
1/26/2021 3:30:00 PM 2.84 37.112 0.197 7.9 5.9 14.61
1/26/2021 3:45:00 PM 2.84 37.112 0.198 7.9 5.3 14.57
1/26/2021 4:00:00 PM 2.85 37.13 0.197 7.9 5.51 14.49
1/26/2021 4:15:00 PM 2.85 37.13 0.198 7.89 5.48 14.48
1/26/2021 4:30:00 PM 2.84 37.112 0.197 7.9 5.39 14.42
1/26/2021 4:45:00 PM 2.85 37.13 0.197 7.9 6.29 14.34
1/26/2021 5:00:00 PM 2.84 37.112 0.197 7.9 6.18 14.24
1/26/2021 5:15:00 PM 2.84 37.112 0.197 7.88 6.91 14.1
1/26/2021 5:30:00 PM 2.85 37.13 0.198 7.87 5.65 13.99
1/26/2021 5:45:00 PM 2.86 37.148 0.198 7.86 5.95 13.92
1/26/2021 6:00:00 PM 2.87 37.166 0.2 7.85 5.47 13.84
1/26/2021 6:15:00 PM 2.89 37.202 0.199 7.84 5.51 13.75
1/26/2021 6:30:00 PM 2.9 37.22 0.199 7.83 5.83 13.68
1/26/2021 6:45:00 PM 2.89 37.202 0.198 7.82 5.63 13.62
1/26/2021 7:00:00 PM 2.9 37.22 0.198 7.81 5.74 13.58
1/26/2021 7:15:00 PM 2.9 37.22 0.198 7.79 5.73 13.54
1/26/2021 7:30:00 PM 2.9 37.22 0.198 7.77 5.38 13.52
1/26/2021 7:45:00 PM 2.91 37.238 0.198 7.77 5.41 13.49
1/26/2021 8:00:00 PM 2.92 37.256 0.199 7.78 5.39 13.47
1/26/2021 8:15:00 PM 2.93 37.274 0.199 7.78 6.44 13.45
1/26/2021 8:30:00 PM 2.93 37.274 0.201 7.79 5.61 13.41
1/26/2021 8:45:00 PM 2.93 37.274 0.205 7.77 5.4 13.41
1/26/2021 9:00:00 PM 2.92 37.256 0.205 7.76 5.19 13.41
1/26/2021 9:15:00 PM 2.92 37.256 0.204 7.76 6 13.4
1/26/2021 9:30:00 PM 2.92 37.256 0.202 7.75 5.52 13.41
1/26/2021 9:45:00 PM 2.92 37.256 0.203 7.74 5.39 13.39
1/26/2021 10:00:00 PM 2.92 37.256 0.202 7.75 5.55 13.39
1/26/2021 10:15:00 PM 2.93 37.274 0.202 7.74 6.33 13.36
1/26/2021 10:30:00 PM 2.94 37.292 0.202 7.73 6.33 13.35
1/26/2021 10:45:00 PM 2.95 37.31 0.203 7.74 5.32 13.35
1/26/2021 11:00:00 PM 2.95 37.31 0.203 7.74 5.18 13.33
1/26/2021 11:15:00 PM 2.94 37.292 0.203 7.74 5.3 13.32
1/26/2021 11:30:00 PM 2.95 37.31 0.203 7.73 5.38 13.35
1/26/2021 11:45:00 PM 2.95 37.31 0.203 7.74 5.42 13.34
1/27/2021 12:00:00 AM 2.95 37.31 0.203 7.73 5.05 13.33
1/27/2021 12:15:00 AM 2.94 37.292 0.205 7.72 5.72 13.33
1/27/2021 12:30:00 AM 2.95 37.31 0.204 7.71 5.75 13.31
1/27/2021 12:45:00 AM 2.96 37.328 0.205 7.71 5.43 13.32
1/27/2021 1:00:00 AM 2.96 37.328 0.203 7.71 5.09 13.3
1/27/2021 1:15:00 AM 2.96 37.328 0.207 7.71 6.65 13.3
1/27/2021 1:30:00 AM 2.96 37.328 0.201 7.71 5.1 13.3
1/27/2021 1:45:00 AM 2.96 37.328 0.198 7.72 5.5 13.29
1/27/2021 2:00:00 AM 2.96 37.328 0.201 7.72 5.34 13.29
1/27/2021 2:15:00 AM 2.96 37.328 0.204 7.73 5.65 13.27
1/27/2021 2:30:00 AM 2.96 37.328 0.204 7.75 5.36 13.27
1/27/2021 2:45:00 AM 2.95 37.31 0.202 7.77 5.32 13.26
1/27/2021 3:00:00 AM 2.96 37.328 0.203 7.73 5.57 13.26
1/27/2021 3:15:00 AM 2.97 37.346 0.203 7.72 5.1 13.24
1/27/2021 3:30:00 AM 2.96 37.328 0.204 7.72 5.18 13.24
1/27/2021 3:45:00 AM 2.96 37.328 0.2 7.71 5.42 13.25
1/27/2021 4:00:00 AM 2.95 37.31 0.198 7.7 5.25 13.25
1/27/2021 4:15:00 AM 2.95 37.31 0.196 7.69 5.76 13.23
1/27/2021 4:30:00 AM 2.95 37.31 0.203 7.69 5.52 13.24
1/27/2021 4:45:00 AM 2.94 37.292 0.201 7.7 5.7 13.23
1/27/2021 5:00:00 AM 2.94 37.292 0.205 7.7 5.5 13.24
1/27/2021 5:15:00 AM 2.93 37.274 0.202 7.69 6.29 13.24
1/27/2021 5:30:00 AM 2.93 37.274 0.206 7.68 5.43 13.24
1/27/2021 5:45:00 AM 2.94 37.292 0.205 7.69 5.3 13.23
1/27/2021 6:00:00 AM 2.94 37.292 0.208 7.69 5.17 13.23
1/27/2021 6:15:00 AM 2.94 37.292 0.208 7.69 5.19 13.22
1/27/2021 6:30:00 AM 2.94 37.292 0.207 7.7 5.35 13.23
1/27/2021 6:45:00 AM 2.93 37.274 0.206 7.69 5.69 13.23
1/27/2021 7:00:00 AM 2.93 37.274 0.205 7.68 5.62 13.24
1/27/2021 7:15:00 AM 2.93 37.274 0.204 7.68 5.42 13.24
1/27/2021 7:30:00 AM 2.93 37.274 0.204 7.69 5.26 13.24
1/27/2021 7:45:00 AM 2.93 37.274 0.204 7.68 5.44 13.26
1/27/2021 8:00:00 AM 2.94 37.292 0.206 7.68 5.39 13.31
1/27/2021 8:15:00 AM 2.95 37.31 0.207 7.69 5.48 13.36
1/27/2021 8:30:00 AM 2.96 37.328 0.206 7.68 5.44 13.5
1/27/2021 8:45:00 AM 2.97 37.346 0.206 7.68 5.01 13.62
1/27/2021 9:00:00 AM 2.99 37.382 0.206 7.7 5.6 13.73
1/27/2021 9:15:00 AM 3.01 37.418 0.206 7.71 5.14 13.85
1/27/2021 9:30:00 AM 3.04 37.472 0.205 7.71 5.25 14.04
1/27/2021 9:45:00 AM 3.08 37.544 0.205 7.72 6.43 14.24
1/27/2021 10:00:00 AM 3.11 37.598 0.206 7.75 5.99 14.35
1/27/2021 10:15:00 AM 3.15 37.67 0.206 7.76 5.43 14.46
1/27/2021 10:30:00 AM 3.19 37.742 0.207 7.75 5.39 14.6
1/27/2021 10:45:00 AM 3.25 37.85 0.208 7.8 5.24 14.7
1/27/2021 11:00:00 AM 3.32 37.976 0.207 7.84 5.71 14.82
1/27/2021 11:15:00 AM 3.42 38.156 0.207 7.88 5.63 14.96
1/27/2021 11:30:00 AM 3.47 38.246 0.207 7.91 5.92 14.98
1/27/2021 11:45:00 AM 3.48 38.264 0.208 7.92 5.44 14.98
1/27/2021 12:00:00 PM 3.51 38.318 0.206 7.94 6.35 15.02
1/27/2021 12:15:00 PM 3.53 38.354 0.207 7.96 5.86 15.03
1/27/2021 12:30:00 PM 3.54 38.372 0.207 7.98 5.59 15.03
1/27/2021 12:45:00 PM 3.59 38.462 0.207 7.99 5.28 15.1
1/27/2021 1:00:00 PM 3.62 38.516 0.208 8.02 5.18 15.1
1/27/2021 1:15:00 PM 3.64 38.552 0.209 8.03 5.09 15.09
1/27/2021 1:30:00 PM 3.66 38.588 0.207 8.05 5.09 15.13
1/27/2021 1:45:00 PM 3.75 38.75 0.207 8.07 5.46 15.14
1/27/2021 2:00:00 PM 3.79 38.822 0.206 8.09 5.3 15.19
1/27/2021 2:15:00 PM 3.84 38.912 0.206 8.1 5.26 15.26
1/27/2021 2:30:00 PM 3.87 38.966 0.205 8.11 5.52 15.26
1/27/2021 2:45:00 PM 3.89 39.002 0.205 8.13 5.9 15.24
1/27/2021 3:00:00 PM 3.87 38.966 0.205 8.13 5.5 15.19
1/27/2021 3:15:00 PM 3.86 38.948 0.206 8.12 5.52 15.11
1/27/2021 3:30:00 PM 3.86 38.948 0.206 8.13 5.47 15.09
1/27/2021 3:45:00 PM 3.86 38.948 0.207 8.13 5.14 15.01
1/27/2021 4:00:00 PM 3.84 38.912 0.207 8.13 5.35 14.94
1/27/2021 4:15:00 PM 3.82 38.876 0.207 8.12 5.39 14.84
1/27/2021 4:30:00 PM 3.79 38.822 0.206 8.12 5.9 14.72
1/27/2021 4:45:00 PM 3.75 38.75 0.206 8.11 5.59 14.58
1/27/2021 5:00:00 PM 3.71 38.678 0.206 8.09 5.51 14.42
1/27/2021 5:15:00 PM 3.68 38.624 0.206 8.06 5.49 14.23
1/27/2021 5:30:00 PM 3.64 38.552 0.207 8.04 5.47 14.07
1/27/2021 5:45:00 PM 3.62 38.516 0.207 8.02 8.33 13.9
1/27/2021 6:00:00 PM 3.6 38.48 0.205 8 5.63 13.79
1/27/2021 6:15:00 PM 3.58 38.444 0.208 7.97 5.36 13.69
1/27/2021 6:30:00 PM 3.56 38.408 0.212 7.95 6.03 13.61
1/27/2021 6:45:00 PM 3.55 38.39 0.208 7.94 5.58 13.51
1/27/2021 7:00:00 PM 3.53 38.354 0.204 7.92 8 13.47
1/27/2021 7:15:00 PM 3.52 38.336 0.206 7.9 5.5 13.41
1/27/2021 7:30:00 PM 3.5 38.3 0.208 7.89 5.24 13.39
1/27/2021 7:45:00 PM 3.5 38.3 0.206 7.87 5.55 13.34
1/27/2021 8:00:00 PM 3.49 38.282 0.205 7.85 5.81 13.32
1/27/2021 8:15:00 PM 3.48 38.264 0.205 7.83 5.33 13.31
1/27/2021 8:30:00 PM 3.47 38.246 0.21 7.81 5.45 13.28
1/27/2021 8:45:00 PM 3.46 38.228 0.21 7.81 5.52 13.29
1/27/2021 9:00:00 PM 3.43 38.174 0.206 7.8 5.58 13.29
1/27/2021 9:15:00 PM 3.41 38.138 0.206 7.79 5.11 13.28
1/27/2021 9:30:00 PM 3.39 38.102 0.203 7.79 5.9 13.29
1/27/2021 9:45:00 PM 3.37 38.066 0.197 7.78 5.25 13.28
1/27/2021 10:00:00 PM 3.35 38.03 0.198 7.78 5.68 13.29
1/27/2021 10:15:00 PM 3.35 38.03 0.198 7.78 5.25 13.29
1/27/2021 10:30:00 PM 3.34 38.012 0.202 7.77 5.54 13.28
1/27/2021 10:45:00 PM 3.33 37.994 0.198 7.76 6.05 13.27
1/27/2021 11:00:00 PM 3.32 37.976 0.187 7.75 5.64 13.28
1/27/2021 11:15:00 PM 3.31 37.958 0.192 7.76 5.62 13.25
1/27/2021 11:30:00 PM 3.3 37.94 0.191 7.75 6.78 13.28
1/27/2021 11:45:00 PM 3.28 37.904 0.19 7.75 5.78 13.27
1/28/2021 12:00:00 AM 3.25 37.85 0.191 7.75 5.73 13.27
1/28/2021 12:15:00 AM 3.23 37.814 0.203 7.74 5.58 13.29
1/28/2021 12:30:00 AM 3.21 37.778 0.206 7.75 6.08 13.28
1/28/2021 12:45:00 AM 3.19 37.742 0.206 7.75 6.68 13.28
1/28/2021 1:00:00 AM 3.18 37.724 0.207 7.74 5.49 13.28
1/28/2021 1:15:00 AM 3.15 37.67 0.207 7.75 5.55 13.28
1/28/2021 1:30:00 AM 3.12 37.616 0.199 7.74 5.91 13.29
1/28/2021 1:45:00 AM 3.1 37.58 0.209 7.73 5.45 13.29
1/28/2021 2:00:00 AM 3.07 37.526 0.199 7.72 5.97 13.29
1/28/2021 2:15:00 AM 3.04 37.472 0.203 7.73 6.39 13.26
1/28/2021 2:30:00 AM 3.01 37.418 0.193 7.72 6.47 13.3
1/28/2021 2:45:00 AM 2.97 37.346 0.193 7.72 6.37 13.3
1/28/2021 3:00:00 AM 2.94 37.292 0.196 7.72 5.77 13.29
1/28/2021 3:15:00 AM 2.92 37.256 0.195 7.72 5.92 13.27
1/28/2021 3:30:00 AM 2.9 37.22 0.193 7.72 5.77 13.28
1/28/2021 3:45:00 AM 2.89 37.202 0.208 7.72 7.25 13.28
1/28/2021 4:00:00 AM 2.88 37.184 0.205 7.71 6.63 13.27
1/28/2021 4:15:00 AM 2.86 37.148 0.204 7.72 6.44 13.27
1/28/2021 4:30:00 AM 2.84 37.112 0.203 7.71 5.94 13.27
1/28/2021 4:45:00 AM 2.82 37.076 0.203 7.72 5.9 13.27
1/28/2021 5:00:00 AM 2.8 37.04 0.203 7.72 6.2 13.28
1/28/2021 5:15:00 AM 2.77 36.986 0.203 7.7 6.4 13.25
1/28/2021 5:30:00 AM 2.75 36.95 0.203 7.69 6.64 13.27
1/28/2021 5:45:00 AM 2.72 36.896 0.204 7.7 5.67 13.28
1/28/2021 6:00:00 AM 2.7 36.86 0.205 7.69 6.1 13.27
1/28/2021 6:15:00 AM 2.68 36.824 0.205 7.69 6.19 13.29
1/28/2021 6:30:00 AM 2.64 36.752 0.204 7.68 6.16 13.3
1/28/2021 6:45:00 AM 2.6 36.68 0.202 7.68 6.91 13.3
1/28/2021 7:00:00 AM 2.54 36.572 0.198 7.68 5.97 13.33
1/28/2021 7:15:00 AM 2.49 36.482 0.2 7.68 5.82 13.33
1/28/2021 7:30:00 AM 2.45 36.41 0.199 7.68 6.04 13.37
1/28/2021 7:45:00 AM 2.43 36.374 0.198 7.67 5.99 13.44
1/28/2021 8:00:00 AM 2.4 36.32 0.198 7.67 5.94 13.53
1/28/2021 8:15:00 AM 2.37 36.266 0.199 7.67 6.43 13.66
1/28/2021 8:30:00 AM 2.35 36.23 0.2 7.68 6 13.79
1/28/2021 8:45:00 AM 2.31 36.158 0.198 7.69 5.68 13.97
1/28/2021 9:00:00 AM 2.29 36.122 0.196 7.69 5.52 14.16
1/28/2021 9:15:00 AM 2.29 36.122 0.197 7.71 6.06 14.31
1/28/2021 9:30:00 AM 2.28 36.104 0.195 7.72 6.7 14.46
1/28/2021 9:45:00 AM 2.29 36.122 0.196 7.76 6.2 14.63
1/28/2021 10:00:00 AM 2.34 36.212 0.195 7.78 5.91 14.81
1/28/2021 10:15:00 AM 2.39 36.302 0.196 7.82 5.74 14.95
1/28/2021 10:30:00 AM 2.46 36.428 0.197 7.84 5.61 15.07
1/28/2021 10:45:00 AM 2.52 36.536 0.198 7.87 5.69 15.18
1/28/2021 11:00:00 AM 2.6 36.68 0.199 7.91 5.65 15.22
1/28/2021 11:15:00 AM 2.67 36.806 0.198 7.88 6.42 15.27
1/28/2021 11:30:00 AM 2.73 36.914 0.199 7.95 5.49 15.3
1/28/2021 11:45:00 AM 2.81 37.058 0.198 7.98 6.14 15.35
1/28/2021 12:00:00 PM 2.89 37.202 0.197 7.99 6.38 15.38
1/28/2021 12:15:00 PM 2.97 37.346 0.198 8.02 5.68 15.41
1/28/2021 12:30:00 PM 3.04 37.472 0.197 8.02 6.39 15.41
1/28/2021 12:45:00 PM 3.1 37.58 0.197 8.02 5.87 15.44
1/28/2021 1:00:00 PM 3.14 37.652 0.199 8.04 6.16 15.44
1/28/2021 1:15:00 PM 3.19 37.742 0.198 8.05 6 15.43
1/28/2021 1:30:00 PM 3.23 37.814 0.198 8.05 5.75 15.44
1/28/2021 1:45:00 PM 3.25 37.85 0.198 8.07 5.71 15.42
1/28/2021 2:00:00 PM 3.27 37.886 0.198 8.07 6.11 15.43
1/28/2021 2:15:00 PM 3.26 37.868 0.198 8.07 5.97 15.39
1/28/2021 2:30:00 PM 3.26 37.868 0.197 8.08 6.29 15.38
1/28/2021 2:45:00 PM 3.24 37.832 0.197 8.08 6.49 15.32
1/28/2021 3:00:00 PM 3.22 37.796 0.198 7.93 6.01 15.3
1/28/2021 3:15:00 PM 3.2 37.76 0.2 8.07 5.79 15.23
1/28/2021 3:30:00 PM 3.15 37.67 0.201 8.07 5.82 15.21
1/28/2021 3:45:00 PM 3.09 37.562 0.201 8.08 6.28 15.17
1/28/2021 4:00:00 PM 3.02 37.436 0.202 8.06 6.01 15.09
1/28/2021 4:15:00 PM 2.94 37.292 0.201 8.05 5.63 15.02
1/28/2021 4:30:00 PM 2.86 37.148 0.202 8.05 6.35 14.94
1/28/2021 4:45:00 PM 2.79 37.022 0.202 8.04 5.69 14.84
1/28/2021 5:00:00 PM 2.72 36.896 0.203 8.04 6.2 14.75
1/28/2021 5:15:00 PM 2.66 36.788 0.202 8.01 8.56 14.61
1/28/2021 5:30:00 PM 2.59 36.662 0.202 8 7.66 14.5
1/28/2021 5:45:00 PM 2.53 36.554 0.203 7.98 7.75 14.4
1/28/2021 6:00:00 PM 2.46 36.428 0.203 7.96 6.03 14.32
1/28/2021 6:15:00 PM 2.39 36.302 0.204 7.95 6.02 14.25
1/28/2021 6:30:00 PM 2.34 36.212 0.204 7.93 5.83 14.2
1/28/2021 6:45:00 PM 2.27 36.086 0.203 7.91 5.88 14.14
1/28/2021 7:00:00 PM 2.21 35.978 0.203 7.89 6.21 14.11
1/28/2021 7:15:00 PM 2.13 35.834 0.203 7.87 6.09 14.08
1/28/2021 7:30:00 PM 2.08 35.744 0.203 7.83 5.44 14.06
1/28/2021 7:45:00 PM 2 35.6 0.202 7.82 6.34 14.02
1/28/2021 8:00:00 PM 1.93 35.474 0.203 7.82 6.88 14.02
1/28/2021 8:15:00 PM 1.86 35.348 0.203 7.8 5.55 14.03
1/28/2021 8:30:00 PM 1.79 35.222 0.204 7.8 6.12 14.01
1/28/2021 8:45:00 PM 1.76 35.168 0.205 7.8 6.62 14.02
1/28/2021 9:00:00 PM 1.72 35.096 0.198 7.79 6.17 14.01
1/28/2021 9:15:00 PM 1.68 35.024 0.201 7.78 6.69 14
1/28/2021 9:30:00 PM 1.64 34.952 0.204 7.78 5.92 14
1/28/2021 9:45:00 PM 1.63 34.934 0.204 7.78 6.4 14.01
1/28/2021 10:00:00 PM 1.63 34.934 0.204 7.75 6.1 13.98
1/28/2021 10:15:00 PM 1.63 34.934 0.206 7.76 6.58 13.97
1/28/2021 10:30:00 PM 1.64 34.952 0.206 7.75 5.71 13.97
1/28/2021 10:45:00 PM 1.64 34.952 0.207 7.74 6.11 13.96
1/28/2021 11:00:00 PM 1.63 34.934 0.207 7.75 6.67 13.96
1/28/2021 11:15:00 PM 1.61 34.898 0.208 7.74 5.89 13.96
1/28/2021 11:30:00 PM 1.63 34.934 0.207 7.74 6.66 13.94
1/28/2021 11:45:00 PM 1.63 34.934 0.207 7.74 6.04 13.94
1/29/2021 12:00:00 AM 1.64 34.952 0.206 7.73 6.28 13.93
1/29/2021 12:15:00 AM 1.62 34.916 0.206 7.71 5.59 13.94
1/29/2021 12:30:00 AM 1.6 34.88 0.206 7.71 5.61 13.92
1/29/2021 12:45:00 AM 1.58 34.844 0.206 7.72 6.39 13.93
1/29/2021 1:00:00 AM 1.54 34.772 0.206 7.72 6.02 13.94
1/29/2021 1:15:00 AM 1.51 34.718 0.208 7.71 6.23 13.94
1/29/2021 1:30:00 AM 1.46 34.628 0.208 7.69 6.59 13.95
1/29/2021 1:45:00 AM 1.44 34.592 0.209 7.7 5.39 13.96
1/29/2021 2:00:00 AM 1.41 34.538 0.211 7.7 5.92 13.98
1/29/2021 2:15:00 AM 1.37 34.466 0.209 7.7 5.91 13.98
1/29/2021 2:30:00 AM 1.34 34.412 0.208 7.69 5.41 13.99
1/29/2021 2:45:00 AM 1.32 34.376 0.209 7.68 6.07 14
1/29/2021 3:00:00 AM 1.28 34.304 0.208 7.69 5.7 14
1/29/2021 3:15:00 AM 1.25 34.25 0.209 7.68 6.56 14.01
1/29/2021 3:30:00 AM 1.22 34.196 0.21 7.68 5.76 14.01
1/29/2021 3:45:00 AM 1.18 34.124 0.21 7.68 6.08 14.03
1/29/2021 4:00:00 AM 1.12 34.016 0.21 7.68 5.97 14.03
1/29/2021 4:15:00 AM 1.11 33.998 0.21 7.67 6.33 14.06
1/29/2021 4:30:00 AM 1.09 33.962 0.212 7.67 6.66 14.05
1/29/2021 4:45:00 AM 1.04 33.872 0.216 7.66 5.36 14.07
1/29/2021 5:00:00 AM 1.02 33.836 0.222 7.65 5.58 14.05
1/29/2021 5:15:00 AM 1 33.8 0.221 7.64 5.85 14.07
1/29/2021 5:30:00 AM 0.99 33.782 0.219 7.63 5.49 14.09
1/29/2021 5:45:00 AM 0.93 33.674 0.219 7.64 5.9 14.11
1/29/2021 6:00:00 AM 0.88 33.584 0.219 7.63 5.72 14.13
1/29/2021 6:15:00 AM 0.82 33.476 0.22 7.64 5.97 14.15
1/29/2021 6:30:00 AM 0.8 33.44 0.213 7.63 5.7 14.15
1/29/2021 6:45:00 AM 0.78 33.404 0.213 7.63 6.24 14.16
1/29/2021 7:00:00 AM 0.78 33.404 0.213 7.61 5.7 14.16
1/29/2021 7:15:00 AM 0.77 33.386 0.213 7.62 5.89 14.19
1/29/2021 7:30:00 AM 0.76 33.368 0.213 7.63 7.25 14.21
1/29/2021 7:45:00 AM 0.78 33.404 0.213 7.63 5.59 14.26
1/29/2021 8:00:00 AM 0.77 33.386 0.212 7.63 6.32 14.4
1/29/2021 8:15:00 AM 0.8 33.44 0.213 7.61 6.29 14.51
1/29/2021 8:30:00 AM 0.79 33.422 0.215 7.61 5.77 14.66
1/29/2021 8:45:00 AM 0.78 33.404 0.216 7.63 6.4 14.82
1/29/2021 9:00:00 AM 0.83 33.494 0.216 7.66 8.77 14.98
1/29/2021 9:15:00 AM 0.84 33.512 0.214 7.67 7.82 15.18
1/29/2021 9:30:00 AM 0.92 33.656 0.215 7.67 6.65 15.37
1/29/2021 9:45:00 AM 0.97 33.746 0.214 7.7 6.37 15.51
1/29/2021 10:00:00 AM 1.04 33.872 0.214 7.72 6.49 15.64
1/29/2021 10:15:00 AM 1.12 34.016 0.216 7.75 8.01 15.72
1/29/2021 10:30:00 AM 1.15 34.07 0.216 7.78 6.36 15.84
1/29/2021 10:45:00 AM 1.19 34.142 0.217 7.82 6.23 15.92
1/29/2021 11:00:00 AM 1.22 34.196 0.224 7.81 6.77 15.96
1/29/2021 11:15:00 AM 1.27 34.286 0.225 7.86 6.24 16.02
1/29/2021 11:30:00 AM 1.36 34.448 0.225 7.88 7.05 16.06
1/29/2021 11:45:00 AM 1.41 34.538 0.224 7.89 5.87 16.12
1/29/2021 12:00:00 PM 1.47 34.646 0.223 7.91 6.05 16.14
1/29/2021 12:15:00 PM 1.5 34.7 0.222 7.93 6.73 16.16
1/29/2021 12:30:00 PM 1.52 34.736 0.222 7.93 6.78 16.17
1/29/2021 12:45:00 PM 1.52 34.736 0.222 7.94 7.26 16.17
1/29/2021 1:00:00 PM 1.52 34.736 0.223 7.96 6.49 16.19
1/29/2021 1:15:00 PM 1.55 34.79 0.224 7.98 19.52 16.22
1/29/2021 1:30:00 PM 1.56 34.808 0.224 7.99 6.13 16.24
1/29/2021 1:45:00 PM 1.6 34.88 0.224 8 6.35 16.21
1/29/2021 2:00:00 PM 1.71 35.078 0.219 8.01 5.83 16.28
1/29/2021 2:15:00 PM 1.83 35.294 0.217 8.03 6.49 16.29
1/29/2021 2:30:00 PM 1.87 35.366 0.221 8.03 5.85 16.2
1/29/2021 2:45:00 PM 1.81 35.258 0.22 8.04 6.25 16.22
1/29/2021 3:00:00 PM 1.87 35.366 0.22 8.05 6.29 16.16
1/29/2021 3:15:00 PM 1.86 35.348 0.22 8.04 6.07 16.11
1/29/2021 3:30:00 PM 1.83 35.294 0.221 8.05 6.83 16.04
1/29/2021 3:45:00 PM 1.79 35.222 0.222 8.05 7.17 16
1/29/2021 4:00:00 PM 1.8 35.24 0.221 8.04 6.61 15.97
1/29/2021 4:15:00 PM 1.74 35.132 0.223 8.05 6.02 15.89
1/29/2021 4:30:00 PM 1.71 35.078 0.224 8.04 6.67 15.79
1/29/2021 4:45:00 PM 1.63 34.934 0.222 8.03 6.41 15.71
1/29/2021 5:00:00 PM 1.62 34.916 0.221 8.01 6.58 15.55
1/29/2021 5:15:00 PM 1.59 34.862 0.221 8.01 5.73 15.4
1/29/2021 5:30:00 PM 1.54 34.772 0.221 7.99 5.83 15.23
1/29/2021 5:45:00 PM 1.49 34.682 0.224 7.96 5.5 15.08
1/29/2021 6:00:00 PM 1.43 34.574 0.229 7.95 5.52 14.95
1/29/2021 6:15:00 PM 1.39 34.502 0.229 7.92 5.96 14.88
1/29/2021 6:30:00 PM 1.36 34.448 0.234 7.91 6.09 14.8
1/29/2021 6:45:00 PM 1.33 34.394 0.234 7.89 5.56 14.73
1/29/2021 7:00:00 PM 1.26 34.268 0.233 7.87 6.13 14.69
1/29/2021 7:15:00 PM 1.23 34.214 0.233 7.85 5.79 14.66
1/29/2021 7:30:00 PM 1.17 34.106 0.231 7.82 6.48 14.61
1/29/2021 7:45:00 PM 1.15 34.07 0.228 7.81 5.86 14.57
1/29/2021 8:00:00 PM 1.11 33.998 0.226 7.81 5.85 14.58
1/29/2021 8:15:00 PM 1.07 33.926 0.224 7.78 5.64 14.55
1/29/2021 8:30:00 PM 1.05 33.89 0.228 7.78 6.37 14.54
1/29/2021 8:45:00 PM 1.02 33.836 0.226 7.74 5.98 14.53
1/29/2021 9:00:00 PM 1.01 33.818 0.225 7.74 5.93 14.51
1/29/2021 9:15:00 PM 1.03 33.854 0.225 7.71 6.11 14.5
1/29/2021 9:30:00 PM 1.03 33.854 0.225 7.71 6.07 14.48
1/29/2021 9:45:00 PM 1.04 33.872 0.224 7.71 6.23 14.47
1/29/2021 10:00:00 PM 1.06 33.908 0.224 7.7 5.8 14.45
1/29/2021 10:15:00 PM 1.08 33.944 0.224 7.71 6.13 14.42
1/29/2021 10:30:00 PM 1.1 33.98 0.222 7.72 5.93 14.4
1/29/2021 10:45:00 PM 1.1 33.98 0.223 7.72 5.67 14.37
1/29/2021 11:00:00 PM 1.1 33.98 0.225 7.7 5.46 14.35
1/29/2021 11:15:00 PM 1.14 34.052 0.223 7.71 6.45 14.35
1/29/2021 11:30:00 PM 1.11 33.998 0.223 7.71 6.08 14.33
1/29/2021 11:45:00 PM 1.1 33.98 0.222 7.71 5.93 14.32
1/30/2021 12:00:00 AM 1.09 33.962 0.229 7.71 5.45 14.33
1/30/2021 12:15:00 AM 1.1 33.98 0.221 7.7 5.66 14.31
1/30/2021 12:30:00 AM 1.1 33.98 0.212 7.7 6.2 14.3
1/30/2021 12:45:00 AM 1.11 33.998 0.214 7.7 6.33 14.3
1/30/2021 1:00:00 AM 1.12 34.016 0.217 7.69 6.22 14.28
1/30/2021 1:15:00 AM 1.09 33.962 0.218 7.7 6.64 14.3
1/30/2021 1:30:00 AM 1.07 33.926 0.217 7.71 6.28 14.3
1/30/2021 1:45:00 AM 1.08 33.944 0.216 7.69 5.74 14.3
1/30/2021 2:00:00 AM 1.05 33.89 0.214 7.69 5.56 14.29
1/30/2021 2:15:00 AM 1.07 33.926 0.215 7.7 6.28 14.3
1/30/2021 2:30:00 AM 1.06 33.908 0.215 7.69 6.21 14.28
1/30/2021 2:45:00 AM 1.04 33.872 0.216 7.7 18.24 14.28
1/30/2021 3:00:00 AM 1.06 33.908 0.216 7.69 5.76 14.29
1/30/2021 3:15:00 AM 1.05 33.89 0.216 7.69 6.45 14.28
1/30/2021 3:30:00 AM 1.02 33.836 0.22 7.69 6.33 14.28
1/30/2021 3:45:00 AM 1 33.8 0.215 7.69 5.74 14.28
1/30/2021 4:00:00 AM 0.96 33.728 0.215 7.65 5.97 14.27
1/30/2021 4:15:00 AM 0.97 33.746 0.216 7.65 6.21 14.25
1/30/2021 4:30:00 AM 0.92 33.656 0.215 7.65 5.85 14.27
1/30/2021 4:45:00 AM 0.88 33.584 0.215 7.64 5.98 14.28
1/30/2021 5:00:00 AM 0.87 33.566 0.214 7.66 6.46 14.28
1/30/2021 5:15:00 AM 0.88 33.584 0.216 7.65 6.05 14.29
1/30/2021 5:30:00 AM 0.89 33.602 0.217 7.66 5.91 14.28
1/30/2021 5:45:00 AM 0.87 33.566 0.219 7.65 5.79 14.27
1/30/2021 6:00:00 AM 0.85 33.53 0.219 7.65 6.94 14.27
1/30/2021 6:15:00 AM 0.83 33.494 0.22 7.66 5.97 14.28
1/30/2021 6:30:00 AM 0.82 33.476 0.219 7.66 5.93 14.26
1/30/2021 6:45:00 AM 0.79 33.422 0.222 7.65 6.13 14.25
1/30/2021 7:00:00 AM 0.78 33.404 0.219 7.66 5.71 14.25
1/30/2021 7:15:00 AM 0.78 33.404 0.218 7.67 5.98 14.26
1/30/2021 7:30:00 AM 0.77 33.386 0.225 7.66 6 14.28
1/30/2021 7:45:00 AM 0.78 33.404 0.22 7.66 6.18 14.35
1/30/2021 8:00:00 AM 0.78 33.404 0.221 7.66 6.15 14.47
1/30/2021 8:15:00 AM 0.78 33.404 0.221 7.66 5.38 14.62
1/30/2021 8:30:00 AM 0.77 33.386 0.222 7.65 6.31 14.75
1/30/2021 8:45:00 AM 0.8 33.44 0.221 7.66 6.28 14.93
1/30/2021 9:00:00 AM 0.85 33.53 0.219 7.66 6.61 15.08
1/30/2021 9:15:00 AM 0.85 33.53 0.219 7.68 6.19 15.28
1/30/2021 9:30:00 AM 0.92 33.656 0.219 7.7 6.38 15.44
1/30/2021 9:45:00 AM 1 33.8 0.218 7.73 6.22 15.56
1/30/2021 10:00:00 AM 1.05 33.89 0.218 7.75 6.38 15.67
1/30/2021 10:15:00 AM 1.09 33.962 0.218 7.76 6.56 15.77
1/30/2021 10:30:00 AM 1.14 34.052 0.219 7.79 5.95 15.82
1/30/2021 10:45:00 AM 1.26 34.268 0.219 7.8 6.47 15.91
1/30/2021 11:00:00 AM 1.25 34.25 0.222 7.81 5.73 15.98
1/30/2021 11:15:00 AM 1.28 34.304 0.22 7.83 6.05 16.03
1/30/2021 11:30:00 AM 1.31 34.358 0.217 7.84 6.44 16.04
1/30/2021 11:45:00 AM 1.35 34.43 0.219 7.86 6.1 16.07
1/30/2021 12:00:00 PM 1.43 34.574 0.217 7.87 6.86 16.1
1/30/2021 12:15:00 PM 1.51 34.718 0.215 7.88 6 16.11
1/30/2021 12:30:00 PM 1.61 34.898 0.211 7.91 5.88 16.09
1/30/2021 12:45:00 PM 1.74 35.132 0.208 7.92 6.6 16.1
1/30/2021 1:00:00 PM 1.75 35.15 0.208 7.93 6.28 16.11
1/30/2021 1:15:00 PM 1.83 35.294 0.21 7.93 8.22 16.1
1/30/2021 1:30:00 PM 1.85 35.33 0.21 7.93 6.59 16.07
1/30/2021 1:45:00 PM 1.92 35.456 0.21 7.94 6.16 16.07
1/30/2021 2:00:00 PM 1.95 35.51 0.21 7.95 6.81 16.05
1/30/2021 2:15:00 PM 1.98 35.564 0.21 7.96 7.32 16.04
1/30/2021 2:30:00 PM 2.02 35.636 0.208 7.96 9.12 16.01
1/30/2021 2:45:00 PM 2.05 35.69 0.21 7.96 6.18 15.93
1/30/2021 3:00:00 PM 2.03 35.654 0.21 7.96 6.45 15.91
1/30/2021 3:15:00 PM 2 35.6 0.211 7.95 6.24 15.85
1/30/2021 3:30:00 PM 2 35.6 0.216 7.96 6.33 15.78
1/30/2021 3:45:00 PM 1.98 35.564 0.215 7.95 6.18 15.71
1/30/2021 4:00:00 PM 1.96 35.528 0.213 7.95 6.43 15.64
1/30/2021 4:15:00 PM 1.9 35.42 0.213 7.93 5.81 15.57
1/30/2021 4:30:00 PM 1.85 35.33 0.214 7.93 6.55 15.46
1/30/2021 4:45:00 PM 1.81 35.258 0.214 7.89 6.9 15.36
1/30/2021 5:00:00 PM 1.77 35.186 0.213 7.89 7.1 15.23
1/30/2021 5:15:00 PM 1.75 35.15 0.212 7.87 7 15.11
1/30/2021 5:30:00 PM 1.73 35.114 0.211 7.84 7.6 14.98
1/30/2021 5:45:00 PM 1.69 35.042 0.214 7.83 6.41 14.85
1/30/2021 6:00:00 PM 1.64 34.952 0.208 7.82 5.62 14.77
1/30/2021 6:15:00 PM 1.61 34.898 0.205 7.81 5.99 14.66
1/30/2021 6:30:00 PM 1.54 34.772 0.201 7.78 5.68 14.64
1/30/2021 6:45:00 PM 1.48 34.664 0.201 7.77 5.68 14.6
1/30/2021 7:00:00 PM 1.43 34.574 0.201 7.75 5.7 14.57
1/30/2021 7:15:00 PM 1.38 34.484 0.202 7.74 5.38 14.51
1/30/2021 7:30:00 PM 1.32 34.376 0.202 7.72 5.58 14.49
1/30/2021 7:45:00 PM 1.27 34.286 0.206 7.72 5.85 14.49
1/30/2021 8:00:00 PM 1.23 34.214 0.228 7.71 6.11 14.47
1/30/2021 8:15:00 PM 1.19 34.142 0.23 7.7 6.84 14.43
1/30/2021 8:30:00 PM 1.13 34.034 0.23 7.7 5.56 14.46
1/30/2021 8:45:00 PM 1.1 33.98 0.23 7.7 5.56 14.45
1/30/2021 9:00:00 PM 1.07 33.926 0.23 7.68 5.94 14.44
1/30/2021 9:15:00 PM 1.05 33.89 0.231 7.68 6 14.45
1/30/2021 9:30:00 PM 1.02 33.836 0.231 7.68 6.49 14.44
1/30/2021 9:45:00 PM 0.99 33.782 0.23 7.69 6.09 14.42
1/30/2021 10:00:00 PM 0.98 33.764 0.23 7.68 8.36 14.41
1/30/2021 10:15:00 PM 1 33.8 0.232 7.67 5.46 14.42
1/30/2021 10:30:00 PM 0.99 33.782 0.232 7.67 6.53 14.41
1/30/2021 10:45:00 PM 1.01 33.818 0.231 7.67 6.12 14.39
1/30/2021 11:00:00 PM 1.02 33.836 0.232 7.67 6.16 14.38
1/30/2021 11:15:00 PM 1.06 33.908 0.232 7.66 5.9 14.37
1/30/2021 11:30:00 PM 1.05 33.89 0.232 7.66 6.95 14.36
1/30/2021 11:45:00 PM 1.09 33.962 0.231 7.65 5.85 14.33
1/31/2021 12:00:00 AM 1.12 34.016 0.231 7.65 5.65 14.34
1/31/2021 12:15:00 AM 1.11 33.998 0.23 7.66 5.21 14.3
1/31/2021 12:30:00 AM 1.12 34.016 0.23 7.64 5.61 14.32
1/31/2021 12:45:00 AM 1.14 34.052 0.23 7.65 5.78 14.3
1/31/2021 1:00:00 AM 1.18 34.124 0.231 7.63 5.9 14.28
1/31/2021 1:15:00 AM 1.16 34.088 0.231 7.64 5.94 14.27
1/31/2021 1:30:00 AM 1.17 34.106 0.23 7.64 6.05 14.28
1/31/2021 1:45:00 AM 1.17 34.106 0.231 7.63 5.63 14.25
1/31/2021 2:00:00 AM 1.16 34.088 0.227 7.63 5.78 14.26
1/31/2021 2:15:00 AM 1.16 34.088 0.229 7.63 5.71 14.26
1/31/2021 2:30:00 AM 1.17 34.106 0.228 7.63 6.22 14.25
1/31/2021 2:45:00 AM 1.19 34.142 0.223 7.62 6.08 14.25
1/31/2021 3:00:00 AM 1.2 34.16 0.215 7.61 6.28 14.24
1/31/2021 3:15:00 AM 1.22 34.196 0.222 7.62 6.1 14.21
1/31/2021 3:30:00 AM 1.19 34.142 0.222 7.62 7.41 14.23
1/31/2021 3:45:00 AM 1.2 34.16 0.223 7.62 6.22 14.2
1/31/2021 4:00:00 AM 1.2 34.16 0.222 7.62 5.91 14.21
1/31/2021 4:15:00 AM 1.2 34.16 0.224 7.61 6.24 14.18
1/31/2021 4:30:00 AM 1.2 34.16 0.225 7.61 6.17 14.19
1/31/2021 4:45:00 AM 1.17 34.106 0.231 7.63 5.73 14.19
1/31/2021 5:00:00 AM 1.21 34.178 0.23 7.62 5.91 14.19
1/31/2021 5:15:00 AM 1.21 34.178 0.229 7.6 5.8 14.17
1/31/2021 5:30:00 AM 1.25 34.25 0.229 7.61 6.05 14.15
1/31/2021 5:45:00 AM 1.21 34.178 0.23 7.61 6.07 14.17
1/31/2021 6:00:00 AM 1.21 34.178 0.231 7.61 5.91 14.14
1/31/2021 6:15:00 AM 1.24 34.232 0.231 7.6 5.92 14.13
1/31/2021 6:30:00 AM 1.22 34.196 0.231 7.6 5.87 14.14
1/31/2021 6:45:00 AM 1.21 34.178 0.229 7.61 6.17 14.12
1/31/2021 7:00:00 AM 1.2 34.16 0.228 7.59 5.6 14.15
1/31/2021 7:15:00 AM 1.22 34.196 0.228 7.6 6.22 14.14
1/31/2021 7:30:00 AM 1.22 34.196 0.227 7.59 5.51 14.14
1/31/2021 7:45:00 AM 1.23 34.214 0.227 7.6 7.68 14.17
1/31/2021 8:00:00 AM 1.24 34.232 0.226 7.59 6.4 14.27
1/31/2021 8:15:00 AM 1.26 34.268 0.227 7.56 6.1 14.46
1/31/2021 8:30:00 AM 1.25 34.25 0.227 7.59 6.07 14.62
1/31/2021 8:45:00 AM 1.24 34.232 0.226 7.61 5.74 14.69
1/31/2021 9:00:00 AM 1.27 34.286 0.226 7.62 6.87 14.78
1/31/2021 9:15:00 AM 1.22 34.196 0.226 7.62 5.69 14.9
1/31/2021 9:30:00 AM 1.23 34.214 0.225 7.63 6.1 15.01
1/31/2021 9:45:00 AM 1.2 34.16 0.225 7.65 5.69 15.07
1/31/2021 10:00:00 AM 1.13 34.034 0.225 7.65 6.88 15.16
1/31/2021 10:15:00 AM 1.05 33.89 0.223 7.66 7.24 15.24
1/31/2021 10:30:00 AM 1.07 33.926 0.223 7.66 6.36 15.34
1/31/2021 10:45:00 AM 1.09 33.962 0.223 7.69 5.9 15.43
1/31/2021 11:00:00 AM 1.07 33.926 0.224 7.7 6.07 15.54
1/31/2021 11:15:00 AM 1.11 33.998 0.224 7.71 6.26 15.59
1/31/2021 11:30:00 AM 1.15 34.07 0.223 7.72 6.14 15.64
1/31/2021 11:45:00 AM 1.18 34.124 0.223 7.7 6.77 15.69
1/31/2021 12:00:00 PM 1.2 34.16 0.223 7.74 7.37 15.68
1/31/2021 12:15:00 PM 1.22 34.196 0.223 7.77 6.33 15.66
1/31/2021 12:30:00 PM 1.22 34.196 0.222 7.77 6.38 15.68
1/31/2021 12:45:00 PM 1.27 34.286 0.222 7.79 6.13 15.7
1/31/2021 1:00:00 PM 1.27 34.286 0.222 7.77 7.12 15.72
1/31/2021 1:15:00 PM 1.24 34.232 0.222 7.81 7.82 15.74
1/31/2021 1:30:00 PM 1.23 34.214 0.222 7.81 6.23 15.76
1/31/2021 1:45:00 PM 1.22 34.196 0.222 7.82 8.15 15.74
1/31/2021 2:00:00 PM 1.14 34.052 0.225 7.83 6.25 15.76
1/31/2021 2:15:00 PM 1.04 33.872 0.223 7.84 6.11 15.74
1/31/2021 2:30:00 PM 0.87 33.566 0.223 7.84 6.1 15.66
1/31/2021 2:45:00 PM 0.83 33.494 0.223 7.83 7.5 15.63
1/31/2021 3:00:00 PM 0.84 33.512 0.224 7.83 6.32 15.65
1/31/2021 3:15:00 PM 0.84 33.512 0.223 7.84 6.32 15.69
1/31/2021 3:30:00 PM 0.88 33.584 0.224 7.84 8.06 15.7
1/31/2021 3:45:00 PM 0.89 33.602 0.224 7.84 7.54 15.68
1/31/2021 4:00:00 PM 0.87 33.566 0.224 7.85 6.44 15.63
1/31/2021 4:15:00 PM 0.87 33.566 0.224 7.84 6.13 15.56
1/31/2021 4:30:00 PM 0.88 33.584 0.223 7.84 6.55 15.47
1/31/2021 4:45:00 PM 0.88 33.584 0.224 7.84 6.09 15.36
1/31/2021 5:00:00 PM 0.86 33.548 0.223 7.82 6.69 15.22
1/31/2021 5:15:00 PM 0.89 33.602 0.224 7.8 6.75 15.07
1/31/2021 5:30:00 PM 0.88 33.584 0.223 7.79 7.2 14.94
1/31/2021 5:45:00 PM 0.83 33.494 0.225 7.76 6.57 14.88
1/31/2021 6:00:00 PM 0.83 33.494 0.223 7.75 6.67 14.8
1/31/2021 6:15:00 PM 0.81 33.458 0.221 7.74 6.64 14.74
1/31/2021 6:30:00 PM 0.78 33.404 0.218 7.73 6.38 14.68
1/31/2021 6:45:00 PM 0.74 33.332 0.219 7.71 6.69 14.65
1/31/2021 7:00:00 PM 0.76 33.368 0.219 7.72 6.39 14.61
1/31/2021 7:15:00 PM 0.73 33.314 0.218 7.69 6.65 14.58
1/31/2021 7:30:00 PM 0.71 33.278 0.217 7.68 6.37 14.54
1/31/2021 7:45:00 PM 0.71 33.278 0.217 7.68 6.29 14.5
1/31/2021 8:00:00 PM 0.72 33.296 0.23 7.66 5.6 14.51
1/31/2021 8:15:00 PM 0.73 33.314 0.229 7.66 5.69 14.49
1/31/2021 8:30:00 PM 0.74 33.332 0.216 7.64 6.15 14.46
1/31/2021 8:45:00 PM 0.73 33.314 0.215 7.64 5.79 14.45
1/31/2021 9:00:00 PM 0.73 33.314 0.216 7.63 6 14.42
1/31/2021 9:15:00 PM 0.74 33.332 0.215 7.64 6.31 14.43
1/31/2021 9:30:00 PM 0.73 33.314 0.215 7.62 6.41 14.39
1/31/2021 9:45:00 PM 0.75 33.35 0.215 7.64 6.6 14.4
1/31/2021 10:00:00 PM 0.77 33.386 0.215 7.63 5.72 14.37
1/31/2021 10:15:00 PM 0.77 33.386 0.217 7.64 6.27 14.35
1/31/2021 10:30:00 PM 0.77 33.386 0.218 7.63 5.64 14.36
1/31/2021 10:45:00 PM 0.76 33.368 0.218 7.61 5.83 14.35
1/31/2021 11:00:00 PM 0.77 33.386 0.219 7.62 5.66 14.35
1/31/2021 11:15:00 PM 0.77 33.386 0.219 7.61 5.57 14.35
1/31/2021 11:30:00 PM 0.78 33.404 0.22 7.63 5.65 14.34
1/31/2021 11:45:00 PM 0.76 33.368 0.219 7.62 5.89 14.34
2/1/2021 12:00:00 AM 0.8 33.44 0.219 7.62 6.62 14.34
2/1/2021 12:15:00 AM 0.78 33.404 0.218 7.61 6.52 14.34
2/1/2021 12:30:00 AM 0.81 33.458 0.212 7.62 5.57 14.32
2/1/2021 12:45:00 AM 0.84 33.512 0.217 7.6 6.25 14.33
2/1/2021 1:00:00 AM 0.82 33.476 0.227 7.6 6.78 14.32
2/1/2021 1:15:00 AM 0.84 33.512 0.217 7.6 7.11 14.31
2/1/2021 1:30:00 AM 0.84 33.512 0.219 7.6 6.63 14.29
2/1/2021 1:45:00 AM 0.84 33.512 0.219 7.59 6.97 14.31
2/1/2021 2:00:00 AM 0.83 33.494 0.22 7.6 6.41 14.3
2/1/2021 2:15:00 AM 0.83 33.494 0.218 7.57 5.74 14.28
2/1/2021 2:30:00 AM 0.85 33.53 0.216 7.58 6.63 14.27
2/1/2021 2:45:00 AM 0.83 33.494 0.216 7.57 7.1 14.27
2/1/2021 3:00:00 AM 0.84 33.512 0.215 7.59 6.87 14.26
2/1/2021 3:15:00 AM 0.83 33.494 0.217 7.58 5.94 14.25
2/1/2021 3:30:00 AM 0.83 33.494 0.222 7.57 5.95 14.25
2/1/2021 3:45:00 AM 0.77 33.386 0.226 7.57 5.7 14.25
2/1/2021 4:00:00 AM 0.81 33.458 0.225 7.57 6.11 14.22
2/1/2021 4:15:00 AM 0.79 33.422 0.226 7.58 6.39 14.22
2/1/2021 4:30:00 AM 0.78 33.404 0.223 7.58 6.26 14.23
2/1/2021 4:45:00 AM 0.75 33.35 0.225 7.58 5.97 14.23
2/1/2021 5:00:00 AM 0.74 33.332 0.226 7.58 7.38 14.22
2/1/2021 5:15:00 AM 0.71 33.278 0.227 7.59 6.32 14.21
2/1/2021 5:30:00 AM 0.64 33.152 0.227 7.58 8.79 14.23
2/1/2021 5:45:00 AM 0.62 33.116 0.228 7.58 5.8 14.21
2/1/2021 6:00:00 AM 0.56 33.008 0.226 7.57 6.79 14.25
2/1/2021 6:15:00 AM 0.49 32.882 0.229 7.57 7.67 14.22
2/1/2021 6:30:00 AM 0.52 32.936 0.228 7.57 21.49 14.21
2/1/2021 6:45:00 AM 0.52 32.936 0.228 7.58 7.22 14.22
2/1/2021 7:00:00 AM 0.56 33.008 0.228 7.58 8.64 14.22
2/1/2021 7:15:00 AM 0.59 33.062 0.226 7.57 9.13 14.19
2/1/2021 7:30:00 AM 0.62 33.116 0.226 7.57 8.61 14.19
2/1/2021 7:45:00 AM 0.69 33.242 0.227 7.56 31.73 14.22
2/1/2021 8:00:00 AM 0.78 33.404 0.228 7.56 11.13 14.26
2/1/2021 8:15:00 AM 0.83 33.494 0.228 7.55 17.36 14.42
2/1/2021 8:30:00 AM 0.88 33.584 0.227 7.56 9.61 14.54
2/1/2021 8:45:00 AM 0.87 33.566 0.226 7.57 8.66 14.67
2/1/2021 9:00:00 AM 0.87 33.566 0.225 7.57 23.27 14.79
2/1/2021 9:15:00 AM 0.88 33.584 0.224 7.57 64.92 14.87
2/1/2021 9:30:00 AM 0.88 33.584 0.223 7.58 17.37 14.95
2/1/2021 9:45:00 AM 0.93 33.674 0.223 7.59 43.93 15.03
2/1/2021 10:00:00 AM 0.91 33.638 0.224 7.6 21.77 15.12
2/1/2021 10:15:00 AM 0.92 33.656 0.223 7.61 16.09 15.2
2/1/2021 10:30:00 AM 0.93 33.674 0.224 7.62 55.95 15.3
2/1/2021 10:45:00 AM 0.96 33.728 0.225 7.63 123.6 15.39
2/1/2021 11:00:00 AM 0.95 33.71 0.224 7.64 141.9 15.4
2/1/2021 11:15:00 AM 0.93 33.674 0.225 7.65 26.4 15.41
2/1/2021 11:30:00 AM 0.97 33.746 0.224 7.66 78.86 15.48
2/1/2021 11:45:00 AM 1 33.8 0.224 7.67 231.8 15.56
2/1/2021 12:00:00 PM 1.02 33.836 0.224 7.68 80.48 15.62
2/1/2021 12:15:00 PM 1.09 33.962 0.224 7.71 24.02 15.67
2/1/2021 12:30:00 PM 1.1 33.98 0.224 7.72 65.58 15.73
2/1/2021 12:45:00 PM 1.05 33.89 0.225 7.72 71.49 15.8
2/1/2021 1:00:00 PM 0.93 33.674 0.226 7.74 7.65 15.79
2/1/2021 1:15:00 PM 0.83 33.494 0.227 7.74 7.82 15.76
2/1/2021 1:30:00 PM 0.8 33.44 0.227 7.74 9.14 15.74
2/1/2021 1:45:00 PM 0.84 33.512 0.226 7.74 7.5 15.75
2/1/2021 2:00:00 PM 0.85 33.53 0.226 7.75 7.43 15.77
2/1/2021 2:15:00 PM 0.84 33.512 0.226 7.76 6.25 15.78
2/1/2021 2:30:00 PM 0.83 33.494 0.226 7.76 7.82 15.81
2/1/2021 2:45:00 PM 0.86 33.548 0.227 7.79 7.38 15.83
2/1/2021 3:00:00 PM 0.86 33.548 0.224 7.8 7.37 15.8
2/1/2021 3:15:00 PM 0.79 33.422 0.224 7.8 7.51 15.72
2/1/2021 3:30:00 PM 0.68 33.224 0.222 7.8 6.83 15.58
2/1/2021 3:45:00 PM 0.59 33.062 0.225 7.78 9.81 15.53
2/1/2021 4:00:00 PM 0.59 33.062 0.224 7.77 7.45 15.46
2/1/2021 4:15:00 PM 0.61 33.098 0.224 7.77 8.1 15.39
2/1/2021 4:30:00 PM 0.57 33.026 0.224 7.76 7.94 15.36
2/1/2021 4:45:00 PM 0.47 32.846 0.223 7.75 7.97 15.23
2/1/2021 5:00:00 PM 0.44 32.792 0.223 7.73 8.58 15.11
2/1/2021 5:15:00 PM 0.51 32.918 0.222 7.73 8.46 14.98
2/1/2021 5:30:00 PM 0.53 32.954 0.223 7.72 7.95 14.87
2/1/2021 5:45:00 PM 0.55 32.99 0.224 7.71 8.65 14.75
2/1/2021 6:00:00 PM 0.55 32.99 0.222 7.71 9.34 14.73
2/1/2021 6:15:00 PM 0.56 33.008 0.224 7.72 7.43 14.69
2/1/2021 6:30:00 PM 0.66 33.188 0.224 7.72 8.12 14.57
2/1/2021 6:45:00 PM 0.69 33.242 0.223 7.71 7.61 14.54
2/1/2021 7:00:00 PM 0.69 33.242 0.225 7.71 7.62 14.48
2/1/2021 7:15:00 PM 0.64 33.152 0.222 7.69 10 14.45
2/1/2021 7:30:00 PM 0.68 33.224 0.222 7.66 8 14.42
2/1/2021 7:45:00 PM 0.71 33.278 0.222 7.67 10.08 14.37
2/1/2021 8:00:00 PM 0.75 33.35 0.223 7.67 9.08 14.35
2/1/2021 8:15:00 PM 0.8 33.44 0.223 7.66 8.06 14.35
2/1/2021 8:30:00 PM 0.82 33.476 0.216 7.66 7.86 14.34
2/1/2021 8:45:00 PM 0.85 33.53 0.217 7.67 8.22 14.31
2/1/2021 9:00:00 PM 0.87 33.566 0.215 7.65 8.16 14.31
2/1/2021 9:15:00 PM 0.91 33.638 0.218 7.64 7.71 14.27
2/1/2021 9:30:00 PM 0.89 33.602 0.217 7.64 9.3 14.28
2/1/2021 9:45:00 PM 0.93 33.674 0.216 7.63 7.83 14.27
2/1/2021 10:00:00 PM 0.91 33.638 0.218 7.64 7.97 14.25
2/1/2021 10:15:00 PM 0.93 33.674 0.218 7.63 7.81 14.2
2/1/2021 10:30:00 PM 0.95 33.71 0.218 7.62 8.19 14.21
2/1/2021 10:45:00 PM 0.92 33.656 0.219 7.62 7.36 14.22
2/1/2021 11:00:00 PM 0.91 33.638 0.218 7.61 7.62 14.22
2/1/2021 11:15:00 PM 0.88 33.584 0.218 7.62 8.06 14.2
2/1/2021 11:30:00 PM 0.92 33.656 0.219 7.62 7 14.23
2/1/2021 11:45:00 PM 0.96 33.728 0.217 7.62 7.04 14.2
2/2/2021 12:00:00 AM 0.98 33.764 0.217 7.61 7.38 14.2
2/2/2021 12:15:00 AM 1.01 33.818 0.218 7.61 6.98 14.19
2/2/2021 12:30:00 AM 1.02 33.836 0.214 7.6 7.66 14.17
2/2/2021 12:45:00 AM 1.06 33.908 0.213 7.6 6.33 14.17
2/2/2021 1:00:00 AM 1.08 33.944 0.212 7.6 7.48 14.14
2/2/2021 1:15:00 AM 1.08 33.944 0.211 7.6 7.33 14.14
2/2/2021 1:30:00 AM 1.08 33.944 0.217 7.58 7.31 14.11
2/2/2021 1:45:00 AM 1.08 33.944 0.219 7.58 6.9 14.1
2/2/2021 2:00:00 AM 1.09 33.962 0.22 7.59 7.37 14.09
2/2/2021 2:15:00 AM 1.06 33.908 0.219 7.59 7.44 14.07
2/2/2021 2:30:00 AM 1.06 33.908 0.218 7.59 7.17 14.09
2/2/2021 2:45:00 AM 1.1 33.98 0.218 7.59 8 14.07
2/2/2021 3:00:00 AM 1.13 34.034 0.219 7.59 6.57 14.04
2/2/2021 3:15:00 AM 1.12 34.016 0.219 7.59 7.03 14.04
2/2/2021 3:30:00 AM 1.13 34.034 0.219 7.58 7.36 14.02
2/2/2021 3:45:00 AM 1.11 33.998 0.22 7.57 6.77 14.03
2/2/2021 4:00:00 AM 1.09 33.962 0.22 7.58 6.63 14.02
2/2/2021 4:15:00 AM 1.12 34.016 0.22 7.57 7.37 14
2/2/2021 4:30:00 AM 1.06 33.908 0.22 7.56 6.6 14
2/2/2021 4:45:00 AM 1.07 33.926 0.219 7.57 6.69 13.98
2/2/2021 5:00:00 AM 1.06 33.908 0.219 7.56 6.61 13.99
2/2/2021 5:15:00 AM 1.07 33.926 0.219 7.57 6.18 13.96
2/2/2021 5:30:00 AM 1.04 33.872 0.218 7.55 7.34 13.96
2/2/2021 5:45:00 AM 1.01 33.818 0.22 7.55 6.62 13.96
2/2/2021 6:00:00 AM 1 33.8 0.221 7.55 6.26 13.94
2/2/2021 6:15:00 AM 1.01 33.818 0.222 7.55 6.49 13.94
2/2/2021 6:30:00 AM 1 33.8 0.223 7.53 7.13 13.92
2/2/2021 6:45:00 AM 1.06 33.908 0.223 7.55 6.43 13.91
2/2/2021 7:00:00 AM 1.06 33.908 0.223 7.53 6.34 13.92
2/2/2021 7:15:00 AM 1.06 33.908 0.223 7.54 7.11 13.92
2/2/2021 7:30:00 AM 1.06 33.908 0.223 7.53 6.36 13.94
2/2/2021 7:45:00 AM 1.09 33.962 0.223 7.53 7.87 13.96
2/2/2021 8:00:00 AM 1.08 33.944 0.224 7.55 7.42 14.05
2/2/2021 8:15:00 AM 1.09 33.962 0.225 7.52 7.61 14.2
2/2/2021 8:30:00 AM 1.13 34.034 0.225 7.55 7.27 14.36
2/2/2021 8:45:00 AM 1.15 34.07 0.225 7.55 7.52 14.51
2/2/2021 9:00:00 AM 1.16 34.088 0.225 7.55 7.2 14.62
2/2/2021 9:15:00 AM 1.17 34.106 0.225 7.56 6.98 14.72
2/2/2021 9:30:00 AM 1.18 34.124 0.226 7.58 6.64 14.83
2/2/2021 9:45:00 AM 1.22 34.196 0.226 7.6 7.17 14.93
2/2/2021 10:00:00 AM 1.25 34.25 0.226 7.61 7.4 15
2/2/2021 10:15:00 AM 1.26 34.268 0.228 7.62 7.7 15.08
2/2/2021 10:30:00 AM 1.3 34.34 0.229 7.63 7.04 15.15
2/2/2021 10:45:00 AM 1.37 34.466 0.229 7.65 8.37 15.22
2/2/2021 11:00:00 AM 1.36 34.448 0.229 7.67 6.55 15.28
2/2/2021 11:15:00 AM 1.4 34.52 0.229 7.69 7.01 15.34
2/2/2021 11:30:00 AM 1.45 34.61 0.229 7.71 7.21 15.37
2/2/2021 11:45:00 AM 1.51 34.718 0.229 7.73 7.35 15.37
2/2/2021 12:00:00 PM 1.51 34.718 0.229 7.75 6.77 15.44
2/2/2021 12:15:00 PM 1.55 34.79 0.229 7.77 6.7 15.46
2/2/2021 12:30:00 PM 1.63 34.934 0.228 7.78 6.42 15.47
2/2/2021 12:45:00 PM 1.65 34.97 0.23 7.79 7.04 15.48
2/2/2021 1:00:00 PM 1.66 34.988 0.23 7.81 6.72 15.48
2/2/2021 1:15:00 PM 1.63 34.934 0.231 7.82 6.46 15.45
2/2/2021 1:30:00 PM 1.63 34.934 0.23 7.83 7 15.4
2/2/2021 1:45:00 PM 1.64 34.952 0.229 7.84 6.13 15.37
2/2/2021 2:00:00 PM 1.61 34.898 0.229 7.83 6.9 15.31
2/2/2021 2:15:00 PM 1.58 34.844 0.228 7.83 6.56 15.24
2/2/2021 2:30:00 PM 1.55 34.79 0.228 7.83 6.63 15.22
2/2/2021 2:45:00 PM 1.54 34.772 0.228 7.83 6.62 15.23
2/2/2021 3:00:00 PM 1.51 34.718 0.228 7.82 6.42 15.23
2/2/2021 3:15:00 PM 1.48 34.664 0.229 7.81 6.22 15.22
2/2/2021 3:30:00 PM 1.48 34.664 0.229 7.83 7.4 15.17
2/2/2021 3:45:00 PM 1.47 34.646 0.229 7.83 6.64 15.13
2/2/2021 4:00:00 PM 1.45 34.61 0.228 7.84 6.31 15.09
2/2/2021 4:15:00 PM 1.4 34.52 0.228 7.82 6.6 15.01
2/2/2021 4:30:00 PM 1.37 34.466 0.227 7.8 7.17 14.91
2/2/2021 4:45:00 PM 1.36 34.448 0.227 7.75 6.74 14.81
2/2/2021 5:00:00 PM 1.33 34.394 0.227 7.73 6.69 14.72
2/2/2021 5:15:00 PM 1.29 34.322 0.226 7.71 6.68 14.63
2/2/2021 5:30:00 PM 1.28 34.304 0.227 7.69 7.73 14.54
2/2/2021 5:45:00 PM 1.24 34.232 0.227 7.68 8.04 14.43
2/2/2021 6:00:00 PM 1.27 34.286 0.226 7.66 7.45 14.35
2/2/2021 6:15:00 PM 1.2 34.16 0.224 7.66 6.75 14.31
2/2/2021 6:30:00 PM 1.21 34.178 0.223 7.68 6.47 14.27
2/2/2021 6:45:00 PM 1.18 34.124 0.222 7.64 6.2 14.21
2/2/2021 7:00:00 PM 1.2 34.16 0.222 7.63 6.78 14.19
2/2/2021 7:15:00 PM 1.16 34.088 0.223 7.62 6.67 14.17
2/2/2021 7:30:00 PM 1.15 34.07 0.223 7.61 6.79 14.16
2/2/2021 7:45:00 PM 1.13 34.034 0.219 7.61 6.71 14.13
2/2/2021 8:00:00 PM 1.13 34.034 0.221 7.59 6.45 14.09
2/2/2021 8:15:00 PM 1.1 33.98 0.225 7.58 5.93 14.09
2/2/2021 8:30:00 PM 1.09 33.962 0.22 7.58 5.88 14.1
2/2/2021 8:45:00 PM 1.1 33.98 0.213 7.58 6.92 14.07
2/2/2021 9:00:00 PM 1.04 33.872 0.22 7.58 6.2 14.05
2/2/2021 9:15:00 PM 1.04 33.872 0.22 7.57 6.71 14.06
2/2/2021 9:30:00 PM 1.04 33.872 0.207 7.43 6.51 14.07
2/2/2021 9:45:00 PM 1.05 33.89 0.199 7.55 6.18 14.04
2/2/2021 10:00:00 PM 1.06 33.908 0.202 7.57 6.23 14.03
2/2/2021 10:15:00 PM 1.08 33.944 0.201 7.56 6.55 14.03
2/2/2021 10:30:00 PM 1.08 33.944 0.203 7.56 5.62 14.03
2/2/2021 10:45:00 PM 1.07 33.926 0.204 7.56 6.17 14
2/2/2021 11:00:00 PM 1.07 33.926 0.213 7.56 5.56 13.99
2/2/2021 11:15:00 PM 1.06 33.908 0.217 7.55 6.51 14
2/2/2021 11:30:00 PM 1.04 33.872 0.22 7.55 6.56 14.02
2/2/2021 11:45:00 PM 1.04 33.872 0.218 7.55 7.91 13.99
2/3/2021 12:00:00 AM 1.09 33.962 0.219 7.55 6.59 13.98
2/3/2021 12:15:00 AM 1.06 33.908 0.218 7.55 6.64 13.99
2/3/2021 12:30:00 AM 1.07 33.926 0.222 7.54 6.99 13.95
2/3/2021 12:45:00 AM 1.05 33.89 0.221 7.54 6.95 13.98
2/3/2021 1:00:00 AM 1.11 33.998 0.223 7.54 6.14 13.94
2/3/2021 1:15:00 AM 1.08 33.944 0.224 7.54 6.01 13.94
2/3/2021 1:30:00 AM 1.07 33.926 0.224 7.53 6.48 13.93
2/3/2021 1:45:00 AM 1.1 33.98 0.224 7.53 5.99 13.94
2/3/2021 2:00:00 AM 1.09 33.962 0.225 7.54 6.33 13.93
2/3/2021 2:15:00 AM 1.08 33.944 0.225 7.53 6.8 13.9
2/3/2021 2:30:00 AM 1.06 33.908 0.224 7.53 6.29 13.92
2/3/2021 2:45:00 AM 1.11 33.998 0.224 7.54 6.08 13.9
2/3/2021 3:00:00 AM 1.08 33.944 0.223 7.5 6.01 13.9
2/3/2021 3:15:00 AM 1.11 33.998 0.225 7.52 6.22 13.85
2/3/2021 3:30:00 AM 1.12 34.016 0.226 7.53 5.93 13.86
2/3/2021 3:45:00 AM 1.09 33.962 0.226 7.53 6.39 13.86
2/3/2021 4:00:00 AM 1.1 33.98 0.226 7.52 6.25 13.83
2/3/2021 4:15:00 AM 1.11 33.998 0.226 7.53 6.62 13.83
2/3/2021 4:30:00 AM 1.1 33.98 0.226 7.54 5.88 13.83
2/3/2021 4:45:00 AM 1.09 33.962 0.222 7.54 6.22 13.84
2/3/2021 5:00:00 AM 1.12 34.016 0.224 7.53 6.35 13.81
2/3/2021 5:15:00 AM 1.1 33.98 0.223 7.52 5.71 13.81
2/3/2021 5:30:00 AM 1.07 33.926 0.224 7.53 5.83 13.81
2/3/2021 5:45:00 AM 1.09 33.962 0.229 7.53 5.93 13.8
2/3/2021 6:00:00 AM 1.09 33.962 0.228 7.53 6.33 13.78
2/3/2021 6:15:00 AM 1.12 34.016 0.228 7.53 6.57 13.78
2/3/2021 6:30:00 AM 1.07 33.926 0.227 7.52 7.87 13.79
2/3/2021 6:45:00 AM 1.11 33.998 0.227 7.52 5.44 13.76
2/3/2021 7:00:00 AM 1.08 33.944 0.226 7.52 5.81 13.78
2/3/2021 7:15:00 AM 1.08 33.944 0.226 7.52 6.55 13.78
2/3/2021 7:30:00 AM 1.1 33.98 0.226 7.52 6.48 13.8
2/3/2021 7:45:00 AM 1.13 34.034 0.226 7.52 8.43 13.83
2/3/2021 8:00:00 AM 1.11 33.998 0.228 7.52 7.16 13.92
2/3/2021 8:15:00 AM 1.12 34.016 0.23 7.53 7.08 14.07
2/3/2021 8:30:00 AM 1.16 34.088 0.23 7.54 6.71 14.24
2/3/2021 8:45:00 AM 1.21 34.178 0.23 7.56 7.2 14.47
2/3/2021 9:00:00 AM 1.27 34.286 0.23 7.57 7.29 14.69
2/3/2021 9:15:00 AM 1.29 34.322 0.231 7.58 6.92 14.86
2/3/2021 9:30:00 AM 1.37 34.466 0.231 7.6 6.11 15.01
2/3/2021 9:45:00 AM 1.41 34.538 0.232 7.61 7.59 15.08
2/3/2021 10:00:00 AM 1.45 34.61 0.234 7.63 6.66 15.13
2/3/2021 10:15:00 AM 1.49 34.682 0.235 7.64 8.6 15.19
2/3/2021 10:30:00 AM 1.52 34.736 0.237 7.67 6.47 15.23
2/3/2021 10:45:00 AM 1.54 34.772 0.24 7.68 6.39 15.3
2/3/2021 11:00:00 AM 1.62 34.916 0.241 7.7 6.3 15.37
2/3/2021 11:15:00 AM 1.63 34.934 0.242 7.72 6.38 15.4
2/3/2021 11:30:00 AM 1.65 34.97 0.243 7.73 6.64 15.43
2/3/2021 11:45:00 AM 1.69 35.042 0.242 7.75 6.34 15.43
2/3/2021 12:00:00 PM 1.69 35.042 0.244 7.76 5.78 15.45
2/3/2021 12:15:00 PM 1.74 35.132 0.244 7.78 6.86 15.45
2/3/2021 12:30:00 PM 1.79 35.222 0.245 7.77 5.66 15.49
2/3/2021 12:45:00 PM 1.82 35.276 0.246 7.79 5.83 15.52
2/3/2021 1:00:00 PM 1.82 35.276 0.249 7.82 6.22 15.55
2/3/2021 1:15:00 PM 1.89 35.402 0.249 7.84 5.5 15.6
2/3/2021 1:30:00 PM 1.92 35.456 0.25 7.85 6.87 15.62
2/3/2021 1:45:00 PM 1.97 35.546 0.248 7.88 5.79 15.63
2/3/2021 2:00:00 PM 2.13 35.834 0.247 7.91 5.93 15.65
2/3/2021 2:15:00 PM 2.21 35.978 0.246 7.94 6.59 15.65
2/3/2021 2:30:00 PM 2.25 36.05 0.247 7.99 6.31 15.65
2/3/2021 2:45:00 PM 2.29 36.122 0.245 8.01 6.27 15.58
2/3/2021 3:00:00 PM 2.31 36.158 0.244 8.01 6.27 15.54
2/3/2021 3:15:00 PM 2.33 36.194 0.244 8.01 5.55 15.5
2/3/2021 3:30:00 PM 2.33 36.194 0.245 8.01 5.81 15.45
2/3/2021 3:45:00 PM 2.3 36.14 0.246 8.01 6.05 15.45
2/3/2021 4:00:00 PM 2.31 36.158 0.246 8 5.93 15.42
2/3/2021 4:15:00 PM 2.3 36.14 0.246 8 6.71 15.37
2/3/2021 4:30:00 PM 2.29 36.122 0.245 7.99 5.88 15.25
2/3/2021 4:45:00 PM 2.22 35.996 0.245 7.97 6.45 15.13
2/3/2021 5:00:00 PM 2.2 35.96 0.243 7.98 6.68 14.94
2/3/2021 5:15:00 PM 2.13 35.834 0.243 7.97 6.76 14.78
2/3/2021 5:30:00 PM 2.09 35.762 0.243 7.95 6.99 14.62
2/3/2021 5:45:00 PM 2.06 35.708 0.243 7.92 7.02 14.45
2/3/2021 6:00:00 PM 2.02 35.636 0.244 7.9 7.18 14.33
2/3/2021 6:15:00 PM 1.97 35.546 0.244 7.87 6.87 14.23
2/3/2021 6:30:00 PM 1.92 35.456 0.25 7.85 6.6 14.14
2/3/2021 6:45:00 PM 1.85 35.33 0.246 7.82 6.26 14.07
2/3/2021 7:00:00 PM 1.84 35.312 0.246 7.8 6.76 14.01
2/3/2021 7:15:00 PM 1.82 35.276 0.244 7.77 6.74 13.97
2/3/2021 7:30:00 PM 1.78 35.204 0.242 7.77 6.79 13.92
2/3/2021 7:45:00 PM 1.78 35.204 0.241 7.75 6.03 13.9
2/3/2021 8:00:00 PM 1.76 35.168 0.242 7.74 6.77 13.86
2/3/2021 8:15:00 PM 1.77 35.186 0.244 7.73 6.14 13.82
2/3/2021 8:30:00 PM 1.75 35.15 0.245 7.72 7.52 13.81
2/3/2021 8:45:00 PM 1.74 35.132 0.244 7.72 6.77 13.8
2/3/2021 9:00:00 PM 1.75 35.15 0.22 7.7 6.33 13.76
2/3/2021 9:15:00 PM 1.74 35.132 0.228 7.69 7.17 13.76
2/3/2021 9:30:00 PM 1.73 35.114 0.234 7.69 7.34 13.75
2/3/2021 9:45:00 PM 1.69 35.042 0.241 7.68 7.49 13.75
2/3/2021 10:00:00 PM 1.68 35.024 0.242 7.68 7.31 13.72
2/3/2021 10:15:00 PM 1.69 35.042 0.242 7.66 7.45 13.7
2/3/2021 10:30:00 PM 1.69 35.042 0.244 7.66 7.32 13.66
2/3/2021 10:45:00 PM 1.67 35.006 0.245 7.65 6.71 13.67
2/3/2021 11:00:00 PM 1.64 34.952 0.246 7.66 6.73 13.69
2/3/2021 11:15:00 PM 1.65 34.97 0.246 7.64 6.69 13.67
2/3/2021 11:30:00 PM 1.61 34.898 0.244 7.62 6.04 13.66
2/3/2021 11:45:00 PM 1.6 34.88 0.245 7.62 6.51 13.66
2/4/2021 12:00:00 AM 1.59 34.862 0.238 7.62 6.45 13.66
2/4/2021 12:15:00 AM 1.6 34.88 0.233 7.61 6.62 13.65
2/4/2021 12:30:00 AM 1.57 34.826 0.231 7.6 6.15 13.63
2/4/2021 12:45:00 AM 1.59 34.862 0.231 7.6 7.02 13.63
2/4/2021 1:00:00 AM 1.56 34.808 0.233 7.61 6.66 13.64
2/4/2021 1:15:00 AM 1.56 34.808 0.238 7.58 6.16 13.63
2/4/2021 1:30:00 AM 1.53 34.754 0.237 7.59 6.31 13.63
2/4/2021 1:45:00 AM 1.49 34.682 0.236 7.58 6.54 13.65
2/4/2021 2:00:00 AM 1.48 34.664 0.236 7.58 6.79 13.63
2/4/2021 2:15:00 AM 1.46 34.628 0.235 7.59 6.11 13.65
2/4/2021 2:30:00 AM 1.44 34.592 0.234 7.58 6.37 13.65
2/4/2021 2:45:00 AM 1.43 34.574 0.234 7.58 7.49 13.64
2/4/2021 3:00:00 AM 1.43 34.574 0.233 7.57 6.13 13.63
2/4/2021 3:15:00 AM 1.4 34.52 0.234 7.56 16.53 13.65
2/4/2021 3:30:00 AM 1.37 34.466 0.235 7.55 6.46 13.64
2/4/2021 3:45:00 AM 1.36 34.448 0.237 7.57 6.79 13.65
2/4/2021 4:00:00 AM 1.34 34.412 0.236 7.56 9.06 13.64
2/4/2021 4:15:00 AM 1.29 34.322 0.237 7.54 5.77 13.66
2/4/2021 4:30:00 AM 1.29 34.322 0.234 7.53 6.26 13.66
2/4/2021 4:45:00 AM 1.24 34.232 0.235 7.53 6.34 13.67
2/4/2021 5:00:00 AM 1.22 34.196 0.234 7.52 5.86 13.66
2/4/2021 5:15:00 AM 1.21 34.178 0.233 7.55 6.04 13.67
2/4/2021 5:30:00 AM 1.18 34.124 0.233 7.54 6.07 13.69
2/4/2021 5:45:00 AM 1.14 34.052 0.235 7.54 6.29 13.69
2/4/2021 6:00:00 AM 1.11 33.998 0.238 7.55 5.74 13.7
2/4/2021 6:15:00 AM 1.08 33.944 0.237 7.54 5.78 13.69
2/4/2021 6:30:00 AM 1.05 33.89 0.237 7.53 6.25 13.71
2/4/2021 6:45:00 AM 1.02 33.836 0.236 7.53 6.09 13.73
2/4/2021 7:00:00 AM 0.98 33.764 0.236 7.53 6.6 13.74
2/4/2021 7:15:00 AM 0.97 33.746 0.235 7.52 6.06 13.74
2/4/2021 7:30:00 AM 0.93 33.674 0.234 7.52 6.07 13.78
2/4/2021 7:45:00 AM 0.9 33.62 0.236 7.51 6.89 13.87
2/4/2021 8:00:00 AM 0.91 33.638 0.236 7.53 6.47 14
2/4/2021 8:15:00 AM 0.93 33.674 0.237 7.51 6.2 14.13
2/4/2021 8:30:00 AM 0.92 33.656 0.237 7.52 5.98 14.29
2/4/2021 8:45:00 AM 0.95 33.71 0.236 7.51 6.88 14.46
2/4/2021 9:00:00 AM 1 33.8 0.235 7.54 7.75 14.61
2/4/2021 9:15:00 AM 1.07 33.926 0.234 7.56 6.98 14.79
2/4/2021 9:30:00 AM 1.14 34.052 0.234 7.59 6.51 14.94
2/4/2021 9:45:00 AM 1.25 34.25 0.232 7.6 7.48 15.04
2/4/2021 10:00:00 AM 1.35 34.43 0.234 7.64 6.66 15.14
2/4/2021 10:15:00 AM 1.48 34.664 0.232 7.67 6.45 15.22
2/4/2021 10:30:00 AM 1.59 34.862 0.232 7.7 6.71 15.26
2/4/2021 10:45:00 AM 1.68 35.024 0.234 7.71 6.56 15.33
2/4/2021 11:00:00 AM 1.86 35.348 0.232 7.75 6.46 15.37
2/4/2021 11:15:00 AM 1.95 35.51 0.232 7.77 6.79 15.41
2/4/2021 11:30:00 AM 2.11 35.798 0.232 7.8 6.97 15.44
2/4/2021 11:45:00 AM 2.23 36.014 0.232 7.81 8.14 15.44
2/4/2021 12:00:00 PM 2.39 36.302 0.232 7.83 6.43 15.46
2/4/2021 12:15:00 PM 2.49 36.482 0.233 7.84 5.63 15.47
2/4/2021 12:30:00 PM 2.65 36.77 0.23 7.86 7.62 15.45
2/4/2021 12:45:00 PM 2.76 36.968 0.23 7.87 6.79 15.43
2/4/2021 1:00:00 PM 2.82 37.076 0.231 7.9 7.38 15.43
2/4/2021 1:15:00 PM 2.91 37.238 0.233 7.89 6.44 15.42
2/4/2021 1:30:00 PM 2.99 37.382 0.233 7.88 6.78 15.41
2/4/2021 1:45:00 PM 3.04 37.472 0.232 7.9 6.72 15.38
2/4/2021 2:00:00 PM 3.07 37.526 0.23 7.9 6.67 15.38
2/4/2021 2:15:00 PM 3.12 37.616 0.23 7.91 6 15.35
2/4/2021 2:30:00 PM 3.11 37.598 0.23 7.9 5.98 15.32
2/4/2021 2:45:00 PM 3.12 37.616 0.232 7.89 6.78 15.29
2/4/2021 3:00:00 PM 3.12 37.616 0.232 7.89 6.37 15.24
2/4/2021 3:15:00 PM 3.12 37.616 0.233 7.89 6.73 15.19
2/4/2021 3:30:00 PM 3.1 37.58 0.235 7.88 6.61 15.14
2/4/2021 3:45:00 PM 3.06 37.508 0.235 7.89 7.08 15.06
2/4/2021 4:00:00 PM 3.02 37.436 0.236 7.85 7.98 14.96
2/4/2021 4:15:00 PM 2.95 37.31 0.236 7.84 7.44 14.9
2/4/2021 4:30:00 PM 2.89 37.202 0.236 7.83 7.16 14.8
2/4/2021 4:45:00 PM 2.82 37.076 0.235 7.81 6.65 14.7
2/4/2021 5:00:00 PM 2.75 36.95 0.234 7.77 6.67 14.55
2/4/2021 5:15:00 PM 2.68 36.824 0.234 7.72 6.83 14.42
2/4/2021 5:30:00 PM 2.61 36.698 0.234 6.69 6.91 14.3
2/4/2021 5:45:00 PM 2.55 36.59 0.237 7.1 6.56 14.2
2/4/2021 6:00:00 PM 2.5 36.5 0.236 7.23 7.01 14.09
2/4/2021 6:15:00 PM 2.44 36.392 0.235 7.31 6.93 14.01
2/4/2021 6:30:00 PM 2.39 36.302 0.243 7.36 6.52 13.93
2/4/2021 6:45:00 PM 2.34 36.212 0.239 7.4 7.31 13.88
2/4/2021 7:00:00 PM 2.28 36.104 0.23 7.39 9.19 13.85
2/4/2021 7:15:00 PM 2.24 36.032 0.218 7.43 6.83 13.81
2/4/2021 7:30:00 PM 2.18 35.924 0.228 7.35 6.86 13.77
2/4/2021 7:45:00 PM 2.16 35.888 0.225 7.4 6.66 13.74
2/4/2021 8:00:00 PM 2.13 35.834 0.231 7.45 6.16 13.7
2/4/2021 8:15:00 PM 2.12 35.816 0.231 7.48 6.4 13.68
2/4/2021 8:30:00 PM 2.11 35.798 0.234 7.5 6.14 13.65
2/4/2021 8:45:00 PM 2.08 35.744 0.235 7.49 6.55 13.65
2/4/2021 9:00:00 PM 2.09 35.762 0.23 7.5 6.47 13.61
2/4/2021 9:15:00 PM 2.08 35.744 0.23 7.51 6.47 13.6
2/4/2021 9:30:00 PM 2.09 35.762 0.231 7.51 7.05 13.56
2/4/2021 9:45:00 PM 2.09 35.762 0.234 7.51 6.68 13.55
2/4/2021 10:00:00 PM 2.09 35.762 0.23 7.52 6.23 13.53
2/4/2021 10:15:00 PM 2.11 35.798 0.23 7.52 7.18 13.51
2/4/2021 10:30:00 PM 2.14 35.852 0.231 7.52 6.47 13.49
2/4/2021 10:45:00 PM 2.15 35.87 0.232 7.52 6.61 13.47
2/4/2021 11:00:00 PM 2.17 35.906 0.234 7.53 6.72 13.46
2/4/2021 11:15:00 PM 2.2 35.96 0.235 7.51 6.51 13.41
2/4/2021 11:30:00 PM 2.21 35.978 0.232 7.52 7.81 13.4
2/4/2021 11:45:00 PM 2.24 36.032 0.218 7.52 5.8 13.4
2/5/2021 12:00:00 AM 2.27 36.086 0.222 7.52 6.1 13.37
2/5/2021 12:15:00 AM 2.29 36.122 0.237 7.51 5.8 13.36
2/5/2021 12:30:00 AM 2.33 36.194 0.238 7.53 5.84 13.33
2/5/2021 12:45:00 AM 2.36 36.248 0.237 7.52 6.12 13.32
2/5/2021 1:00:00 AM 2.38 36.284 0.238 7.52 5.67 13.32
2/5/2021 1:15:00 AM 2.4 36.32 0.241 7.53 5.65 13.29
2/5/2021 1:30:00 AM 2.41 36.338 0.24 7.48 5.59 13.28
2/5/2021 1:45:00 AM 2.43 36.374 0.243 7.49 5.64 13.26
2/5/2021 2:00:00 AM 2.43 36.374 0.233 7.46 5.51 13.26
2/5/2021 2:15:00 AM 2.45 36.41 0.21 7.47 5.86 13.24
2/5/2021 2:30:00 AM 2.45 36.41 0.229 7.34 6.32 13.24
2/5/2021 2:45:00 AM 2.45 36.41 0.235 7.41 5.89 13.24
2/5/2021 3:00:00 AM 2.44 36.392 0.229 7.44 6.85 13.24
2/5/2021 3:15:00 AM 2.43 36.374 0.232 7.44 5.26 13.24
2/5/2021 3:30:00 AM 2.44 36.392 0.235 7.45 5.88 13.22
2/5/2021 3:45:00 AM 2.44 36.392 0.227 7.47 5.72 13.21
2/5/2021 4:00:00 AM 2.43 36.374 0.209 7.47 5.86 13.19
2/5/2021 4:15:00 AM 2.44 36.392 0.207 7.46 5.85 13.19
2/5/2021 4:30:00 AM 2.42 36.356 0.217 7.46 6.56 13.2
2/5/2021 4:45:00 AM 2.39 36.302 0.218 7.44 5.87 13.19
2/5/2021 5:00:00 AM 2.37 36.266 0.218 7.47 5.93 13.19
2/5/2021 5:15:00 AM 2.36 36.248 0.22 7.47 6 13.17
2/5/2021 5:30:00 AM 2.33 36.194 0.22 7.47 6.9 13.18
2/5/2021 5:45:00 AM 2.32 36.176 0.224 7.47 6.22 13.16
2/5/2021 6:00:00 AM 2.3 36.14 0.231 7.46 6.11 13.18
2/5/2021 6:15:00 AM 2.29 36.122 0.229 7.46 6.63 13.16
2/5/2021 6:30:00 AM 2.29 36.122 0.227 7.47 7 13.16
2/5/2021 6:45:00 AM 2.28 36.104 0.226 7.47 6.11 13.16
2/5/2021 7:00:00 AM 2.28 36.104 0.231 7.48 5.97 13.17
2/5/2021 7:15:00 AM 2.28 36.104 0.231 7.45 5.63 13.18
2/5/2021 7:30:00 AM 2.27 36.086 0.231 7.47 6.63 13.18
2/5/2021 7:45:00 AM 2.27 36.086 0.234 7.44 6.26 13.22
2/5/2021 8:00:00 AM 2.31 36.158 0.234 7.45 6.9 13.34
2/5/2021 8:15:00 AM 2.32 36.176 0.237 7.46 7.12 13.5
2/5/2021 8:30:00 AM 2.33 36.194 0.241 7.47 6.39 13.66
2/5/2021 8:45:00 AM 2.34 36.212 0.24 7.49 6.61 13.82
2/5/2021 9:00:00 AM 2.38 36.284 0.243 7.52 6.83 14
2/5/2021 9:15:00 AM 2.44 36.392 0.242 7.53 6.21 14.18
2/5/2021 9:30:00 AM 2.52 36.536 0.242 7.56 6.25 14.32
2/5/2021 9:45:00 AM 2.6 36.68 0.241 7.6 6.24 14.49
2/5/2021 10:00:00 AM 2.68 36.824 0.24 7.62 6.5 14.59
2/5/2021 10:15:00 AM 2.78 37.004 0.239 7.67 7.25 14.66
2/5/2021 10:30:00 AM 2.88 37.184 0.239 7.71 7.41 14.72
2/5/2021 10:45:00 AM 2.98 37.364